<?xml version="1.0" encoding="UTF-8" standalone="no" ?>
<gpx xmlns="http://www.topografix.com/GPX/1/1" xmlns:xsi="http://www.w3.org/2001/XMLSchema-instance" xsi:schemaLocation="http://www.topografix.com/GPX/1/1 http://www.topografix.com/GPX/1/1/gpx.xsd" version="1.1" creator="VisuGPX - https://www.visugpx.com">
  <metadata>
    <name>Cascade Piscia Di l'onda</name>
    <desc><![CDATA[Rando très ombragée, superbe cascade 👌]]></desc>
  </metadata>
  <trk>
    <name><![CDATA[Cascade Piscia Di l'onda_1]]></name>
    <trkseg>
      <trkpt lat="41.8069" lon="9.01565">
        <ele>500.8</ele>
        <time>2024-07-30T07:21:26Z</time>
      </trkpt>
      <trkpt lat="41.80689" lon="9.01568">
        <ele>500.8</ele>
        <time>2024-07-30T07:21:32Z</time>
      </trkpt>
      <trkpt lat="41.80687" lon="9.01583">
        <ele>501.6</ele>
        <time>2024-07-30T07:21:43Z</time>
      </trkpt>
      <trkpt lat="41.80683" lon="9.01596">
        <ele>499.8</ele>
        <time>2024-07-30T07:21:53Z</time>
      </trkpt>
      <trkpt lat="41.80683" lon="9.01597">
        <ele>499.8</ele>
        <time>2024-07-30T07:21:54Z</time>
      </trkpt>
      <trkpt lat="41.80682" lon="9.01601">
        <ele>499.4</ele>
        <time>2024-07-30T07:22:02Z</time>
      </trkpt>
      <trkpt lat="41.80682" lon="9.016">
        <ele>500.2</ele>
        <time>2024-07-30T07:22:05Z</time>
      </trkpt>
      <trkpt lat="41.80677" lon="9.016">
        <ele>499.6</ele>
        <time>2024-07-30T07:22:16Z</time>
      </trkpt>
      <trkpt lat="41.80673" lon="9.01604">
        <ele>500</ele>
        <time>2024-07-30T07:22:22Z</time>
      </trkpt>
      <trkpt lat="41.80672" lon="9.01606">
        <ele>500</ele>
        <time>2024-07-30T07:22:27Z</time>
      </trkpt>
      <trkpt lat="41.80664" lon="9.01617">
        <ele>499.4</ele>
        <time>2024-07-30T07:22:38Z</time>
      </trkpt>
      <trkpt lat="41.80662" lon="9.01622">
        <ele>499.6</ele>
        <time>2024-07-30T07:22:40Z</time>
      </trkpt>
      <trkpt lat="41.80661" lon="9.01623">
        <ele>499.6</ele>
        <time>2024-07-30T07:22:41Z</time>
      </trkpt>
      <trkpt lat="41.8067" lon="9.01639">
        <ele>499</ele>
        <time>2024-07-30T07:22:55Z</time>
      </trkpt>
      <trkpt lat="41.80671" lon="9.0164">
        <ele>499.2</ele>
        <time>2024-07-30T07:22:56Z</time>
      </trkpt>
      <trkpt lat="41.80686" lon="9.01652">
        <ele>500.6</ele>
        <time>2024-07-30T07:23:09Z</time>
      </trkpt>
      <trkpt lat="41.80695" lon="9.01661">
        <ele>500.8</ele>
        <time>2024-07-30T07:23:20Z</time>
      </trkpt>
      <trkpt lat="41.807" lon="9.01663">
        <ele>500.8</ele>
        <time>2024-07-30T07:23:26Z</time>
      </trkpt>
      <trkpt lat="41.80715" lon="9.01679">
        <ele>501.4</ele>
        <time>2024-07-30T07:23:41Z</time>
      </trkpt>
      <trkpt lat="41.80723" lon="9.01691">
        <ele>501.4</ele>
        <time>2024-07-30T07:23:54Z</time>
      </trkpt>
      <trkpt lat="41.80727" lon="9.01695">
        <ele>501.6</ele>
        <time>2024-07-30T07:24:01Z</time>
      </trkpt>
      <trkpt lat="41.80727" lon="9.01701">
        <ele>501.8</ele>
        <time>2024-07-30T07:24:06Z</time>
      </trkpt>
      <trkpt lat="41.80728" lon="9.01704">
        <ele>501.8</ele>
        <time>2024-07-30T07:24:08Z</time>
      </trkpt>
      <trkpt lat="41.80728" lon="9.01706">
        <ele>501.8</ele>
        <time>2024-07-30T07:24:09Z</time>
      </trkpt>
      <trkpt lat="41.80729" lon="9.01708">
        <ele>501.8</ele>
        <time>2024-07-30T07:24:11Z</time>
      </trkpt>
      <trkpt lat="41.8073" lon="9.01713">
        <ele>502</ele>
        <time>2024-07-30T07:24:17Z</time>
      </trkpt>
      <trkpt lat="41.80729" lon="9.01718">
        <ele>501.8</ele>
        <time>2024-07-30T07:24:23Z</time>
      </trkpt>
      <trkpt lat="41.80727" lon="9.01735">
        <ele>502.4</ele>
        <time>2024-07-30T07:24:37Z</time>
      </trkpt>
      <trkpt lat="41.80726" lon="9.0174">
        <ele>502.2</ele>
        <time>2024-07-30T07:24:40Z</time>
      </trkpt>
      <trkpt lat="41.80725" lon="9.01765">
        <ele>502.6</ele>
        <time>2024-07-30T07:24:57Z</time>
      </trkpt>
      <trkpt lat="41.80728" lon="9.01775">
        <ele>503</ele>
        <time>2024-07-30T07:25:04Z</time>
      </trkpt>
      <trkpt lat="41.80729" lon="9.01786">
        <ele>503.4</ele>
        <time>2024-07-30T07:25:12Z</time>
      </trkpt>
      <trkpt lat="41.80735" lon="9.01808">
        <ele>503.4</ele>
        <time>2024-07-30T07:25:29Z</time>
      </trkpt>
      <trkpt lat="41.80728" lon="9.01829">
        <ele>503.6</ele>
        <time>2024-07-30T07:25:44Z</time>
      </trkpt>
      <trkpt lat="41.80715" lon="9.01846">
        <ele>503.6</ele>
        <time>2024-07-30T07:26:00Z</time>
      </trkpt>
      <trkpt lat="41.80706" lon="9.01861">
        <ele>503.4</ele>
        <time>2024-07-30T07:26:13Z</time>
      </trkpt>
      <trkpt lat="41.80697" lon="9.01875">
        <ele>503.6</ele>
        <time>2024-07-30T07:26:27Z</time>
      </trkpt>
      <trkpt lat="41.80687" lon="9.01878">
        <ele>503.6</ele>
        <time>2024-07-30T07:26:40Z</time>
      </trkpt>
      <trkpt lat="41.80674" lon="9.01878">
        <ele>504</ele>
        <time>2024-07-30T07:26:54Z</time>
      </trkpt>
      <trkpt lat="41.80673" lon="9.01878">
        <ele>504</ele>
        <time>2024-07-30T07:26:55Z</time>
      </trkpt>
      <trkpt lat="41.8067" lon="9.01878">
        <ele>504</ele>
        <time>2024-07-30T07:26:58Z</time>
      </trkpt>
      <trkpt lat="41.80653" lon="9.01879">
        <ele>504</ele>
        <time>2024-07-30T07:27:14Z</time>
      </trkpt>
      <trkpt lat="41.80635" lon="9.01888">
        <ele>504.6</ele>
        <time>2024-07-30T07:27:31Z</time>
      </trkpt>
      <trkpt lat="41.80633" lon="9.01889">
        <ele>504.6</ele>
        <time>2024-07-30T07:27:32Z</time>
      </trkpt>
      <trkpt lat="41.80623" lon="9.01905">
        <ele>504.4</ele>
        <time>2024-07-30T07:27:45Z</time>
      </trkpt>
      <trkpt lat="41.80619" lon="9.01907">
        <ele>504.6</ele>
        <time>2024-07-30T07:27:51Z</time>
      </trkpt>
      <trkpt lat="41.80615" lon="9.01913">
        <ele>504.4</ele>
        <time>2024-07-30T07:27:58Z</time>
      </trkpt>
      <trkpt lat="41.80614" lon="9.01914">
        <ele>504.4</ele>
        <time>2024-07-30T07:27:59Z</time>
      </trkpt>
      <trkpt lat="41.80613" lon="9.01917">
        <ele>504.4</ele>
        <time>2024-07-30T07:28:01Z</time>
      </trkpt>
      <trkpt lat="41.80608" lon="9.01931">
        <ele>504.4</ele>
        <time>2024-07-30T07:28:14Z</time>
      </trkpt>
      <trkpt lat="41.80604" lon="9.0195">
        <ele>504.4</ele>
        <time>2024-07-30T07:28:27Z</time>
      </trkpt>
      <trkpt lat="41.80606" lon="9.01969">
        <ele>504.6</ele>
        <time>2024-07-30T07:28:42Z</time>
      </trkpt>
      <trkpt lat="41.80606" lon="9.01994">
        <ele>504.8</ele>
        <time>2024-07-30T07:28:58Z</time>
      </trkpt>
      <trkpt lat="41.80605" lon="9.02019">
        <ele>504.6</ele>
        <time>2024-07-30T07:29:14Z</time>
      </trkpt>
      <trkpt lat="41.80604" lon="9.0204">
        <ele>504.4</ele>
        <time>2024-07-30T07:29:27Z</time>
      </trkpt>
      <trkpt lat="41.806" lon="9.0205">
        <ele>504.4</ele>
        <time>2024-07-30T07:29:39Z</time>
      </trkpt>
      <trkpt lat="41.80599" lon="9.0205">
        <ele>504.4</ele>
        <time>2024-07-30T07:29:40Z</time>
      </trkpt>
      <trkpt lat="41.80596" lon="9.02055">
        <ele>505</ele>
        <time>2024-07-30T07:29:47Z</time>
      </trkpt>
      <trkpt lat="41.8059" lon="9.02059">
        <ele>505.2</ele>
        <time>2024-07-30T07:29:54Z</time>
      </trkpt>
      <trkpt lat="41.80585" lon="9.02069">
        <ele>505.4</ele>
        <time>2024-07-30T07:30:07Z</time>
      </trkpt>
      <trkpt lat="41.80582" lon="9.02069">
        <ele>505.4</ele>
        <time>2024-07-30T07:30:10Z</time>
      </trkpt>
      <trkpt lat="41.80567" lon="9.02067">
        <ele>505.6</ele>
        <time>2024-07-30T07:30:24Z</time>
      </trkpt>
      <trkpt lat="41.80551" lon="9.02065">
        <ele>506</ele>
        <time>2024-07-30T07:30:39Z</time>
      </trkpt>
      <trkpt lat="41.8055" lon="9.02065">
        <ele>506</ele>
        <time>2024-07-30T07:30:40Z</time>
      </trkpt>
      <trkpt lat="41.80531" lon="9.02077">
        <ele>506.4</ele>
        <time>2024-07-30T07:30:53Z</time>
      </trkpt>
      <trkpt lat="41.80529" lon="9.02079">
        <ele>506.4</ele>
        <time>2024-07-30T07:30:54Z</time>
      </trkpt>
      <trkpt lat="41.80519" lon="9.02091">
        <ele>506.2</ele>
        <time>2024-07-30T07:31:06Z</time>
      </trkpt>
      <trkpt lat="41.80513" lon="9.02092">
        <ele>506.6</ele>
        <time>2024-07-30T07:31:17Z</time>
      </trkpt>
      <trkpt lat="41.80507" lon="9.02084">
        <ele>507</ele>
        <time>2024-07-30T07:31:28Z</time>
      </trkpt>
      <trkpt lat="41.80507" lon="9.02083">
        <ele>507</ele>
        <time>2024-07-30T07:31:29Z</time>
      </trkpt>
      <trkpt lat="41.80505" lon="9.02079">
        <ele>507</ele>
        <time>2024-07-30T07:31:32Z</time>
      </trkpt>
      <trkpt lat="41.80499" lon="9.02074">
        <ele>506.8</ele>
        <time>2024-07-30T07:31:39Z</time>
      </trkpt>
      <trkpt lat="41.80496" lon="9.02071">
        <ele>507</ele>
        <time>2024-07-30T07:31:43Z</time>
      </trkpt>
      <trkpt lat="41.80495" lon="9.0207">
        <ele>507</ele>
        <time>2024-07-30T07:31:44Z</time>
      </trkpt>
      <trkpt lat="41.8048" lon="9.02059">
        <ele>507.2</ele>
        <time>2024-07-30T07:31:58Z</time>
      </trkpt>
      <trkpt lat="41.80462" lon="9.02053">
        <ele>507.8</ele>
        <time>2024-07-30T07:32:14Z</time>
      </trkpt>
      <trkpt lat="41.8046" lon="9.02053">
        <ele>507.8</ele>
        <time>2024-07-30T07:32:16Z</time>
      </trkpt>
      <trkpt lat="41.80452" lon="9.02049">
        <ele>508.2</ele>
        <time>2024-07-30T07:32:24Z</time>
      </trkpt>
      <trkpt lat="41.80447" lon="9.02043">
        <ele>508.4</ele>
        <time>2024-07-30T07:32:32Z</time>
      </trkpt>
      <trkpt lat="41.80447" lon="9.02043">
        <ele>508.4</ele>
        <time>2024-07-30T07:32:34Z</time>
      </trkpt>
      <trkpt lat="41.80441" lon="9.02039">
        <ele>508.2</ele>
        <time>2024-07-30T07:32:45Z</time>
      </trkpt>
      <trkpt lat="41.80435" lon="9.02046">
        <ele>507.6</ele>
        <time>2024-07-30T07:32:59Z</time>
      </trkpt>
      <trkpt lat="41.80434" lon="9.02041">
        <ele>508</ele>
        <time>2024-07-30T07:33:12Z</time>
      </trkpt>
      <trkpt lat="41.80437" lon="9.02034">
        <ele>507.4</ele>
        <time>2024-07-30T07:33:24Z</time>
      </trkpt>
      <trkpt lat="41.80434" lon="9.02026">
        <ele>507.4</ele>
        <time>2024-07-30T07:33:37Z</time>
      </trkpt>
      <trkpt lat="41.80427" lon="9.02022">
        <ele>507.4</ele>
        <time>2024-07-30T07:33:46Z</time>
      </trkpt>
      <trkpt lat="41.80426" lon="9.02021">
        <ele>507.4</ele>
        <time>2024-07-30T07:33:47Z</time>
      </trkpt>
      <trkpt lat="41.8041" lon="9.02016">
        <ele>507.6</ele>
        <time>2024-07-30T07:34:00Z</time>
      </trkpt>
      <trkpt lat="41.80396" lon="9.02013">
        <ele>507.8</ele>
        <time>2024-07-30T07:34:14Z</time>
      </trkpt>
      <trkpt lat="41.80382" lon="9.02009">
        <ele>507.6</ele>
        <time>2024-07-30T07:34:29Z</time>
      </trkpt>
      <trkpt lat="41.80363" lon="9.02013">
        <ele>508.2</ele>
        <time>2024-07-30T07:34:46Z</time>
      </trkpt>
      <trkpt lat="41.80345" lon="9.02019">
        <ele>508.2</ele>
        <time>2024-07-30T07:35:03Z</time>
      </trkpt>
      <trkpt lat="41.8033" lon="9.02026">
        <ele>508.8</ele>
        <time>2024-07-30T07:35:18Z</time>
      </trkpt>
      <trkpt lat="41.80324" lon="9.02043">
        <ele>508.6</ele>
        <time>2024-07-30T07:35:28Z</time>
      </trkpt>
      <trkpt lat="41.80319" lon="9.02048">
        <ele>508.6</ele>
        <time>2024-07-30T07:35:38Z</time>
      </trkpt>
      <trkpt lat="41.80319" lon="9.02047">
        <ele>509</ele>
        <time>2024-07-30T07:35:41Z</time>
      </trkpt>
      <trkpt lat="41.8032" lon="9.02048">
        <ele>509.2</ele>
        <time>2024-07-30T07:35:42Z</time>
      </trkpt>
      <trkpt lat="41.80321" lon="9.0205">
        <ele>509</ele>
        <time>2024-07-30T07:35:54Z</time>
      </trkpt>
      <trkpt lat="41.8032" lon="9.02053">
        <ele>508.6</ele>
        <time>2024-07-30T07:36:03Z</time>
      </trkpt>
      <trkpt lat="41.80317" lon="9.02055">
        <ele>508.2</ele>
        <time>2024-07-30T07:36:06Z</time>
      </trkpt>
      <trkpt lat="41.80315" lon="9.02056">
        <ele>508</ele>
        <time>2024-07-30T07:36:08Z</time>
      </trkpt>
      <trkpt lat="41.80298" lon="9.02062">
        <ele>508.2</ele>
        <time>2024-07-30T07:36:22Z</time>
      </trkpt>
      <trkpt lat="41.80286" lon="9.02076">
        <ele>508</ele>
        <time>2024-07-30T07:36:37Z</time>
      </trkpt>
      <trkpt lat="41.80285" lon="9.02079">
        <ele>508</ele>
        <time>2024-07-30T07:36:41Z</time>
      </trkpt>
      <trkpt lat="41.80285" lon="9.02081">
        <ele>507.4</ele>
        <time>2024-07-30T07:36:43Z</time>
      </trkpt>
      <trkpt lat="41.80285" lon="9.02082">
        <ele>507</ele>
        <time>2024-07-30T07:36:44Z</time>
      </trkpt>
      <trkpt lat="41.80285" lon="9.02083">
        <ele>506.6</ele>
        <time>2024-07-30T07:36:46Z</time>
      </trkpt>
      <trkpt lat="41.80285" lon="9.02085">
        <ele>506.6</ele>
        <time>2024-07-30T07:36:49Z</time>
      </trkpt>
      <trkpt lat="41.80287" lon="9.02087">
        <ele>506</ele>
        <time>2024-07-30T07:36:54Z</time>
      </trkpt>
      <trkpt lat="41.80289" lon="9.02092">
        <ele>506.2</ele>
        <time>2024-07-30T07:37:01Z</time>
      </trkpt>
      <trkpt lat="41.80285" lon="9.02095">
        <ele>504.8</ele>
        <time>2024-07-30T07:37:11Z</time>
      </trkpt>
      <trkpt lat="41.80283" lon="9.02097">
        <ele>503.8</ele>
        <time>2024-07-30T07:37:15Z</time>
      </trkpt>
      <trkpt lat="41.80282" lon="9.02098">
        <ele>503.2</ele>
        <time>2024-07-30T07:37:17Z</time>
      </trkpt>
      <trkpt lat="41.8028" lon="9.021">
        <ele>502.8</ele>
        <time>2024-07-30T07:37:20Z</time>
      </trkpt>
      <trkpt lat="41.80277" lon="9.02105">
        <ele>501.8</ele>
        <time>2024-07-30T07:37:26Z</time>
      </trkpt>
      <trkpt lat="41.80277" lon="9.02106">
        <ele>501.6</ele>
        <time>2024-07-30T07:37:27Z</time>
      </trkpt>
      <trkpt lat="41.80275" lon="9.02109">
        <ele>500.6</ele>
        <time>2024-07-30T07:37:30Z</time>
      </trkpt>
      <trkpt lat="41.80275" lon="9.02109">
        <ele>500.4</ele>
        <time>2024-07-30T07:37:31Z</time>
      </trkpt>
      <trkpt lat="41.80275" lon="9.0211">
        <ele>500</ele>
        <time>2024-07-30T07:37:32Z</time>
      </trkpt>
      <trkpt lat="41.80273" lon="9.02115">
        <ele>499.2</ele>
        <time>2024-07-30T07:37:37Z</time>
      </trkpt>
      <trkpt lat="41.80273" lon="9.02118">
        <ele>498.6</ele>
        <time>2024-07-30T07:37:40Z</time>
      </trkpt>
      <trkpt lat="41.80272" lon="9.0212">
        <ele>498.4</ele>
        <time>2024-07-30T07:37:42Z</time>
      </trkpt>
      <trkpt lat="41.8027" lon="9.02124">
        <ele>498.2</ele>
        <time>2024-07-30T07:37:46Z</time>
      </trkpt>
      <trkpt lat="41.80269" lon="9.02127">
        <ele>498.2</ele>
        <time>2024-07-30T07:37:48Z</time>
      </trkpt>
      <trkpt lat="41.80267" lon="9.02132">
        <ele>497.8</ele>
        <time>2024-07-30T07:37:52Z</time>
      </trkpt>
      <trkpt lat="41.80263" lon="9.02141">
        <ele>497.8</ele>
        <time>2024-07-30T07:38:00Z</time>
      </trkpt>
      <trkpt lat="41.8025" lon="9.02153">
        <ele>498.4</ele>
        <time>2024-07-30T07:38:17Z</time>
      </trkpt>
      <trkpt lat="41.80232" lon="9.0216">
        <ele>497.8</ele>
        <time>2024-07-30T07:38:33Z</time>
      </trkpt>
      <trkpt lat="41.8023" lon="9.02161">
        <ele>497.6</ele>
        <time>2024-07-30T07:38:36Z</time>
      </trkpt>
      <trkpt lat="41.80227" lon="9.02162">
        <ele>497.2</ele>
        <time>2024-07-30T07:38:41Z</time>
      </trkpt>
      <trkpt lat="41.80223" lon="9.0217">
        <ele>496</ele>
        <time>2024-07-30T07:38:49Z</time>
      </trkpt>
      <trkpt lat="41.80223" lon="9.02172">
        <ele>495.4</ele>
        <time>2024-07-30T07:38:51Z</time>
      </trkpt>
      <trkpt lat="41.80223" lon="9.02177">
        <ele>495</ele>
        <time>2024-07-30T07:38:57Z</time>
      </trkpt>
      <trkpt lat="41.80222" lon="9.02178">
        <ele>495</ele>
        <time>2024-07-30T07:38:58Z</time>
      </trkpt>
      <trkpt lat="41.80222" lon="9.02179">
        <ele>495</ele>
        <time>2024-07-30T07:39:00Z</time>
      </trkpt>
      <trkpt lat="41.80222" lon="9.02183">
        <ele>494.8</ele>
        <time>2024-07-30T07:39:04Z</time>
      </trkpt>
      <trkpt lat="41.80221" lon="9.02184">
        <ele>494.8</ele>
        <time>2024-07-30T07:39:07Z</time>
      </trkpt>
      <trkpt lat="41.8022" lon="9.02185">
        <ele>495</ele>
        <time>2024-07-30T07:39:23Z</time>
      </trkpt>
      <trkpt lat="41.80221" lon="9.02191">
        <ele>495</ele>
        <time>2024-07-30T07:39:36Z</time>
      </trkpt>
      <trkpt lat="41.80223" lon="9.02188">
        <ele>495.4</ele>
        <time>2024-07-30T07:39:48Z</time>
      </trkpt>
      <trkpt lat="41.8022" lon="9.02191">
        <ele>495.2</ele>
        <time>2024-07-30T07:40:05Z</time>
      </trkpt>
      <trkpt lat="41.80225" lon="9.02194">
        <ele>496.2</ele>
        <time>2024-07-30T07:40:19Z</time>
      </trkpt>
      <trkpt lat="41.80226" lon="9.02196">
        <ele>496.4</ele>
        <time>2024-07-30T07:40:21Z</time>
      </trkpt>
      <trkpt lat="41.80228" lon="9.02199">
        <ele>496.6</ele>
        <time>2024-07-30T07:40:25Z</time>
      </trkpt>
      <trkpt lat="41.80232" lon="9.02207">
        <ele>496.6</ele>
        <time>2024-07-30T07:40:38Z</time>
      </trkpt>
      <trkpt lat="41.80235" lon="9.02211">
        <ele>496.8</ele>
        <time>2024-07-30T07:40:43Z</time>
      </trkpt>
      <trkpt lat="41.80238" lon="9.02218">
        <ele>497</ele>
        <time>2024-07-30T07:40:52Z</time>
      </trkpt>
      <trkpt lat="41.80238" lon="9.02218">
        <ele>496.8</ele>
        <time>2024-07-30T07:40:53Z</time>
      </trkpt>
      <trkpt lat="41.80241" lon="9.02223">
        <ele>495.2</ele>
        <time>2024-07-30T07:41:10Z</time>
      </trkpt>
      <trkpt lat="41.80241" lon="9.02223">
        <ele>495.2</ele>
        <time>2024-07-30T07:41:11Z</time>
      </trkpt>
      <trkpt lat="41.80248" lon="9.02227">
        <ele>495.2</ele>
        <time>2024-07-30T07:41:29Z</time>
      </trkpt>
      <trkpt lat="41.80252" lon="9.02228">
        <ele>495.8</ele>
        <time>2024-07-30T07:41:31Z</time>
      </trkpt>
      <trkpt lat="41.80252" lon="9.02229">
        <ele>496.4</ele>
        <time>2024-07-30T07:41:33Z</time>
      </trkpt>
      <trkpt lat="41.80254" lon="9.0223">
        <ele>496.8</ele>
        <time>2024-07-30T07:41:35Z</time>
      </trkpt>
      <trkpt lat="41.80258" lon="9.02232">
        <ele>497.2</ele>
        <time>2024-07-30T07:41:38Z</time>
      </trkpt>
      <trkpt lat="41.80259" lon="9.02233">
        <ele>497.4</ele>
        <time>2024-07-30T07:41:39Z</time>
      </trkpt>
      <trkpt lat="41.80261" lon="9.02234">
        <ele>498</ele>
        <time>2024-07-30T07:41:42Z</time>
      </trkpt>
      <trkpt lat="41.80262" lon="9.02237">
        <ele>498.4</ele>
        <time>2024-07-30T07:41:45Z</time>
      </trkpt>
      <trkpt lat="41.80263" lon="9.02238">
        <ele>498.6</ele>
        <time>2024-07-30T07:41:46Z</time>
      </trkpt>
      <trkpt lat="41.80263" lon="9.02242">
        <ele>499.6</ele>
        <time>2024-07-30T07:41:49Z</time>
      </trkpt>
      <trkpt lat="41.80264" lon="9.02243">
        <ele>499.8</ele>
        <time>2024-07-30T07:41:50Z</time>
      </trkpt>
      <trkpt lat="41.80263" lon="9.02248">
        <ele>500</ele>
        <time>2024-07-30T07:41:53Z</time>
      </trkpt>
      <trkpt lat="41.80264" lon="9.02255">
        <ele>500.2</ele>
        <time>2024-07-30T07:41:58Z</time>
      </trkpt>
      <trkpt lat="41.80269" lon="9.02268">
        <ele>498.8</ele>
        <time>2024-07-30T07:42:12Z</time>
      </trkpt>
      <trkpt lat="41.80269" lon="9.02269">
        <ele>498.8</ele>
        <time>2024-07-30T07:42:13Z</time>
      </trkpt>
      <trkpt lat="41.80268" lon="9.02271">
        <ele>498.4</ele>
        <time>2024-07-30T07:42:16Z</time>
      </trkpt>
      <trkpt lat="41.80268" lon="9.02273">
        <ele>498.4</ele>
        <time>2024-07-30T07:42:18Z</time>
      </trkpt>
      <trkpt lat="41.80267" lon="9.02274">
        <ele>498.2</ele>
        <time>2024-07-30T07:42:20Z</time>
      </trkpt>
      <trkpt lat="41.80265" lon="9.02275">
        <ele>497.8</ele>
        <time>2024-07-30T07:42:23Z</time>
      </trkpt>
      <trkpt lat="41.80265" lon="9.02275">
        <ele>497.6</ele>
        <time>2024-07-30T07:42:24Z</time>
      </trkpt>
      <trkpt lat="41.80263" lon="9.02278">
        <ele>497</ele>
        <time>2024-07-30T07:42:27Z</time>
      </trkpt>
      <trkpt lat="41.80262" lon="9.02281">
        <ele>496.4</ele>
        <time>2024-07-30T07:42:30Z</time>
      </trkpt>
      <trkpt lat="41.80261" lon="9.02282">
        <ele>496.4</ele>
        <time>2024-07-30T07:42:31Z</time>
      </trkpt>
      <trkpt lat="41.8026" lon="9.02284">
        <ele>496</ele>
        <time>2024-07-30T07:42:33Z</time>
      </trkpt>
      <trkpt lat="41.80259" lon="9.02287">
        <ele>495.8</ele>
        <time>2024-07-30T07:42:36Z</time>
      </trkpt>
      <trkpt lat="41.80252" lon="9.02299">
        <ele>497.4</ele>
        <time>2024-07-30T07:42:47Z</time>
      </trkpt>
      <trkpt lat="41.80252" lon="9.023">
        <ele>497.6</ele>
        <time>2024-07-30T07:42:48Z</time>
      </trkpt>
      <trkpt lat="41.80248" lon="9.02306">
        <ele>498</ele>
        <time>2024-07-30T07:42:55Z</time>
      </trkpt>
      <trkpt lat="41.80242" lon="9.02314">
        <ele>498.4</ele>
        <time>2024-07-30T07:43:04Z</time>
      </trkpt>
      <trkpt lat="41.8024" lon="9.0232">
        <ele>498.6</ele>
        <time>2024-07-30T07:43:11Z</time>
      </trkpt>
      <trkpt lat="41.80238" lon="9.02322">
        <ele>498.2</ele>
        <time>2024-07-30T07:43:21Z</time>
      </trkpt>
      <trkpt lat="41.80238" lon="9.02323">
        <ele>498.6</ele>
        <time>2024-07-30T07:43:29Z</time>
      </trkpt>
      <trkpt lat="41.80236" lon="9.02328">
        <ele>499.4</ele>
        <time>2024-07-30T07:43:39Z</time>
      </trkpt>
      <trkpt lat="41.80234" lon="9.0233">
        <ele>499.6</ele>
        <time>2024-07-30T07:43:51Z</time>
      </trkpt>
      <trkpt lat="41.80235" lon="9.02333">
        <ele>500.2</ele>
        <time>2024-07-30T07:43:54Z</time>
      </trkpt>
      <trkpt lat="41.80235" lon="9.02335">
        <ele>500.8</ele>
        <time>2024-07-30T07:43:56Z</time>
      </trkpt>
      <trkpt lat="41.80236" lon="9.02341">
        <ele>501.8</ele>
        <time>2024-07-30T07:44:01Z</time>
      </trkpt>
      <trkpt lat="41.80238" lon="9.02342">
        <ele>502</ele>
        <time>2024-07-30T07:44:04Z</time>
      </trkpt>
      <trkpt lat="41.80238" lon="9.02345">
        <ele>503</ele>
        <time>2024-07-30T07:44:10Z</time>
      </trkpt>
      <trkpt lat="41.80237" lon="9.02346">
        <ele>503</ele>
        <time>2024-07-30T07:44:11Z</time>
      </trkpt>
      <trkpt lat="41.80236" lon="9.02347">
        <ele>504</ele>
        <time>2024-07-30T07:44:14Z</time>
      </trkpt>
      <trkpt lat="41.80242" lon="9.0235">
        <ele>505</ele>
        <time>2024-07-30T07:44:23Z</time>
      </trkpt>
      <trkpt lat="41.80243" lon="9.0235">
        <ele>505</ele>
        <time>2024-07-30T07:44:24Z</time>
      </trkpt>
      <trkpt lat="41.80244" lon="9.02351">
        <ele>505</ele>
        <time>2024-07-30T07:44:25Z</time>
      </trkpt>
      <trkpt lat="41.80245" lon="9.02351">
        <ele>505.2</ele>
        <time>2024-07-30T07:44:26Z</time>
      </trkpt>
      <trkpt lat="41.80247" lon="9.0235">
        <ele>505.4</ele>
        <time>2024-07-30T07:44:29Z</time>
      </trkpt>
      <trkpt lat="41.80249" lon="9.0235">
        <ele>505.6</ele>
        <time>2024-07-30T07:44:31Z</time>
      </trkpt>
      <trkpt lat="41.80257" lon="9.02344">
        <ele>505.8</ele>
        <time>2024-07-30T07:44:40Z</time>
      </trkpt>
      <trkpt lat="41.80266" lon="9.02342">
        <ele>506.2</ele>
        <time>2024-07-30T07:44:47Z</time>
      </trkpt>
      <trkpt lat="41.80275" lon="9.02341">
        <ele>505.4</ele>
        <time>2024-07-30T07:44:55Z</time>
      </trkpt>
      <trkpt lat="41.80277" lon="9.02342">
        <ele>505.2</ele>
        <time>2024-07-30T07:44:58Z</time>
      </trkpt>
      <trkpt lat="41.80283" lon="9.02342">
        <ele>505</ele>
        <time>2024-07-30T07:45:07Z</time>
      </trkpt>
      <trkpt lat="41.80284" lon="9.02342">
        <ele>505</ele>
        <time>2024-07-30T07:45:08Z</time>
      </trkpt>
      <trkpt lat="41.80284" lon="9.02342">
        <ele>505</ele>
        <time>2024-07-30T07:45:09Z</time>
      </trkpt>
      <trkpt lat="41.80284" lon="9.02346">
        <ele>506.2</ele>
        <time>2024-07-30T07:45:20Z</time>
      </trkpt>
      <trkpt lat="41.80285" lon="9.02347">
        <ele>506.6</ele>
        <time>2024-07-30T07:45:22Z</time>
      </trkpt>
      <trkpt lat="41.80287" lon="9.02349">
        <ele>507.2</ele>
        <time>2024-07-30T07:45:28Z</time>
      </trkpt>
      <trkpt lat="41.80284" lon="9.02352">
        <ele>508.4</ele>
        <time>2024-07-30T07:45:35Z</time>
      </trkpt>
      <trkpt lat="41.80283" lon="9.02355">
        <ele>508.8</ele>
        <time>2024-07-30T07:45:39Z</time>
      </trkpt>
      <trkpt lat="41.80282" lon="9.02357">
        <ele>509.6</ele>
        <time>2024-07-30T07:45:41Z</time>
      </trkpt>
      <trkpt lat="41.80282" lon="9.02358">
        <ele>510</ele>
        <time>2024-07-30T07:45:42Z</time>
      </trkpt>
      <trkpt lat="41.80281" lon="9.02361">
        <ele>510.8</ele>
        <time>2024-07-30T07:45:45Z</time>
      </trkpt>
      <trkpt lat="41.8028" lon="9.02363">
        <ele>511.2</ele>
        <time>2024-07-30T07:45:47Z</time>
      </trkpt>
      <trkpt lat="41.8028" lon="9.02366">
        <ele>511.6</ele>
        <time>2024-07-30T07:45:50Z</time>
      </trkpt>
      <trkpt lat="41.8028" lon="9.02369">
        <ele>511.8</ele>
        <time>2024-07-30T07:45:52Z</time>
      </trkpt>
      <trkpt lat="41.8028" lon="9.0237">
        <ele>512</ele>
        <time>2024-07-30T07:45:53Z</time>
      </trkpt>
      <trkpt lat="41.8028" lon="9.02372">
        <ele>512.4</ele>
        <time>2024-07-30T07:45:55Z</time>
      </trkpt>
      <trkpt lat="41.8028" lon="9.02374">
        <ele>512.8</ele>
        <time>2024-07-30T07:45:57Z</time>
      </trkpt>
      <trkpt lat="41.80278" lon="9.02377">
        <ele>513.4</ele>
        <time>2024-07-30T07:46:00Z</time>
      </trkpt>
      <trkpt lat="41.80278" lon="9.0238">
        <ele>513.6</ele>
        <time>2024-07-30T07:46:02Z</time>
      </trkpt>
      <trkpt lat="41.80278" lon="9.02382">
        <ele>513.8</ele>
        <time>2024-07-30T07:46:04Z</time>
      </trkpt>
      <trkpt lat="41.80278" lon="9.02384">
        <ele>514</ele>
        <time>2024-07-30T07:46:05Z</time>
      </trkpt>
      <trkpt lat="41.80277" lon="9.02386">
        <ele>514</ele>
        <time>2024-07-30T07:46:07Z</time>
      </trkpt>
      <trkpt lat="41.80276" lon="9.02388">
        <ele>514.2</ele>
        <time>2024-07-30T07:46:09Z</time>
      </trkpt>
      <trkpt lat="41.80275" lon="9.02389">
        <ele>514.4</ele>
        <time>2024-07-30T07:46:10Z</time>
      </trkpt>
      <trkpt lat="41.80275" lon="9.0239">
        <ele>514.6</ele>
        <time>2024-07-30T07:46:11Z</time>
      </trkpt>
      <trkpt lat="41.80274" lon="9.02393">
        <ele>514.6</ele>
        <time>2024-07-30T07:46:13Z</time>
      </trkpt>
      <trkpt lat="41.80273" lon="9.02395">
        <ele>515</ele>
        <time>2024-07-30T07:46:15Z</time>
      </trkpt>
      <trkpt lat="41.80274" lon="9.02395">
        <ele>515.4</ele>
        <time>2024-07-30T07:46:17Z</time>
      </trkpt>
      <trkpt lat="41.80274" lon="9.02397">
        <ele>515.8</ele>
        <time>2024-07-30T07:46:19Z</time>
      </trkpt>
      <trkpt lat="41.80273" lon="9.02398">
        <ele>515.8</ele>
        <time>2024-07-30T07:46:21Z</time>
      </trkpt>
      <trkpt lat="41.80271" lon="9.02401">
        <ele>516.2</ele>
        <time>2024-07-30T07:46:24Z</time>
      </trkpt>
      <trkpt lat="41.8027" lon="9.02402">
        <ele>516.2</ele>
        <time>2024-07-30T07:46:25Z</time>
      </trkpt>
      <trkpt lat="41.80269" lon="9.02404">
        <ele>516.6</ele>
        <time>2024-07-30T07:46:27Z</time>
      </trkpt>
      <trkpt lat="41.80269" lon="9.02404">
        <ele>516.8</ele>
        <time>2024-07-30T07:46:28Z</time>
      </trkpt>
      <trkpt lat="41.80267" lon="9.02406">
        <ele>517.2</ele>
        <time>2024-07-30T07:46:31Z</time>
      </trkpt>
      <trkpt lat="41.80265" lon="9.02408">
        <ele>517.6</ele>
        <time>2024-07-30T07:46:33Z</time>
      </trkpt>
      <trkpt lat="41.80262" lon="9.02408">
        <ele>517.6</ele>
        <time>2024-07-30T07:46:35Z</time>
      </trkpt>
      <trkpt lat="41.8026" lon="9.0241">
        <ele>518</ele>
        <time>2024-07-30T07:46:37Z</time>
      </trkpt>
      <trkpt lat="41.80258" lon="9.02413">
        <ele>518</ele>
        <time>2024-07-30T07:46:39Z</time>
      </trkpt>
      <trkpt lat="41.80258" lon="9.02414">
        <ele>518.4</ele>
        <time>2024-07-30T07:46:40Z</time>
      </trkpt>
      <trkpt lat="41.80255" lon="9.02417">
        <ele>518.8</ele>
        <time>2024-07-30T07:46:43Z</time>
      </trkpt>
      <trkpt lat="41.80254" lon="9.02421">
        <ele>519.4</ele>
        <time>2024-07-30T07:46:48Z</time>
      </trkpt>
      <trkpt lat="41.80249" lon="9.02433">
        <ele>520.4</ele>
        <time>2024-07-30T07:46:58Z</time>
      </trkpt>
      <trkpt lat="41.80248" lon="9.02433">
        <ele>520.6</ele>
        <time>2024-07-30T07:46:59Z</time>
      </trkpt>
      <trkpt lat="41.80248" lon="9.02434">
        <ele>520.8</ele>
        <time>2024-07-30T07:47:01Z</time>
      </trkpt>
      <trkpt lat="41.80249" lon="9.02436">
        <ele>521</ele>
        <time>2024-07-30T07:47:03Z</time>
      </trkpt>
      <trkpt lat="41.80255" lon="9.02442">
        <ele>520</ele>
        <time>2024-07-30T07:47:13Z</time>
      </trkpt>
      <trkpt lat="41.80256" lon="9.02442">
        <ele>519.8</ele>
        <time>2024-07-30T07:47:14Z</time>
      </trkpt>
      <trkpt lat="41.80258" lon="9.02444">
        <ele>519.4</ele>
        <time>2024-07-30T07:47:16Z</time>
      </trkpt>
      <trkpt lat="41.80261" lon="9.02448">
        <ele>518.8</ele>
        <time>2024-07-30T07:47:21Z</time>
      </trkpt>
      <trkpt lat="41.80261" lon="9.02452">
        <ele>519</ele>
        <time>2024-07-30T07:47:30Z</time>
      </trkpt>
      <trkpt lat="41.80267" lon="9.0245">
        <ele>519</ele>
        <time>2024-07-30T07:47:46Z</time>
      </trkpt>
      <trkpt lat="41.80271" lon="9.0245">
        <ele>520.6</ele>
        <time>2024-07-30T07:47:54Z</time>
      </trkpt>
      <trkpt lat="41.80281" lon="9.02448">
        <ele>521.6</ele>
        <time>2024-07-30T07:48:00Z</time>
      </trkpt>
      <trkpt lat="41.80282" lon="9.02448">
        <ele>522</ele>
        <time>2024-07-30T07:48:01Z</time>
      </trkpt>
      <trkpt lat="41.80285" lon="9.02448">
        <ele>522.2</ele>
        <time>2024-07-30T07:48:03Z</time>
      </trkpt>
      <trkpt lat="41.80288" lon="9.02448">
        <ele>522.6</ele>
        <time>2024-07-30T07:48:05Z</time>
      </trkpt>
      <trkpt lat="41.80289" lon="9.02449">
        <ele>522.6</ele>
        <time>2024-07-30T07:48:06Z</time>
      </trkpt>
      <trkpt lat="41.80295" lon="9.02453">
        <ele>523.8</ele>
        <time>2024-07-30T07:48:15Z</time>
      </trkpt>
      <trkpt lat="41.80296" lon="9.02456">
        <ele>524</ele>
        <time>2024-07-30T07:48:18Z</time>
      </trkpt>
      <trkpt lat="41.80298" lon="9.02463">
        <ele>524.8</ele>
        <time>2024-07-30T07:48:24Z</time>
      </trkpt>
      <trkpt lat="41.80298" lon="9.02474">
        <ele>525.2</ele>
        <time>2024-07-30T07:48:33Z</time>
      </trkpt>
      <trkpt lat="41.803" lon="9.0248">
        <ele>525</ele>
        <time>2024-07-30T07:48:40Z</time>
      </trkpt>
      <trkpt lat="41.803" lon="9.02486">
        <ele>525</ele>
        <time>2024-07-30T07:48:48Z</time>
      </trkpt>
      <trkpt lat="41.80301" lon="9.02494">
        <ele>525.4</ele>
        <time>2024-07-30T07:48:55Z</time>
      </trkpt>
      <trkpt lat="41.80302" lon="9.02499">
        <ele>525.8</ele>
        <time>2024-07-30T07:48:59Z</time>
      </trkpt>
      <trkpt lat="41.80302" lon="9.025">
        <ele>525.8</ele>
        <time>2024-07-30T07:49:00Z</time>
      </trkpt>
      <trkpt lat="41.80302" lon="9.02502">
        <ele>525.8</ele>
        <time>2024-07-30T07:49:01Z</time>
      </trkpt>
      <trkpt lat="41.80302" lon="9.02507">
        <ele>526.2</ele>
        <time>2024-07-30T07:49:06Z</time>
      </trkpt>
      <trkpt lat="41.80302" lon="9.02508">
        <ele>526.4</ele>
        <time>2024-07-30T07:49:07Z</time>
      </trkpt>
      <trkpt lat="41.80301" lon="9.0251">
        <ele>526.4</ele>
        <time>2024-07-30T07:49:09Z</time>
      </trkpt>
      <trkpt lat="41.80301" lon="9.02512">
        <ele>526.6</ele>
        <time>2024-07-30T07:49:11Z</time>
      </trkpt>
      <trkpt lat="41.80302" lon="9.02521">
        <ele>526.8</ele>
        <time>2024-07-30T07:49:23Z</time>
      </trkpt>
      <trkpt lat="41.80302" lon="9.02523">
        <ele>526.8</ele>
        <time>2024-07-30T07:49:24Z</time>
      </trkpt>
      <trkpt lat="41.80303" lon="9.0253">
        <ele>527.4</ele>
        <time>2024-07-30T07:49:31Z</time>
      </trkpt>
      <trkpt lat="41.80303" lon="9.02532">
        <ele>527.6</ele>
        <time>2024-07-30T07:49:33Z</time>
      </trkpt>
      <trkpt lat="41.80303" lon="9.02535">
        <ele>527.8</ele>
        <time>2024-07-30T07:49:35Z</time>
      </trkpt>
      <trkpt lat="41.80303" lon="9.02536">
        <ele>527.8</ele>
        <time>2024-07-30T07:49:37Z</time>
      </trkpt>
      <trkpt lat="41.80304" lon="9.02537">
        <ele>527.8</ele>
        <time>2024-07-30T07:49:38Z</time>
      </trkpt>
      <trkpt lat="41.80304" lon="9.02538">
        <ele>527.8</ele>
        <time>2024-07-30T07:49:39Z</time>
      </trkpt>
      <trkpt lat="41.80304" lon="9.02539">
        <ele>528</ele>
        <time>2024-07-30T07:49:40Z</time>
      </trkpt>
      <trkpt lat="41.80302" lon="9.02542">
        <ele>528.4</ele>
        <time>2024-07-30T07:49:44Z</time>
      </trkpt>
      <trkpt lat="41.80302" lon="9.02544">
        <ele>528.6</ele>
        <time>2024-07-30T07:49:45Z</time>
      </trkpt>
      <trkpt lat="41.80301" lon="9.02547">
        <ele>528.8</ele>
        <time>2024-07-30T07:49:47Z</time>
      </trkpt>
      <trkpt lat="41.80299" lon="9.02549">
        <ele>529</ele>
        <time>2024-07-30T07:49:49Z</time>
      </trkpt>
      <trkpt lat="41.80296" lon="9.02552">
        <ele>529.6</ele>
        <time>2024-07-30T07:49:53Z</time>
      </trkpt>
      <trkpt lat="41.80294" lon="9.02556">
        <ele>530.2</ele>
        <time>2024-07-30T07:49:57Z</time>
      </trkpt>
      <trkpt lat="41.80293" lon="9.0256">
        <ele>531.2</ele>
        <time>2024-07-30T07:50:09Z</time>
      </trkpt>
      <trkpt lat="41.80296" lon="9.02573">
        <ele>530</ele>
        <time>2024-07-30T07:50:24Z</time>
      </trkpt>
      <trkpt lat="41.80296" lon="9.02574">
        <ele>530</ele>
        <time>2024-07-30T07:50:25Z</time>
      </trkpt>
      <trkpt lat="41.80297" lon="9.02581">
        <ele>529</ele>
        <time>2024-07-30T07:50:32Z</time>
      </trkpt>
      <trkpt lat="41.80299" lon="9.02587">
        <ele>528.6</ele>
        <time>2024-07-30T07:50:36Z</time>
      </trkpt>
      <trkpt lat="41.80302" lon="9.02589">
        <ele>528.4</ele>
        <time>2024-07-30T07:50:38Z</time>
      </trkpt>
      <trkpt lat="41.80303" lon="9.02592">
        <ele>528.2</ele>
        <time>2024-07-30T07:50:40Z</time>
      </trkpt>
      <trkpt lat="41.80305" lon="9.02594">
        <ele>528.4</ele>
        <time>2024-07-30T07:50:42Z</time>
      </trkpt>
      <trkpt lat="41.80309" lon="9.02603">
        <ele>527.8</ele>
        <time>2024-07-30T07:50:49Z</time>
      </trkpt>
      <trkpt lat="41.80314" lon="9.02611">
        <ele>528.8</ele>
        <time>2024-07-30T07:50:58Z</time>
      </trkpt>
      <trkpt lat="41.80314" lon="9.02612">
        <ele>529.2</ele>
        <time>2024-07-30T07:50:59Z</time>
      </trkpt>
      <trkpt lat="41.80315" lon="9.02614">
        <ele>529.4</ele>
        <time>2024-07-30T07:51:01Z</time>
      </trkpt>
      <trkpt lat="41.80315" lon="9.02615">
        <ele>529.6</ele>
        <time>2024-07-30T07:51:02Z</time>
      </trkpt>
      <trkpt lat="41.80317" lon="9.02617">
        <ele>529.8</ele>
        <time>2024-07-30T07:51:05Z</time>
      </trkpt>
      <trkpt lat="41.80317" lon="9.02619">
        <ele>529.8</ele>
        <time>2024-07-30T07:51:08Z</time>
      </trkpt>
      <trkpt lat="41.80324" lon="9.02629">
        <ele>529.8</ele>
        <time>2024-07-30T07:51:20Z</time>
      </trkpt>
      <trkpt lat="41.80337" lon="9.02631">
        <ele>529</ele>
        <time>2024-07-30T07:51:35Z</time>
      </trkpt>
      <trkpt lat="41.80339" lon="9.02631">
        <ele>529</ele>
        <time>2024-07-30T07:51:36Z</time>
      </trkpt>
      <trkpt lat="41.8034" lon="9.0263">
        <ele>528.8</ele>
        <time>2024-07-30T07:51:37Z</time>
      </trkpt>
      <trkpt lat="41.80343" lon="9.02629">
        <ele>528.6</ele>
        <time>2024-07-30T07:51:40Z</time>
      </trkpt>
      <trkpt lat="41.80346" lon="9.02625">
        <ele>527.8</ele>
        <time>2024-07-30T07:51:46Z</time>
      </trkpt>
      <trkpt lat="41.80347" lon="9.02625">
        <ele>527.6</ele>
        <time>2024-07-30T07:51:47Z</time>
      </trkpt>
      <trkpt lat="41.80348" lon="9.02623">
        <ele>527.4</ele>
        <time>2024-07-30T07:51:49Z</time>
      </trkpt>
      <trkpt lat="41.80349" lon="9.02623">
        <ele>527</ele>
        <time>2024-07-30T07:51:51Z</time>
      </trkpt>
      <trkpt lat="41.80352" lon="9.02619">
        <ele>526.6</ele>
        <time>2024-07-30T07:51:56Z</time>
      </trkpt>
      <trkpt lat="41.80355" lon="9.02615">
        <ele>525.6</ele>
        <time>2024-07-30T07:52:00Z</time>
      </trkpt>
      <trkpt lat="41.80357" lon="9.02611">
        <ele>525.4</ele>
        <time>2024-07-30T07:52:04Z</time>
      </trkpt>
      <trkpt lat="41.8036" lon="9.02605">
        <ele>525</ele>
        <time>2024-07-30T07:52:07Z</time>
      </trkpt>
      <trkpt lat="41.8036" lon="9.02604">
        <ele>524.4</ele>
        <time>2024-07-30T07:52:09Z</time>
      </trkpt>
      <trkpt lat="41.8036" lon="9.02603">
        <ele>524.4</ele>
        <time>2024-07-30T07:52:10Z</time>
      </trkpt>
      <trkpt lat="41.80362" lon="9.026">
        <ele>523.8</ele>
        <time>2024-07-30T07:52:13Z</time>
      </trkpt>
      <trkpt lat="41.80363" lon="9.02598">
        <ele>523.4</ele>
        <time>2024-07-30T07:52:15Z</time>
      </trkpt>
      <trkpt lat="41.80363" lon="9.02596">
        <ele>523</ele>
        <time>2024-07-30T07:52:17Z</time>
      </trkpt>
      <trkpt lat="41.80365" lon="9.02593">
        <ele>522.4</ele>
        <time>2024-07-30T07:52:20Z</time>
      </trkpt>
      <trkpt lat="41.80365" lon="9.0259">
        <ele>521.8</ele>
        <time>2024-07-30T07:52:23Z</time>
      </trkpt>
      <trkpt lat="41.80365" lon="9.02585">
        <ele>521.2</ele>
        <time>2024-07-30T07:52:26Z</time>
      </trkpt>
      <trkpt lat="41.80366" lon="9.02584">
        <ele>521</ele>
        <time>2024-07-30T07:52:27Z</time>
      </trkpt>
      <trkpt lat="41.80366" lon="9.02583">
        <ele>521</ele>
        <time>2024-07-30T07:52:28Z</time>
      </trkpt>
      <trkpt lat="41.80373" lon="9.02578">
        <ele>520</ele>
        <time>2024-07-30T07:52:36Z</time>
      </trkpt>
      <trkpt lat="41.80373" lon="9.02575">
        <ele>519.2</ele>
        <time>2024-07-30T07:52:41Z</time>
      </trkpt>
      <trkpt lat="41.80374" lon="9.02575">
        <ele>518.8</ele>
        <time>2024-07-30T07:52:42Z</time>
      </trkpt>
      <trkpt lat="41.80376" lon="9.02573">
        <ele>517.8</ele>
        <time>2024-07-30T07:52:45Z</time>
      </trkpt>
      <trkpt lat="41.80378" lon="9.0257">
        <ele>516.8</ele>
        <time>2024-07-30T07:52:49Z</time>
      </trkpt>
      <trkpt lat="41.80378" lon="9.0257">
        <ele>516.6</ele>
        <time>2024-07-30T07:52:50Z</time>
      </trkpt>
      <trkpt lat="41.80378" lon="9.02569">
        <ele>516.6</ele>
        <time>2024-07-30T07:52:51Z</time>
      </trkpt>
      <trkpt lat="41.8038" lon="9.02565">
        <ele>516</ele>
        <time>2024-07-30T07:52:55Z</time>
      </trkpt>
      <trkpt lat="41.8038" lon="9.02561">
        <ele>515.6</ele>
        <time>2024-07-30T07:52:58Z</time>
      </trkpt>
      <trkpt lat="41.80381" lon="9.0256">
        <ele>515.2</ele>
        <time>2024-07-30T07:52:59Z</time>
      </trkpt>
      <trkpt lat="41.8038" lon="9.0256">
        <ele>515</ele>
        <time>2024-07-30T07:53:00Z</time>
      </trkpt>
      <trkpt lat="41.8038" lon="9.02558">
        <ele>514.6</ele>
        <time>2024-07-30T07:53:02Z</time>
      </trkpt>
      <trkpt lat="41.80381" lon="9.02557">
        <ele>514.4</ele>
        <time>2024-07-30T07:53:03Z</time>
      </trkpt>
      <trkpt lat="41.80381" lon="9.02555">
        <ele>513.6</ele>
        <time>2024-07-30T07:53:05Z</time>
      </trkpt>
      <trkpt lat="41.80381" lon="9.02554">
        <ele>513.2</ele>
        <time>2024-07-30T07:53:06Z</time>
      </trkpt>
      <trkpt lat="41.80381" lon="9.02552">
        <ele>512.8</ele>
        <time>2024-07-30T07:53:08Z</time>
      </trkpt>
      <trkpt lat="41.80381" lon="9.0255">
        <ele>512.6</ele>
        <time>2024-07-30T07:53:10Z</time>
      </trkpt>
      <trkpt lat="41.80382" lon="9.02548">
        <ele>512</ele>
        <time>2024-07-30T07:53:12Z</time>
      </trkpt>
      <trkpt lat="41.80383" lon="9.02544">
        <ele>511</ele>
        <time>2024-07-30T07:53:16Z</time>
      </trkpt>
      <trkpt lat="41.80383" lon="9.0254">
        <ele>510.6</ele>
        <time>2024-07-30T07:53:19Z</time>
      </trkpt>
      <trkpt lat="41.80383" lon="9.02538">
        <ele>510.6</ele>
        <time>2024-07-30T07:53:20Z</time>
      </trkpt>
      <trkpt lat="41.80384" lon="9.02529">
        <ele>509.8</ele>
        <time>2024-07-30T07:53:27Z</time>
      </trkpt>
      <trkpt lat="41.80386" lon="9.02526">
        <ele>509.2</ele>
        <time>2024-07-30T07:53:30Z</time>
      </trkpt>
      <trkpt lat="41.80386" lon="9.02524">
        <ele>509</ele>
        <time>2024-07-30T07:53:32Z</time>
      </trkpt>
      <trkpt lat="41.80386" lon="9.02522">
        <ele>508.8</ele>
        <time>2024-07-30T07:53:34Z</time>
      </trkpt>
      <trkpt lat="41.80386" lon="9.02521">
        <ele>508.8</ele>
        <time>2024-07-30T07:53:35Z</time>
      </trkpt>
      <trkpt lat="41.80386" lon="9.0252">
        <ele>508.6</ele>
        <time>2024-07-30T07:53:36Z</time>
      </trkpt>
      <trkpt lat="41.80388" lon="9.02517">
        <ele>508</ele>
        <time>2024-07-30T07:53:39Z</time>
      </trkpt>
      <trkpt lat="41.80388" lon="9.02514">
        <ele>507.4</ele>
        <time>2024-07-30T07:53:41Z</time>
      </trkpt>
      <trkpt lat="41.80388" lon="9.02509">
        <ele>506.2</ele>
        <time>2024-07-30T07:53:45Z</time>
      </trkpt>
      <trkpt lat="41.80388" lon="9.02506">
        <ele>505.4</ele>
        <time>2024-07-30T07:53:48Z</time>
      </trkpt>
      <trkpt lat="41.80389" lon="9.02504">
        <ele>505.2</ele>
        <time>2024-07-30T07:53:49Z</time>
      </trkpt>
      <trkpt lat="41.80389" lon="9.02502">
        <ele>504.4</ele>
        <time>2024-07-30T07:53:51Z</time>
      </trkpt>
      <trkpt lat="41.8039" lon="9.02499">
        <ele>504</ele>
        <time>2024-07-30T07:53:54Z</time>
      </trkpt>
      <trkpt lat="41.80391" lon="9.02496">
        <ele>503.2</ele>
        <time>2024-07-30T07:53:57Z</time>
      </trkpt>
      <trkpt lat="41.80391" lon="9.02494">
        <ele>502.6</ele>
        <time>2024-07-30T07:53:59Z</time>
      </trkpt>
      <trkpt lat="41.80391" lon="9.02492">
        <ele>502.2</ele>
        <time>2024-07-30T07:54:01Z</time>
      </trkpt>
      <trkpt lat="41.80394" lon="9.0249">
        <ele>501.6</ele>
        <time>2024-07-30T07:54:04Z</time>
      </trkpt>
      <trkpt lat="41.80395" lon="9.02489">
        <ele>501.4</ele>
        <time>2024-07-30T07:54:05Z</time>
      </trkpt>
      <trkpt lat="41.80396" lon="9.02488">
        <ele>501</ele>
        <time>2024-07-30T07:54:07Z</time>
      </trkpt>
      <trkpt lat="41.80396" lon="9.02487">
        <ele>500.8</ele>
        <time>2024-07-30T07:54:08Z</time>
      </trkpt>
      <trkpt lat="41.80397" lon="9.02486">
        <ele>500.4</ele>
        <time>2024-07-30T07:54:11Z</time>
      </trkpt>
      <trkpt lat="41.804" lon="9.02485">
        <ele>500</ele>
        <time>2024-07-30T07:54:14Z</time>
      </trkpt>
      <trkpt lat="41.80402" lon="9.02485">
        <ele>499.8</ele>
        <time>2024-07-30T07:54:19Z</time>
      </trkpt>
      <trkpt lat="41.80404" lon="9.02485">
        <ele>499.6</ele>
        <time>2024-07-30T07:54:22Z</time>
      </trkpt>
      <trkpt lat="41.80406" lon="9.02484">
        <ele>499.4</ele>
        <time>2024-07-30T07:54:26Z</time>
      </trkpt>
      <trkpt lat="41.8041" lon="9.0248">
        <ele>498.6</ele>
        <time>2024-07-30T07:54:31Z</time>
      </trkpt>
      <trkpt lat="41.80411" lon="9.02479">
        <ele>498.6</ele>
        <time>2024-07-30T07:54:33Z</time>
      </trkpt>
      <trkpt lat="41.80408" lon="9.02474">
        <ele>498.2</ele>
        <time>2024-07-30T07:54:36Z</time>
      </trkpt>
      <trkpt lat="41.80408" lon="9.02474">
        <ele>498.2</ele>
        <time>2024-07-30T07:54:37Z</time>
      </trkpt>
      <trkpt lat="41.80413" lon="9.02473">
        <ele>498.2</ele>
        <time>2024-07-30T07:54:41Z</time>
      </trkpt>
      <trkpt lat="41.8042" lon="9.02468">
        <ele>497.2</ele>
        <time>2024-07-30T07:54:49Z</time>
      </trkpt>
      <trkpt lat="41.80422" lon="9.02466">
        <ele>497</ele>
        <time>2024-07-30T07:54:51Z</time>
      </trkpt>
      <trkpt lat="41.80426" lon="9.0246">
        <ele>496.6</ele>
        <time>2024-07-30T07:54:58Z</time>
      </trkpt>
      <trkpt lat="41.80429" lon="9.02457">
        <ele>496.2</ele>
        <time>2024-07-30T07:55:03Z</time>
      </trkpt>
      <trkpt lat="41.80426" lon="9.02449">
        <ele>495.8</ele>
        <time>2024-07-30T07:55:07Z</time>
      </trkpt>
      <trkpt lat="41.80426" lon="9.02449">
        <ele>495.8</ele>
        <time>2024-07-30T07:55:09Z</time>
      </trkpt>
      <trkpt lat="41.80435" lon="9.02449">
        <ele>495.2</ele>
        <time>2024-07-30T07:55:19Z</time>
      </trkpt>
      <trkpt lat="41.80439" lon="9.02448">
        <ele>492.4</ele>
        <time>2024-07-30T07:55:25Z</time>
      </trkpt>
      <trkpt lat="41.8044" lon="9.02447">
        <ele>491.2</ele>
        <time>2024-07-30T07:55:26Z</time>
      </trkpt>
      <trkpt lat="41.80441" lon="9.02448">
        <ele>490.2</ele>
        <time>2024-07-30T07:55:30Z</time>
      </trkpt>
      <trkpt lat="41.80441" lon="9.02448">
        <ele>494.2</ele>
        <time>2024-07-30T07:55:36Z</time>
      </trkpt>
      <trkpt lat="41.80441" lon="9.02448">
        <ele>495.6</ele>
        <time>2024-07-30T07:55:37Z</time>
      </trkpt>
      <trkpt lat="41.80441" lon="9.02448">
        <ele>494</ele>
        <time>2024-07-30T07:55:39Z</time>
      </trkpt>
      <trkpt lat="41.80441" lon="9.02447">
        <ele>493</ele>
        <time>2024-07-30T07:55:40Z</time>
      </trkpt>
      <trkpt lat="41.80441" lon="9.02446">
        <ele>491.6</ele>
        <time>2024-07-30T07:55:42Z</time>
      </trkpt>
      <trkpt lat="41.80441" lon="9.02446">
        <ele>491</ele>
        <time>2024-07-30T07:55:44Z</time>
      </trkpt>
      <trkpt lat="41.80442" lon="9.02446">
        <ele>490.4</ele>
        <time>2024-07-30T07:55:46Z</time>
      </trkpt>
      <trkpt lat="41.80442" lon="9.02446">
        <ele>493.6</ele>
        <time>2024-07-30T07:55:49Z</time>
      </trkpt>
      <trkpt lat="41.80442" lon="9.02446">
        <ele>495</ele>
        <time>2024-07-30T07:55:50Z</time>
      </trkpt>
      <trkpt lat="41.80442" lon="9.02445">
        <ele>497.4</ele>
        <time>2024-07-30T07:55:51Z</time>
      </trkpt>
      <trkpt lat="41.80441" lon="9.02444">
        <ele>498.6</ele>
        <time>2024-07-30T07:55:55Z</time>
      </trkpt>
      <trkpt lat="41.80442" lon="9.02444">
        <ele>497.6</ele>
        <time>2024-07-30T07:55:59Z</time>
      </trkpt>
      <trkpt lat="41.80442" lon="9.02444">
        <ele>496.8</ele>
        <time>2024-07-30T07:56:00Z</time>
      </trkpt>
      <trkpt lat="41.80442" lon="9.02444">
        <ele>495.4</ele>
        <time>2024-07-30T07:56:01Z</time>
      </trkpt>
      <trkpt lat="41.80443" lon="9.02443">
        <ele>494.2</ele>
        <time>2024-07-30T07:56:04Z</time>
      </trkpt>
      <trkpt lat="41.80449" lon="9.02437">
        <ele>494.4</ele>
        <time>2024-07-30T07:56:16Z</time>
      </trkpt>
      <trkpt lat="41.8045" lon="9.02434">
        <ele>493.2</ele>
        <time>2024-07-30T07:56:23Z</time>
      </trkpt>
      <trkpt lat="41.8045" lon="9.02428">
        <ele>492</ele>
        <time>2024-07-30T07:56:30Z</time>
      </trkpt>
      <trkpt lat="41.80448" lon="9.02426">
        <ele>491.6</ele>
        <time>2024-07-30T07:56:32Z</time>
      </trkpt>
      <trkpt lat="41.80445" lon="9.02422">
        <ele>490.8</ele>
        <time>2024-07-30T07:56:35Z</time>
      </trkpt>
      <trkpt lat="41.80444" lon="9.0242">
        <ele>489.8</ele>
        <time>2024-07-30T07:56:37Z</time>
      </trkpt>
      <trkpt lat="41.80444" lon="9.02416">
        <ele>489.2</ele>
        <time>2024-07-30T07:56:42Z</time>
      </trkpt>
      <trkpt lat="41.80444" lon="9.02415">
        <ele>488.8</ele>
        <time>2024-07-30T07:56:44Z</time>
      </trkpt>
      <trkpt lat="41.80446" lon="9.02411">
        <ele>487.8</ele>
        <time>2024-07-30T07:56:51Z</time>
      </trkpt>
      <trkpt lat="41.80448" lon="9.0241">
        <ele>487.8</ele>
        <time>2024-07-30T07:56:54Z</time>
      </trkpt>
      <trkpt lat="41.80455" lon="9.02406">
        <ele>487</ele>
        <time>2024-07-30T07:57:09Z</time>
      </trkpt>
      <trkpt lat="41.80458" lon="9.02406">
        <ele>486.8</ele>
        <time>2024-07-30T07:57:12Z</time>
      </trkpt>
      <trkpt lat="41.80467" lon="9.02408">
        <ele>486.6</ele>
        <time>2024-07-30T07:57:26Z</time>
      </trkpt>
      <trkpt lat="41.80472" lon="9.0241">
        <ele>485.6</ele>
        <time>2024-07-30T07:57:31Z</time>
      </trkpt>
      <trkpt lat="41.80479" lon="9.02407">
        <ele>485.6</ele>
        <time>2024-07-30T07:57:44Z</time>
      </trkpt>
      <trkpt lat="41.80481" lon="9.02407">
        <ele>485.6</ele>
        <time>2024-07-30T07:57:45Z</time>
      </trkpt>
      <trkpt lat="41.80483" lon="9.02407">
        <ele>485.6</ele>
        <time>2024-07-30T07:57:46Z</time>
      </trkpt>
      <trkpt lat="41.80491" lon="9.02408">
        <ele>485</ele>
        <time>2024-07-30T07:57:53Z</time>
      </trkpt>
      <trkpt lat="41.80495" lon="9.02409">
        <ele>484.8</ele>
        <time>2024-07-30T07:57:56Z</time>
      </trkpt>
      <trkpt lat="41.80496" lon="9.02409">
        <ele>484.6</ele>
        <time>2024-07-30T07:57:58Z</time>
      </trkpt>
      <trkpt lat="41.80498" lon="9.02409">
        <ele>484.4</ele>
        <time>2024-07-30T07:58:00Z</time>
      </trkpt>
      <trkpt lat="41.805" lon="9.02411">
        <ele>484</ele>
        <time>2024-07-30T07:58:04Z</time>
      </trkpt>
      <trkpt lat="41.80503" lon="9.02415">
        <ele>483.4</ele>
        <time>2024-07-30T07:58:09Z</time>
      </trkpt>
      <trkpt lat="41.80505" lon="9.02417">
        <ele>483.4</ele>
        <time>2024-07-30T07:58:11Z</time>
      </trkpt>
      <trkpt lat="41.80506" lon="9.02419">
        <ele>483.2</ele>
        <time>2024-07-30T07:58:13Z</time>
      </trkpt>
      <trkpt lat="41.8051" lon="9.02427">
        <ele>483.2</ele>
        <time>2024-07-30T07:58:21Z</time>
      </trkpt>
      <trkpt lat="41.80522" lon="9.02429">
        <ele>482.8</ele>
        <time>2024-07-30T07:58:27Z</time>
      </trkpt>
      <trkpt lat="41.80531" lon="9.02435">
        <ele>482.8</ele>
        <time>2024-07-30T07:58:35Z</time>
      </trkpt>
      <trkpt lat="41.80541" lon="9.02438">
        <ele>482.8</ele>
        <time>2024-07-30T07:58:53Z</time>
      </trkpt>
      <trkpt lat="41.80549" lon="9.02439">
        <ele>482.6</ele>
        <time>2024-07-30T07:59:02Z</time>
      </trkpt>
      <trkpt lat="41.80551" lon="9.0244">
        <ele>482.6</ele>
        <time>2024-07-30T07:59:04Z</time>
      </trkpt>
      <trkpt lat="41.80557" lon="9.02441">
        <ele>482.6</ele>
        <time>2024-07-30T07:59:09Z</time>
      </trkpt>
      <trkpt lat="41.80558" lon="9.02441">
        <ele>482.6</ele>
        <time>2024-07-30T07:59:10Z</time>
      </trkpt>
      <trkpt lat="41.80559" lon="9.02442">
        <ele>485</ele>
        <time>2024-07-30T07:59:14Z</time>
      </trkpt>
      <trkpt lat="41.8056" lon="9.02441">
        <ele>486.2</ele>
        <time>2024-07-30T07:59:15Z</time>
      </trkpt>
      <trkpt lat="41.80562" lon="9.02443">
        <ele>487.2</ele>
        <time>2024-07-30T07:59:18Z</time>
      </trkpt>
      <trkpt lat="41.80562" lon="9.02447">
        <ele>488.6</ele>
        <time>2024-07-30T07:59:24Z</time>
      </trkpt>
      <trkpt lat="41.80562" lon="9.02448">
        <ele>488.6</ele>
        <time>2024-07-30T07:59:25Z</time>
      </trkpt>
      <trkpt lat="41.80562" lon="9.02454">
        <ele>489.6</ele>
        <time>2024-07-30T07:59:31Z</time>
      </trkpt>
      <trkpt lat="41.80563" lon="9.02457">
        <ele>490.6</ele>
        <time>2024-07-30T07:59:34Z</time>
      </trkpt>
      <trkpt lat="41.80565" lon="9.02461">
        <ele>491.6</ele>
        <time>2024-07-30T07:59:43Z</time>
      </trkpt>
      <trkpt lat="41.80566" lon="9.02465">
        <ele>491.8</ele>
        <time>2024-07-30T07:59:52Z</time>
      </trkpt>
      <trkpt lat="41.80567" lon="9.02466">
        <ele>493</ele>
        <time>2024-07-30T07:59:58Z</time>
      </trkpt>
      <trkpt lat="41.8057" lon="9.0247">
        <ele>493.4</ele>
        <time>2024-07-30T08:00:01Z</time>
      </trkpt>
      <trkpt lat="41.80573" lon="9.02475">
        <ele>494.2</ele>
        <time>2024-07-30T08:00:06Z</time>
      </trkpt>
      <trkpt lat="41.80573" lon="9.0248">
        <ele>495.2</ele>
        <time>2024-07-30T08:00:12Z</time>
      </trkpt>
      <trkpt lat="41.80574" lon="9.02486">
        <ele>496.6</ele>
        <time>2024-07-30T08:00:17Z</time>
      </trkpt>
      <trkpt lat="41.80575" lon="9.02489">
        <ele>497</ele>
        <time>2024-07-30T08:00:20Z</time>
      </trkpt>
      <trkpt lat="41.80576" lon="9.02493">
        <ele>497.6</ele>
        <time>2024-07-30T08:00:23Z</time>
      </trkpt>
      <trkpt lat="41.80577" lon="9.02495">
        <ele>498</ele>
        <time>2024-07-30T08:00:26Z</time>
      </trkpt>
      <trkpt lat="41.80577" lon="9.025">
        <ele>498.4</ele>
        <time>2024-07-30T08:00:30Z</time>
      </trkpt>
      <trkpt lat="41.80576" lon="9.02504">
        <ele>498.6</ele>
        <time>2024-07-30T08:00:32Z</time>
      </trkpt>
      <trkpt lat="41.80576" lon="9.02511">
        <ele>498.6</ele>
        <time>2024-07-30T08:00:38Z</time>
      </trkpt>
      <trkpt lat="41.80574" lon="9.02517">
        <ele>498.6</ele>
        <time>2024-07-30T08:00:43Z</time>
      </trkpt>
      <trkpt lat="41.8057" lon="9.02529">
        <ele>499.8</ele>
        <time>2024-07-30T08:00:54Z</time>
      </trkpt>
      <trkpt lat="41.80569" lon="9.0253">
        <ele>500</ele>
        <time>2024-07-30T08:00:55Z</time>
      </trkpt>
      <trkpt lat="41.80566" lon="9.02537">
        <ele>501</ele>
        <time>2024-07-30T08:01:01Z</time>
      </trkpt>
      <trkpt lat="41.80566" lon="9.02555">
        <ele>501.6</ele>
        <time>2024-07-30T08:01:14Z</time>
      </trkpt>
      <trkpt lat="41.80572" lon="9.02561">
        <ele>501.6</ele>
        <time>2024-07-30T08:01:19Z</time>
      </trkpt>
      <trkpt lat="41.80573" lon="9.02563">
        <ele>501.6</ele>
        <time>2024-07-30T08:01:21Z</time>
      </trkpt>
      <trkpt lat="41.80574" lon="9.02564">
        <ele>501.4</ele>
        <time>2024-07-30T08:01:23Z</time>
      </trkpt>
      <trkpt lat="41.80576" lon="9.02567">
        <ele>501.4</ele>
        <time>2024-07-30T08:01:26Z</time>
      </trkpt>
      <trkpt lat="41.80577" lon="9.02567">
        <ele>501.4</ele>
        <time>2024-07-30T08:01:27Z</time>
      </trkpt>
      <trkpt lat="41.80587" lon="9.0258">
        <ele>502.2</ele>
        <time>2024-07-30T08:01:39Z</time>
      </trkpt>
      <trkpt lat="41.8059" lon="9.02582">
        <ele>502.8</ele>
        <time>2024-07-30T08:01:42Z</time>
      </trkpt>
      <trkpt lat="41.8059" lon="9.02584">
        <ele>503.2</ele>
        <time>2024-07-30T08:01:44Z</time>
      </trkpt>
      <trkpt lat="41.80591" lon="9.02584">
        <ele>503.2</ele>
        <time>2024-07-30T08:01:45Z</time>
      </trkpt>
      <trkpt lat="41.80593" lon="9.02588">
        <ele>504.4</ele>
        <time>2024-07-30T08:01:49Z</time>
      </trkpt>
      <trkpt lat="41.80594" lon="9.02589">
        <ele>504.6</ele>
        <time>2024-07-30T08:01:50Z</time>
      </trkpt>
      <trkpt lat="41.80594" lon="9.02591">
        <ele>505</ele>
        <time>2024-07-30T08:01:52Z</time>
      </trkpt>
      <trkpt lat="41.80592" lon="9.02593">
        <ele>505.4</ele>
        <time>2024-07-30T08:01:54Z</time>
      </trkpt>
      <trkpt lat="41.80592" lon="9.02593">
        <ele>505.8</ele>
        <time>2024-07-30T08:01:55Z</time>
      </trkpt>
      <trkpt lat="41.80592" lon="9.02596">
        <ele>506.6</ele>
        <time>2024-07-30T08:01:59Z</time>
      </trkpt>
      <trkpt lat="41.80595" lon="9.02601">
        <ele>508</ele>
        <time>2024-07-30T08:02:06Z</time>
      </trkpt>
      <trkpt lat="41.80595" lon="9.02605">
        <ele>509</ele>
        <time>2024-07-30T08:02:10Z</time>
      </trkpt>
      <trkpt lat="41.80596" lon="9.0261">
        <ele>509.2</ele>
        <time>2024-07-30T08:02:14Z</time>
      </trkpt>
      <trkpt lat="41.80595" lon="9.02611">
        <ele>509.4</ele>
        <time>2024-07-30T08:02:15Z</time>
      </trkpt>
      <trkpt lat="41.80592" lon="9.02614">
        <ele>510.2</ele>
        <time>2024-07-30T08:02:19Z</time>
      </trkpt>
      <trkpt lat="41.8059" lon="9.02619">
        <ele>510.8</ele>
        <time>2024-07-30T08:02:24Z</time>
      </trkpt>
      <trkpt lat="41.80589" lon="9.02621">
        <ele>511</ele>
        <time>2024-07-30T08:02:26Z</time>
      </trkpt>
      <trkpt lat="41.80587" lon="9.02625">
        <ele>510.6</ele>
        <time>2024-07-30T08:02:28Z</time>
      </trkpt>
      <trkpt lat="41.80586" lon="9.02627">
        <ele>510.8</ele>
        <time>2024-07-30T08:02:29Z</time>
      </trkpt>
      <trkpt lat="41.80582" lon="9.02638">
        <ele>510.8</ele>
        <time>2024-07-30T08:02:38Z</time>
      </trkpt>
      <trkpt lat="41.80582" lon="9.02641">
        <ele>511</ele>
        <time>2024-07-30T08:02:40Z</time>
      </trkpt>
      <trkpt lat="41.80579" lon="9.02645">
        <ele>511.2</ele>
        <time>2024-07-30T08:02:44Z</time>
      </trkpt>
      <trkpt lat="41.80577" lon="9.02646">
        <ele>511.2</ele>
        <time>2024-07-30T08:02:46Z</time>
      </trkpt>
      <trkpt lat="41.80575" lon="9.02648">
        <ele>511.6</ele>
        <time>2024-07-30T08:02:48Z</time>
      </trkpt>
      <trkpt lat="41.80572" lon="9.02648">
        <ele>512.2</ele>
        <time>2024-07-30T08:02:50Z</time>
      </trkpt>
      <trkpt lat="41.80571" lon="9.02649">
        <ele>512.4</ele>
        <time>2024-07-30T08:02:51Z</time>
      </trkpt>
      <trkpt lat="41.80566" lon="9.02652">
        <ele>513.6</ele>
        <time>2024-07-30T08:02:58Z</time>
      </trkpt>
      <trkpt lat="41.80564" lon="9.02654">
        <ele>514</ele>
        <time>2024-07-30T08:03:00Z</time>
      </trkpt>
      <trkpt lat="41.80562" lon="9.02657">
        <ele>514.6</ele>
        <time>2024-07-30T08:03:03Z</time>
      </trkpt>
      <trkpt lat="41.80561" lon="9.02664">
        <ele>515.4</ele>
        <time>2024-07-30T08:03:07Z</time>
      </trkpt>
      <trkpt lat="41.80562" lon="9.02666">
        <ele>515.6</ele>
        <time>2024-07-30T08:03:08Z</time>
      </trkpt>
      <trkpt lat="41.80561" lon="9.02674">
        <ele>516</ele>
        <time>2024-07-30T08:03:15Z</time>
      </trkpt>
      <trkpt lat="41.80573" lon="9.02695">
        <ele>515.8</ele>
        <time>2024-07-30T08:03:31Z</time>
      </trkpt>
      <trkpt lat="41.80581" lon="9.02702">
        <ele>514.8</ele>
        <time>2024-07-30T08:03:36Z</time>
      </trkpt>
      <trkpt lat="41.80585" lon="9.02705">
        <ele>514.6</ele>
        <time>2024-07-30T08:03:40Z</time>
      </trkpt>
      <trkpt lat="41.80588" lon="9.02709">
        <ele>515</ele>
        <time>2024-07-30T08:03:45Z</time>
      </trkpt>
      <trkpt lat="41.80594" lon="9.02718">
        <ele>515.8</ele>
        <time>2024-07-30T08:03:53Z</time>
      </trkpt>
      <trkpt lat="41.80598" lon="9.02722">
        <ele>516.8</ele>
        <time>2024-07-30T08:03:59Z</time>
      </trkpt>
      <trkpt lat="41.80601" lon="9.02724">
        <ele>517</ele>
        <time>2024-07-30T08:04:03Z</time>
      </trkpt>
      <trkpt lat="41.80606" lon="9.0273">
        <ele>518</ele>
        <time>2024-07-30T08:04:11Z</time>
      </trkpt>
      <trkpt lat="41.80609" lon="9.02732">
        <ele>518.6</ele>
        <time>2024-07-30T08:04:14Z</time>
      </trkpt>
      <trkpt lat="41.80611" lon="9.02733">
        <ele>519</ele>
        <time>2024-07-30T08:04:16Z</time>
      </trkpt>
      <trkpt lat="41.80612" lon="9.02734">
        <ele>519.4</ele>
        <time>2024-07-30T08:04:18Z</time>
      </trkpt>
      <trkpt lat="41.80613" lon="9.02735">
        <ele>519.6</ele>
        <time>2024-07-30T08:04:20Z</time>
      </trkpt>
      <trkpt lat="41.80615" lon="9.0274">
        <ele>519.6</ele>
        <time>2024-07-30T08:04:23Z</time>
      </trkpt>
      <trkpt lat="41.80616" lon="9.02743">
        <ele>519.6</ele>
        <time>2024-07-30T08:04:25Z</time>
      </trkpt>
      <trkpt lat="41.80616" lon="9.02747">
        <ele>519.8</ele>
        <time>2024-07-30T08:04:28Z</time>
      </trkpt>
      <trkpt lat="41.80618" lon="9.02752">
        <ele>520</ele>
        <time>2024-07-30T08:04:33Z</time>
      </trkpt>
      <trkpt lat="41.80616" lon="9.02756">
        <ele>520.8</ele>
        <time>2024-07-30T08:04:37Z</time>
      </trkpt>
      <trkpt lat="41.80615" lon="9.02757">
        <ele>521.2</ele>
        <time>2024-07-30T08:04:38Z</time>
      </trkpt>
      <trkpt lat="41.80614" lon="9.02761">
        <ele>522</ele>
        <time>2024-07-30T08:04:41Z</time>
      </trkpt>
      <trkpt lat="41.80615" lon="9.02762">
        <ele>522.2</ele>
        <time>2024-07-30T08:04:43Z</time>
      </trkpt>
      <trkpt lat="41.80614" lon="9.02764">
        <ele>522.4</ele>
        <time>2024-07-30T08:04:45Z</time>
      </trkpt>
      <trkpt lat="41.80614" lon="9.02767">
        <ele>522.4</ele>
        <time>2024-07-30T08:04:47Z</time>
      </trkpt>
      <trkpt lat="41.80614" lon="9.02768">
        <ele>522.6</ele>
        <time>2024-07-30T08:04:49Z</time>
      </trkpt>
      <trkpt lat="41.80612" lon="9.02773">
        <ele>523.2</ele>
        <time>2024-07-30T08:04:53Z</time>
      </trkpt>
      <trkpt lat="41.80612" lon="9.02775">
        <ele>523.4</ele>
        <time>2024-07-30T08:04:54Z</time>
      </trkpt>
      <trkpt lat="41.80611" lon="9.02777">
        <ele>523.8</ele>
        <time>2024-07-30T08:04:56Z</time>
      </trkpt>
      <trkpt lat="41.80611" lon="9.0278">
        <ele>523.8</ele>
        <time>2024-07-30T08:04:58Z</time>
      </trkpt>
      <trkpt lat="41.80609" lon="9.02783">
        <ele>524.6</ele>
        <time>2024-07-30T08:05:02Z</time>
      </trkpt>
      <trkpt lat="41.8061" lon="9.02785">
        <ele>525</ele>
        <time>2024-07-30T08:05:04Z</time>
      </trkpt>
      <trkpt lat="41.8061" lon="9.02787">
        <ele>525.4</ele>
        <time>2024-07-30T08:05:08Z</time>
      </trkpt>
      <trkpt lat="41.80609" lon="9.02788">
        <ele>525.6</ele>
        <time>2024-07-30T08:05:09Z</time>
      </trkpt>
      <trkpt lat="41.80609" lon="9.02789">
        <ele>525.8</ele>
        <time>2024-07-30T08:05:10Z</time>
      </trkpt>
      <trkpt lat="41.80606" lon="9.02792">
        <ele>526.6</ele>
        <time>2024-07-30T08:05:14Z</time>
      </trkpt>
      <trkpt lat="41.80605" lon="9.02794">
        <ele>526.8</ele>
        <time>2024-07-30T08:05:15Z</time>
      </trkpt>
      <trkpt lat="41.80604" lon="9.02797">
        <ele>527</ele>
        <time>2024-07-30T08:05:17Z</time>
      </trkpt>
      <trkpt lat="41.80603" lon="9.02798">
        <ele>527.6</ele>
        <time>2024-07-30T08:05:19Z</time>
      </trkpt>
      <trkpt lat="41.80603" lon="9.028">
        <ele>528.2</ele>
        <time>2024-07-30T08:05:21Z</time>
      </trkpt>
      <trkpt lat="41.80603" lon="9.02803">
        <ele>528.6</ele>
        <time>2024-07-30T08:05:23Z</time>
      </trkpt>
      <trkpt lat="41.80603" lon="9.02804">
        <ele>528.8</ele>
        <time>2024-07-30T08:05:24Z</time>
      </trkpt>
      <trkpt lat="41.80603" lon="9.02805">
        <ele>528.8</ele>
        <time>2024-07-30T08:05:25Z</time>
      </trkpt>
      <trkpt lat="41.80602" lon="9.02814">
        <ele>529.6</ele>
        <time>2024-07-30T08:05:33Z</time>
      </trkpt>
      <trkpt lat="41.80602" lon="9.02816">
        <ele>529.8</ele>
        <time>2024-07-30T08:05:34Z</time>
      </trkpt>
      <trkpt lat="41.80602" lon="9.02817">
        <ele>529.8</ele>
        <time>2024-07-30T08:05:35Z</time>
      </trkpt>
      <trkpt lat="41.80601" lon="9.02819">
        <ele>530</ele>
        <time>2024-07-30T08:05:38Z</time>
      </trkpt>
      <trkpt lat="41.806" lon="9.02821">
        <ele>530.8</ele>
        <time>2024-07-30T08:05:41Z</time>
      </trkpt>
      <trkpt lat="41.80603" lon="9.02827">
        <ele>531.8</ele>
        <time>2024-07-30T08:05:46Z</time>
      </trkpt>
      <trkpt lat="41.80603" lon="9.02829">
        <ele>532</ele>
        <time>2024-07-30T08:05:47Z</time>
      </trkpt>
      <trkpt lat="41.80604" lon="9.02831">
        <ele>532.2</ele>
        <time>2024-07-30T08:05:49Z</time>
      </trkpt>
      <trkpt lat="41.80604" lon="9.02832">
        <ele>531.6</ele>
        <time>2024-07-30T08:05:51Z</time>
      </trkpt>
      <trkpt lat="41.80607" lon="9.02843">
        <ele>531.2</ele>
        <time>2024-07-30T08:06:01Z</time>
      </trkpt>
      <trkpt lat="41.80607" lon="9.02845">
        <ele>531.4</ele>
        <time>2024-07-30T08:06:03Z</time>
      </trkpt>
      <trkpt lat="41.80606" lon="9.02848">
        <ele>532</ele>
        <time>2024-07-30T08:06:06Z</time>
      </trkpt>
      <trkpt lat="41.80606" lon="9.02849">
        <ele>532.2</ele>
        <time>2024-07-30T08:06:07Z</time>
      </trkpt>
      <trkpt lat="41.80607" lon="9.02854">
        <ele>532.6</ele>
        <time>2024-07-30T08:06:11Z</time>
      </trkpt>
      <trkpt lat="41.8061" lon="9.02858">
        <ele>533</ele>
        <time>2024-07-30T08:06:19Z</time>
      </trkpt>
      <trkpt lat="41.80607" lon="9.02868">
        <ele>534.2</ele>
        <time>2024-07-30T08:06:28Z</time>
      </trkpt>
      <trkpt lat="41.80607" lon="9.02871">
        <ele>534.4</ele>
        <time>2024-07-30T08:06:31Z</time>
      </trkpt>
      <trkpt lat="41.80603" lon="9.02878">
        <ele>535.4</ele>
        <time>2024-07-30T08:06:40Z</time>
      </trkpt>
      <trkpt lat="41.80604" lon="9.0288">
        <ele>536.6</ele>
        <time>2024-07-30T08:06:42Z</time>
      </trkpt>
      <trkpt lat="41.80605" lon="9.02881">
        <ele>536.2</ele>
        <time>2024-07-30T08:06:45Z</time>
      </trkpt>
      <trkpt lat="41.80605" lon="9.02882">
        <ele>535.4</ele>
        <time>2024-07-30T08:06:49Z</time>
      </trkpt>
      <trkpt lat="41.80606" lon="9.02885">
        <ele>536.6</ele>
        <time>2024-07-30T08:06:58Z</time>
      </trkpt>
      <trkpt lat="41.80604" lon="9.02884">
        <ele>537</ele>
        <time>2024-07-30T08:07:12Z</time>
      </trkpt>
      <trkpt lat="41.80604" lon="9.02889">
        <ele>535.4</ele>
        <time>2024-07-30T08:07:28Z</time>
      </trkpt>
      <trkpt lat="41.80602" lon="9.02897">
        <ele>536.4</ele>
        <time>2024-07-30T08:07:36Z</time>
      </trkpt>
      <trkpt lat="41.80601" lon="9.02899">
        <ele>537</ele>
        <time>2024-07-30T08:07:40Z</time>
      </trkpt>
      <trkpt lat="41.80598" lon="9.02906">
        <ele>536.8</ele>
        <time>2024-07-30T08:07:57Z</time>
      </trkpt>
      <trkpt lat="41.806" lon="9.0291">
        <ele>537</ele>
        <time>2024-07-30T08:08:09Z</time>
      </trkpt>
      <trkpt lat="41.80599" lon="9.02913">
        <ele>535.8</ele>
        <time>2024-07-30T08:08:21Z</time>
      </trkpt>
      <trkpt lat="41.80598" lon="9.02914">
        <ele>535.8</ele>
        <time>2024-07-30T08:08:26Z</time>
      </trkpt>
      <trkpt lat="41.80594" lon="9.02917">
        <ele>535.8</ele>
        <time>2024-07-30T08:08:33Z</time>
      </trkpt>
      <trkpt lat="41.80588" lon="9.02935">
        <ele>535.8</ele>
        <time>2024-07-30T08:08:46Z</time>
      </trkpt>
      <trkpt lat="41.80583" lon="9.02955">
        <ele>536</ele>
        <time>2024-07-30T08:09:00Z</time>
      </trkpt>
      <trkpt lat="41.8058" lon="9.02975">
        <ele>536.8</ele>
        <time>2024-07-30T08:09:15Z</time>
      </trkpt>
      <trkpt lat="41.80577" lon="9.02997">
        <ele>536.6</ele>
        <time>2024-07-30T08:09:34Z</time>
      </trkpt>
      <trkpt lat="41.8057" lon="9.03005">
        <ele>536.2</ele>
        <time>2024-07-30T08:09:50Z</time>
      </trkpt>
      <trkpt lat="41.80569" lon="9.03007">
        <ele>536.8</ele>
        <time>2024-07-30T08:09:52Z</time>
      </trkpt>
      <trkpt lat="41.80571" lon="9.03011">
        <ele>537.4</ele>
        <time>2024-07-30T08:10:00Z</time>
      </trkpt>
      <trkpt lat="41.8057" lon="9.03011">
        <ele>537.4</ele>
        <time>2024-07-30T08:10:02Z</time>
      </trkpt>
      <trkpt lat="41.80569" lon="9.03013">
        <ele>538.6</ele>
        <time>2024-07-30T08:10:09Z</time>
      </trkpt>
      <trkpt lat="41.80569" lon="9.03015">
        <ele>539.6</ele>
        <time>2024-07-30T08:10:14Z</time>
      </trkpt>
      <trkpt lat="41.80568" lon="9.03017">
        <ele>540.2</ele>
        <time>2024-07-30T08:10:18Z</time>
      </trkpt>
      <trkpt lat="41.80568" lon="9.03017">
        <ele>540.6</ele>
        <time>2024-07-30T08:10:20Z</time>
      </trkpt>
      <trkpt lat="41.80568" lon="9.03017">
        <ele>541</ele>
        <time>2024-07-30T08:10:21Z</time>
      </trkpt>
      <trkpt lat="41.80566" lon="9.03019">
        <ele>541.4</ele>
        <time>2024-07-30T08:10:24Z</time>
      </trkpt>
      <trkpt lat="41.80565" lon="9.0302">
        <ele>542</ele>
        <time>2024-07-30T08:10:27Z</time>
      </trkpt>
      <trkpt lat="41.80562" lon="9.03023">
        <ele>542.4</ele>
        <time>2024-07-30T08:10:33Z</time>
      </trkpt>
      <trkpt lat="41.80561" lon="9.03024">
        <ele>543</ele>
        <time>2024-07-30T08:10:35Z</time>
      </trkpt>
      <trkpt lat="41.80559" lon="9.03029">
        <ele>544.2</ele>
        <time>2024-07-30T08:10:40Z</time>
      </trkpt>
      <trkpt lat="41.80557" lon="9.03032">
        <ele>544.4</ele>
        <time>2024-07-30T08:10:44Z</time>
      </trkpt>
      <trkpt lat="41.80557" lon="9.03032">
        <ele>544.8</ele>
        <time>2024-07-30T08:10:47Z</time>
      </trkpt>
      <trkpt lat="41.80556" lon="9.03033">
        <ele>545.2</ele>
        <time>2024-07-30T08:10:53Z</time>
      </trkpt>
      <trkpt lat="41.80554" lon="9.03032">
        <ele>544.2</ele>
        <time>2024-07-30T08:11:04Z</time>
      </trkpt>
      <trkpt lat="41.80556" lon="9.03032">
        <ele>541.6</ele>
        <time>2024-07-30T08:11:13Z</time>
      </trkpt>
      <trkpt lat="41.80556" lon="9.03032">
        <ele>540.2</ele>
        <time>2024-07-30T08:11:14Z</time>
      </trkpt>
      <trkpt lat="41.80556" lon="9.03032">
        <ele>539.2</ele>
        <time>2024-07-30T08:11:17Z</time>
      </trkpt>
      <trkpt lat="41.80554" lon="9.03032">
        <ele>539.6</ele>
        <time>2024-07-30T08:11:20Z</time>
      </trkpt>
      <trkpt lat="41.80555" lon="9.03034">
        <ele>541.8</ele>
        <time>2024-07-30T08:11:32Z</time>
      </trkpt>
      <trkpt lat="41.80555" lon="9.03034">
        <ele>542.8</ele>
        <time>2024-07-30T08:11:33Z</time>
      </trkpt>
      <trkpt lat="41.80555" lon="9.03033">
        <ele>543.8</ele>
        <time>2024-07-30T08:11:36Z</time>
      </trkpt>
      <trkpt lat="41.80554" lon="9.03035">
        <ele>544</ele>
        <time>2024-07-30T08:11:39Z</time>
      </trkpt>
      <trkpt lat="41.80554" lon="9.0304">
        <ele>544</ele>
        <time>2024-07-30T08:11:51Z</time>
      </trkpt>
      <trkpt lat="41.80561" lon="9.03043">
        <ele>544.6</ele>
        <time>2024-07-30T08:12:02Z</time>
      </trkpt>
      <trkpt lat="41.80564" lon="9.03056">
        <ele>543.8</ele>
        <time>2024-07-30T08:12:19Z</time>
      </trkpt>
      <trkpt lat="41.8056" lon="9.03066">
        <ele>543.4</ele>
        <time>2024-07-30T08:12:34Z</time>
      </trkpt>
      <trkpt lat="41.80561" lon="9.03068">
        <ele>543.6</ele>
        <time>2024-07-30T08:12:48Z</time>
      </trkpt>
      <trkpt lat="41.8056" lon="9.03069">
        <ele>542.8</ele>
        <time>2024-07-30T08:13:01Z</time>
      </trkpt>
      <trkpt lat="41.80558" lon="9.03069">
        <ele>541.2</ele>
        <time>2024-07-30T08:13:04Z</time>
      </trkpt>
      <trkpt lat="41.80556" lon="9.03069">
        <ele>539.6</ele>
        <time>2024-07-30T08:13:07Z</time>
      </trkpt>
      <trkpt lat="41.80555" lon="9.03069">
        <ele>539.2</ele>
        <time>2024-07-30T08:13:08Z</time>
      </trkpt>
      <trkpt lat="41.80554" lon="9.03067">
        <ele>538.2</ele>
        <time>2024-07-30T08:13:11Z</time>
      </trkpt>
      <trkpt lat="41.80554" lon="9.03067">
        <ele>536.4</ele>
        <time>2024-07-30T08:13:14Z</time>
      </trkpt>
      <trkpt lat="41.80555" lon="9.03068">
        <ele>535</ele>
        <time>2024-07-30T08:13:19Z</time>
      </trkpt>
      <trkpt lat="41.80553" lon="9.03069">
        <ele>534.6</ele>
        <time>2024-07-30T08:13:23Z</time>
      </trkpt>
      <trkpt lat="41.80554" lon="9.03069">
        <ele>536</ele>
        <time>2024-07-30T08:13:37Z</time>
      </trkpt>
      <trkpt lat="41.80555" lon="9.03069">
        <ele>537.4</ele>
        <time>2024-07-30T08:13:43Z</time>
      </trkpt>
      <trkpt lat="41.80555" lon="9.0307">
        <ele>539.2</ele>
        <time>2024-07-30T08:13:46Z</time>
      </trkpt>
      <trkpt lat="41.80556" lon="9.03073">
        <ele>540.2</ele>
        <time>2024-07-30T08:13:51Z</time>
      </trkpt>
      <trkpt lat="41.80557" lon="9.03076">
        <ele>541.2</ele>
        <time>2024-07-30T08:13:57Z</time>
      </trkpt>
      <trkpt lat="41.80557" lon="9.03077">
        <ele>542.2</ele>
        <time>2024-07-30T08:14:01Z</time>
      </trkpt>
      <trkpt lat="41.80557" lon="9.03076">
        <ele>542.6</ele>
        <time>2024-07-30T08:14:02Z</time>
      </trkpt>
      <trkpt lat="41.80558" lon="9.03076">
        <ele>543.2</ele>
        <time>2024-07-30T08:14:03Z</time>
      </trkpt>
      <trkpt lat="41.80558" lon="9.03076">
        <ele>544.2</ele>
        <time>2024-07-30T08:14:05Z</time>
      </trkpt>
      <trkpt lat="41.80559" lon="9.03077">
        <ele>545</ele>
        <time>2024-07-30T08:14:16Z</time>
      </trkpt>
      <trkpt lat="41.80559" lon="9.03077">
        <ele>545.4</ele>
        <time>2024-07-30T08:14:19Z</time>
      </trkpt>
      <trkpt lat="41.8056" lon="9.03077">
        <ele>546.4</ele>
        <time>2024-07-30T08:14:24Z</time>
      </trkpt>
      <trkpt lat="41.80559" lon="9.03077">
        <ele>546.4</ele>
        <time>2024-07-30T08:14:31Z</time>
      </trkpt>
      <trkpt lat="41.80558" lon="9.03079">
        <ele>545.4</ele>
        <time>2024-07-30T08:14:44Z</time>
      </trkpt>
      <trkpt lat="41.80557" lon="9.03081">
        <ele>545.2</ele>
        <time>2024-07-30T08:14:48Z</time>
      </trkpt>
      <trkpt lat="41.80552" lon="9.03086">
        <ele>544.4</ele>
        <time>2024-07-30T08:14:59Z</time>
      </trkpt>
      <trkpt lat="41.80551" lon="9.03086">
        <ele>544.2</ele>
        <time>2024-07-30T08:15:00Z</time>
      </trkpt>
      <trkpt lat="41.8055" lon="9.03089">
        <ele>543.2</ele>
        <time>2024-07-30T08:15:04Z</time>
      </trkpt>
      <trkpt lat="41.8055" lon="9.03089">
        <ele>543.2</ele>
        <time>2024-07-30T08:15:05Z</time>
      </trkpt>
      <trkpt lat="41.80549" lon="9.03095">
        <ele>542.4</ele>
        <time>2024-07-30T08:15:14Z</time>
      </trkpt>
      <trkpt lat="41.80549" lon="9.03096">
        <ele>542</ele>
        <time>2024-07-30T08:15:17Z</time>
      </trkpt>
      <trkpt lat="41.80553" lon="9.031">
        <ele>541.8</ele>
        <time>2024-07-30T08:15:27Z</time>
      </trkpt>
      <trkpt lat="41.80553" lon="9.031">
        <ele>541.8</ele>
        <time>2024-07-30T08:15:28Z</time>
      </trkpt>
      <trkpt lat="41.80555" lon="9.03103">
        <ele>541</ele>
        <time>2024-07-30T08:15:40Z</time>
      </trkpt>
      <trkpt lat="41.80554" lon="9.03103">
        <ele>540.8</ele>
        <time>2024-07-30T08:15:44Z</time>
      </trkpt>
      <trkpt lat="41.80554" lon="9.03111">
        <ele>541.4</ele>
        <time>2024-07-30T08:16:09Z</time>
      </trkpt>
      <trkpt lat="41.80544" lon="9.03107">
        <ele>541.6</ele>
        <time>2024-07-30T08:16:20Z</time>
      </trkpt>
      <trkpt lat="41.80544" lon="9.03105">
        <ele>541.6</ele>
        <time>2024-07-30T08:16:37Z</time>
      </trkpt>
      <trkpt lat="41.80554" lon="9.03112">
        <ele>541.6</ele>
        <time>2024-07-30T08:16:52Z</time>
      </trkpt>
      <trkpt lat="41.80561" lon="9.03118">
        <ele>542</ele>
        <time>2024-07-30T08:17:09Z</time>
      </trkpt>
      <trkpt lat="41.80561" lon="9.03118">
        <ele>541</ele>
        <time>2024-07-30T08:18:37Z</time>
      </trkpt>
      <trkpt lat="41.80556" lon="9.03118">
        <ele>540.2</ele>
        <time>2024-07-30T08:20:54Z</time>
      </trkpt>
      <trkpt lat="41.80559" lon="9.03112">
        <ele>540.4</ele>
        <time>2024-07-30T08:21:11Z</time>
      </trkpt>
      <trkpt lat="41.80557" lon="9.03093">
        <ele>540.8</ele>
        <time>2024-07-30T08:21:36Z</time>
      </trkpt>
      <trkpt lat="41.80541" lon="9.03135">
        <ele>540.8</ele>
        <time>2024-07-30T08:22:27Z</time>
      </trkpt>
      <trkpt lat="41.8055" lon="9.03126">
        <ele>541</ele>
        <time>2024-07-30T08:22:48Z</time>
      </trkpt>
      <trkpt lat="41.8056" lon="9.03113">
        <ele>540</ele>
        <time>2024-07-30T08:23:04Z</time>
      </trkpt>
      <trkpt lat="41.80562" lon="9.03111">
        <ele>540</ele>
        <time>2024-07-30T08:23:05Z</time>
      </trkpt>
      <trkpt lat="41.80565" lon="9.03105">
        <ele>541</ele>
        <time>2024-07-30T08:23:10Z</time>
      </trkpt>
      <trkpt lat="41.80565" lon="9.03105">
        <ele>541.2</ele>
        <time>2024-07-30T08:23:18Z</time>
      </trkpt>
      <trkpt lat="41.80563" lon="9.03106">
        <ele>540.8</ele>
        <time>2024-07-30T08:23:33Z</time>
      </trkpt>
      <trkpt lat="41.80564" lon="9.03104">
        <ele>540.6</ele>
        <time>2024-07-30T08:23:49Z</time>
      </trkpt>
      <trkpt lat="41.80567" lon="9.03103">
        <ele>540.4</ele>
        <time>2024-07-30T08:24:08Z</time>
      </trkpt>
      <trkpt lat="41.80564" lon="9.03102">
        <ele>540.6</ele>
        <time>2024-07-30T08:24:23Z</time>
      </trkpt>
      <trkpt lat="41.80564" lon="9.031">
        <ele>540.6</ele>
        <time>2024-07-30T08:24:41Z</time>
      </trkpt>
      <trkpt lat="41.80564" lon="9.03098">
        <ele>540.8</ele>
        <time>2024-07-30T08:25:01Z</time>
      </trkpt>
      <trkpt lat="41.80572" lon="9.03102">
        <ele>540.6</ele>
        <time>2024-07-30T08:25:19Z</time>
      </trkpt>
      <trkpt lat="41.80562" lon="9.031">
        <ele>540.4</ele>
        <time>2024-07-30T08:25:31Z</time>
      </trkpt>
      <trkpt lat="41.80559" lon="9.03101">
        <ele>540.8</ele>
        <time>2024-07-30T08:25:48Z</time>
      </trkpt>
      <trkpt lat="41.80559" lon="9.03102">
        <ele>541.2</ele>
        <time>2024-07-30T08:26:02Z</time>
      </trkpt>
      <trkpt lat="41.80559" lon="9.03099">
        <ele>540.2</ele>
        <time>2024-07-30T08:26:20Z</time>
      </trkpt>
      <trkpt lat="41.80561" lon="9.03103">
        <ele>540</ele>
        <time>2024-07-30T08:26:30Z</time>
      </trkpt>
      <trkpt lat="41.80562" lon="9.03106">
        <ele>539.6</ele>
        <time>2024-07-30T08:26:38Z</time>
      </trkpt>
      <trkpt lat="41.8057" lon="9.03106">
        <ele>540.6</ele>
        <time>2024-07-30T08:26:56Z</time>
      </trkpt>
      <trkpt lat="41.80569" lon="9.03106">
        <ele>539.6</ele>
        <time>2024-07-30T08:27:15Z</time>
      </trkpt>
      <trkpt lat="41.80567" lon="9.03103">
        <ele>540.6</ele>
        <time>2024-07-30T08:27:29Z</time>
      </trkpt>
      <trkpt lat="41.80566" lon="9.03103">
        <ele>541</ele>
        <time>2024-07-30T08:27:31Z</time>
      </trkpt>
      <trkpt lat="41.80559" lon="9.03104">
        <ele>540.4</ele>
        <time>2024-07-30T08:27:48Z</time>
      </trkpt>
      <trkpt lat="41.80556" lon="9.03102">
        <ele>540</ele>
        <time>2024-07-30T08:27:54Z</time>
      </trkpt>
      <trkpt lat="41.80562" lon="9.03095">
        <ele>540</ele>
        <time>2024-07-30T08:28:03Z</time>
      </trkpt>
      <trkpt lat="41.80558" lon="9.03092">
        <ele>539.8</ele>
        <time>2024-07-30T08:28:19Z</time>
      </trkpt>
      <trkpt lat="41.80557" lon="9.03092">
        <ele>539.8</ele>
        <time>2024-07-30T08:28:22Z</time>
      </trkpt>
      <trkpt lat="41.80561" lon="9.03092">
        <ele>539.8</ele>
        <time>2024-07-30T08:28:42Z</time>
      </trkpt>
      <trkpt lat="41.80555" lon="9.03096">
        <ele>540</ele>
        <time>2024-07-30T08:29:01Z</time>
      </trkpt>
      <trkpt lat="41.80547" lon="9.03093">
        <ele>540</ele>
        <time>2024-07-30T08:29:20Z</time>
      </trkpt>
      <trkpt lat="41.80548" lon="9.031">
        <ele>539.8</ele>
        <time>2024-07-30T08:29:39Z</time>
      </trkpt>
      <trkpt lat="41.80558" lon="9.03099">
        <ele>540.2</ele>
        <time>2024-07-30T08:30:20Z</time>
      </trkpt>
      <trkpt lat="41.8056" lon="9.03101">
        <ele>540.6</ele>
        <time>2024-07-30T08:30:36Z</time>
      </trkpt>
      <trkpt lat="41.80565" lon="9.03097">
        <ele>540.6</ele>
        <time>2024-07-30T08:30:54Z</time>
      </trkpt>
      <trkpt lat="41.8056" lon="9.03104">
        <ele>540.6</ele>
        <time>2024-07-30T08:31:11Z</time>
      </trkpt>
      <trkpt lat="41.8056" lon="9.03104">
        <ele>541</ele>
        <time>2024-07-30T08:31:49Z</time>
      </trkpt>
      <trkpt lat="41.8056" lon="9.03104">
        <ele>542</ele>
        <time>2024-07-30T08:31:50Z</time>
      </trkpt>
      <trkpt lat="41.80574" lon="9.03115">
        <ele>542.8</ele>
        <time>2024-07-30T08:32:13Z</time>
      </trkpt>
      <trkpt lat="41.80577" lon="9.03108">
        <ele>542.8</ele>
        <time>2024-07-30T08:32:30Z</time>
      </trkpt>
      <trkpt lat="41.80566" lon="9.03103">
        <ele>542.4</ele>
        <time>2024-07-30T08:32:49Z</time>
      </trkpt>
      <trkpt lat="41.80565" lon="9.03102">
        <ele>540.6</ele>
        <time>2024-07-30T08:32:51Z</time>
      </trkpt>
      <trkpt lat="41.80593" lon="9.03119">
        <ele>540.4</ele>
        <time>2024-07-30T08:33:26Z</time>
      </trkpt>
      <trkpt lat="41.80583" lon="9.03118">
        <ele>540.6</ele>
        <time>2024-07-30T08:33:44Z</time>
      </trkpt>
      <trkpt lat="41.80575" lon="9.03113">
        <ele>540.8</ele>
        <time>2024-07-30T08:34:04Z</time>
      </trkpt>
      <trkpt lat="41.80576" lon="9.03099">
        <ele>540.8</ele>
        <time>2024-07-30T08:34:22Z</time>
      </trkpt>
      <trkpt lat="41.80575" lon="9.03097">
        <ele>541.2</ele>
        <time>2024-07-30T08:34:38Z</time>
      </trkpt>
      <trkpt lat="41.80581" lon="9.03111">
        <ele>541.4</ele>
        <time>2024-07-30T08:34:56Z</time>
      </trkpt>
      <trkpt lat="41.80585" lon="9.03106">
        <ele>541.4</ele>
        <time>2024-07-30T08:35:10Z</time>
      </trkpt>
      <trkpt lat="41.80572" lon="9.03112">
        <ele>541.2</ele>
        <time>2024-07-30T08:35:24Z</time>
      </trkpt>
      <trkpt lat="41.80569" lon="9.03115">
        <ele>541.2</ele>
        <time>2024-07-30T08:35:27Z</time>
      </trkpt>
      <trkpt lat="41.80553" lon="9.03117">
        <ele>541.2</ele>
        <time>2024-07-30T08:35:45Z</time>
      </trkpt>
      <trkpt lat="41.80538" lon="9.0312">
        <ele>541.4</ele>
        <time>2024-07-30T08:36:00Z</time>
      </trkpt>
      <trkpt lat="41.80552" lon="9.03113">
        <ele>541.2</ele>
        <time>2024-07-30T08:36:13Z</time>
      </trkpt>
      <trkpt lat="41.80563" lon="9.03113">
        <ele>541.2</ele>
        <time>2024-07-30T08:36:21Z</time>
      </trkpt>
      <trkpt lat="41.8057" lon="9.03111">
        <ele>541.4</ele>
        <time>2024-07-30T08:36:29Z</time>
      </trkpt>
      <trkpt lat="41.80571" lon="9.03111">
        <ele>541.6</ele>
        <time>2024-07-30T08:36:32Z</time>
      </trkpt>
      <trkpt lat="41.80571" lon="9.03111">
        <ele>540.6</ele>
        <time>2024-07-30T08:36:38Z</time>
      </trkpt>
      <trkpt lat="41.80569" lon="9.03109">
        <ele>541</ele>
        <time>2024-07-30T08:36:46Z</time>
      </trkpt>
      <trkpt lat="41.80577" lon="9.03104">
        <ele>541</ele>
        <time>2024-07-30T08:37:02Z</time>
      </trkpt>
      <trkpt lat="41.80576" lon="9.03102">
        <ele>540.8</ele>
        <time>2024-07-30T08:37:20Z</time>
      </trkpt>
      <trkpt lat="41.80577" lon="9.03096">
        <ele>540.8</ele>
        <time>2024-07-30T08:37:37Z</time>
      </trkpt>
      <trkpt lat="41.80579" lon="9.03097">
        <ele>540.8</ele>
        <time>2024-07-30T08:37:57Z</time>
      </trkpt>
      <trkpt lat="41.80581" lon="9.03096">
        <ele>541.2</ele>
        <time>2024-07-30T08:38:17Z</time>
      </trkpt>
      <trkpt lat="41.80574" lon="9.03096">
        <ele>541</ele>
        <time>2024-07-30T08:38:36Z</time>
      </trkpt>
      <trkpt lat="41.80565" lon="9.03097">
        <ele>541.2</ele>
        <time>2024-07-30T08:38:52Z</time>
      </trkpt>
      <trkpt lat="41.80563" lon="9.03105">
        <ele>540.6</ele>
        <time>2024-07-30T08:39:08Z</time>
      </trkpt>
      <trkpt lat="41.80566" lon="9.03106">
        <ele>539.6</ele>
        <time>2024-07-30T08:39:16Z</time>
      </trkpt>
      <trkpt lat="41.80569" lon="9.03114">
        <ele>539.8</ele>
        <time>2024-07-30T08:39:27Z</time>
      </trkpt>
      <trkpt lat="41.80573" lon="9.03112">
        <ele>541.2</ele>
        <time>2024-07-30T08:39:31Z</time>
      </trkpt>
      <trkpt lat="41.80571" lon="9.03113">
        <ele>541.4</ele>
        <time>2024-07-30T08:39:40Z</time>
      </trkpt>
      <trkpt lat="41.80571" lon="9.03113">
        <ele>541.6</ele>
        <time>2024-07-30T08:39:41Z</time>
      </trkpt>
      <trkpt lat="41.80569" lon="9.03113">
        <ele>541.6</ele>
        <time>2024-07-30T08:39:43Z</time>
      </trkpt>
      <trkpt lat="41.80561" lon="9.03117">
        <ele>542</ele>
        <time>2024-07-30T08:39:58Z</time>
      </trkpt>
      <trkpt lat="41.80561" lon="9.03113">
        <ele>542.2</ele>
        <time>2024-07-30T08:40:03Z</time>
      </trkpt>
      <trkpt lat="41.80558" lon="9.03106">
        <ele>542.4</ele>
        <time>2024-07-30T08:40:13Z</time>
      </trkpt>
      <trkpt lat="41.80554" lon="9.03104">
        <ele>542.2</ele>
        <time>2024-07-30T08:40:31Z</time>
      </trkpt>
      <trkpt lat="41.80549" lon="9.03103">
        <ele>542.2</ele>
        <time>2024-07-30T08:40:50Z</time>
      </trkpt>
      <trkpt lat="41.80542" lon="9.03109">
        <ele>542.2</ele>
        <time>2024-07-30T08:41:08Z</time>
      </trkpt>
      <trkpt lat="41.80543" lon="9.0311">
        <ele>542.2</ele>
        <time>2024-07-30T08:41:11Z</time>
      </trkpt>
      <trkpt lat="41.80552" lon="9.03101">
        <ele>542.6</ele>
        <time>2024-07-30T08:41:24Z</time>
      </trkpt>
      <trkpt lat="41.80554" lon="9.03101">
        <ele>542.4</ele>
        <time>2024-07-30T08:41:39Z</time>
      </trkpt>
      <trkpt lat="41.80554" lon="9.03099">
        <ele>542.6</ele>
        <time>2024-07-30T08:41:42Z</time>
      </trkpt>
      <trkpt lat="41.80555" lon="9.03099">
        <ele>542.2</ele>
        <time>2024-07-30T08:41:56Z</time>
      </trkpt>
      <trkpt lat="41.80555" lon="9.03098">
        <ele>542</ele>
        <time>2024-07-30T08:41:57Z</time>
      </trkpt>
      <trkpt lat="41.80566" lon="9.03121">
        <ele>542.2</ele>
        <time>2024-07-30T08:42:11Z</time>
      </trkpt>
      <trkpt lat="41.80573" lon="9.03127">
        <ele>542.2</ele>
        <time>2024-07-30T08:42:27Z</time>
      </trkpt>
      <trkpt lat="41.80559" lon="9.03115">
        <ele>541.8</ele>
        <time>2024-07-30T08:42:43Z</time>
      </trkpt>
      <trkpt lat="41.80541" lon="9.03118">
        <ele>541.6</ele>
        <time>2024-07-30T08:42:56Z</time>
      </trkpt>
      <trkpt lat="41.80541" lon="9.0312">
        <ele>541.6</ele>
        <time>2024-07-30T08:43:01Z</time>
      </trkpt>
      <trkpt lat="41.80553" lon="9.03118">
        <ele>542.2</ele>
        <time>2024-07-30T08:43:08Z</time>
      </trkpt>
      <trkpt lat="41.80559" lon="9.03104">
        <ele>540.8</ele>
        <time>2024-07-30T08:43:26Z</time>
      </trkpt>
      <trkpt lat="41.80561" lon="9.03105">
        <ele>540.8</ele>
        <time>2024-07-30T08:43:29Z</time>
      </trkpt>
      <trkpt lat="41.80569" lon="9.03106">
        <ele>540</ele>
        <time>2024-07-30T08:43:35Z</time>
      </trkpt>
      <trkpt lat="41.80571" lon="9.03106">
        <ele>539.8</ele>
        <time>2024-07-30T08:43:44Z</time>
      </trkpt>
      <trkpt lat="41.8057" lon="9.03105">
        <ele>539.8</ele>
        <time>2024-07-30T08:43:45Z</time>
      </trkpt>
      <trkpt lat="41.80558" lon="9.031">
        <ele>540.6</ele>
        <time>2024-07-30T08:44:01Z</time>
      </trkpt>
      <trkpt lat="41.80557" lon="9.031">
        <ele>540.6</ele>
        <time>2024-07-30T08:44:02Z</time>
      </trkpt>
      <trkpt lat="41.80556" lon="9.03101">
        <ele>542.4</ele>
        <time>2024-07-30T08:44:04Z</time>
      </trkpt>
      <trkpt lat="41.80554" lon="9.03096">
        <ele>542.6</ele>
        <time>2024-07-30T08:44:18Z</time>
      </trkpt>
      <trkpt lat="41.80565" lon="9.03091">
        <ele>542.4</ele>
        <time>2024-07-30T08:44:35Z</time>
      </trkpt>
      <trkpt lat="41.80569" lon="9.03099">
        <ele>542</ele>
        <time>2024-07-30T08:44:49Z</time>
      </trkpt>
      <trkpt lat="41.80563" lon="9.03096">
        <ele>542.2</ele>
        <time>2024-07-30T08:44:55Z</time>
      </trkpt>
      <trkpt lat="41.80562" lon="9.03099">
        <ele>540.6</ele>
        <time>2024-07-30T08:44:57Z</time>
      </trkpt>
      <trkpt lat="41.80562" lon="9.0311">
        <ele>540.8</ele>
        <time>2024-07-30T08:45:02Z</time>
      </trkpt>
      <trkpt lat="41.80575" lon="9.0312">
        <ele>541.4</ele>
        <time>2024-07-30T08:45:15Z</time>
      </trkpt>
      <trkpt lat="41.80579" lon="9.03123">
        <ele>541</ele>
        <time>2024-07-30T08:45:18Z</time>
      </trkpt>
      <trkpt lat="41.80577" lon="9.03122">
        <ele>540.6</ele>
        <time>2024-07-30T08:45:28Z</time>
      </trkpt>
      <trkpt lat="41.80562" lon="9.03107">
        <ele>540</ele>
        <time>2024-07-30T08:45:39Z</time>
      </trkpt>
      <trkpt lat="41.8056" lon="9.03107">
        <ele>539.8</ele>
        <time>2024-07-30T08:45:42Z</time>
      </trkpt>
      <trkpt lat="41.80559" lon="9.03107">
        <ele>539.6</ele>
        <time>2024-07-30T08:45:45Z</time>
      </trkpt>
      <trkpt lat="41.80553" lon="9.03106">
        <ele>539.8</ele>
        <time>2024-07-30T08:45:52Z</time>
      </trkpt>
      <trkpt lat="41.80552" lon="9.03106">
        <ele>539.8</ele>
        <time>2024-07-30T08:45:54Z</time>
      </trkpt>
      <trkpt lat="41.80553" lon="9.03103">
        <ele>539.8</ele>
        <time>2024-07-30T08:46:01Z</time>
      </trkpt>
      <trkpt lat="41.8056" lon="9.03103">
        <ele>540.8</ele>
        <time>2024-07-30T08:46:16Z</time>
      </trkpt>
      <trkpt lat="41.80565" lon="9.0311">
        <ele>540.6</ele>
        <time>2024-07-30T08:46:35Z</time>
      </trkpt>
      <trkpt lat="41.8056" lon="9.03097">
        <ele>540.6</ele>
        <time>2024-07-30T08:46:49Z</time>
      </trkpt>
      <trkpt lat="41.8056" lon="9.03097">
        <ele>540.8</ele>
        <time>2024-07-30T08:46:50Z</time>
      </trkpt>
      <trkpt lat="41.80558" lon="9.03091">
        <ele>541</ele>
        <time>2024-07-30T08:47:12Z</time>
      </trkpt>
      <trkpt lat="41.80554" lon="9.03095">
        <ele>540</ele>
        <time>2024-07-30T08:47:32Z</time>
      </trkpt>
      <trkpt lat="41.80551" lon="9.031">
        <ele>540.4</ele>
        <time>2024-07-30T08:47:48Z</time>
      </trkpt>
      <trkpt lat="41.80547" lon="9.03101">
        <ele>540.2</ele>
        <time>2024-07-30T08:48:06Z</time>
      </trkpt>
      <trkpt lat="41.80547" lon="9.03101">
        <ele>540.6</ele>
        <time>2024-07-30T08:48:19Z</time>
      </trkpt>
      <trkpt lat="41.8054" lon="9.03108">
        <ele>540.8</ele>
        <time>2024-07-30T08:48:47Z</time>
      </trkpt>
      <trkpt lat="41.80541" lon="9.031">
        <ele>541</ele>
        <time>2024-07-30T08:49:06Z</time>
      </trkpt>
      <trkpt lat="41.80541" lon="9.03079">
        <ele>541.8</ele>
        <time>2024-07-30T08:49:17Z</time>
      </trkpt>
      <trkpt lat="41.80547" lon="9.03085">
        <ele>541.8</ele>
        <time>2024-07-30T08:49:20Z</time>
      </trkpt>
      <trkpt lat="41.80555" lon="9.03098">
        <ele>540</ele>
        <time>2024-07-30T08:49:28Z</time>
      </trkpt>
      <trkpt lat="41.80555" lon="9.03099">
        <ele>539.6</ele>
        <time>2024-07-30T08:49:36Z</time>
      </trkpt>
      <trkpt lat="41.80558" lon="9.03094">
        <ele>539.6</ele>
        <time>2024-07-30T08:49:57Z</time>
      </trkpt>
      <trkpt lat="41.80561" lon="9.03093">
        <ele>539.4</ele>
        <time>2024-07-30T08:50:18Z</time>
      </trkpt>
      <trkpt lat="41.80563" lon="9.03093">
        <ele>539.8</ele>
        <time>2024-07-30T08:50:35Z</time>
      </trkpt>
      <trkpt lat="41.80564" lon="9.03113">
        <ele>540.8</ele>
        <time>2024-07-30T08:50:48Z</time>
      </trkpt>
      <trkpt lat="41.80568" lon="9.03121">
        <ele>540.8</ele>
        <time>2024-07-30T08:50:52Z</time>
      </trkpt>
      <trkpt lat="41.8057" lon="9.03121">
        <ele>540.8</ele>
        <time>2024-07-30T08:51:01Z</time>
      </trkpt>
      <trkpt lat="41.80573" lon="9.03119">
        <ele>541</ele>
        <time>2024-07-30T08:51:08Z</time>
      </trkpt>
      <trkpt lat="41.80574" lon="9.03117">
        <ele>541</ele>
        <time>2024-07-30T08:51:13Z</time>
      </trkpt>
      <trkpt lat="41.80574" lon="9.03112">
        <ele>541.2</ele>
        <time>2024-07-30T08:51:19Z</time>
      </trkpt>
      <trkpt lat="41.80574" lon="9.03112">
        <ele>539.6</ele>
        <time>2024-07-30T08:51:52Z</time>
      </trkpt>
      <trkpt lat="41.80551" lon="9.03088">
        <ele>539.8</ele>
        <time>2024-07-30T08:52:41Z</time>
      </trkpt>
      <trkpt lat="41.80561" lon="9.03094">
        <ele>539.8</ele>
        <time>2024-07-30T08:52:59Z</time>
      </trkpt>
      <trkpt lat="41.80549" lon="9.03085">
        <ele>539.8</ele>
        <time>2024-07-30T08:53:13Z</time>
      </trkpt>
      <trkpt lat="41.80557" lon="9.03079">
        <ele>540.6</ele>
        <time>2024-07-30T08:53:25Z</time>
      </trkpt>
      <trkpt lat="41.80558" lon="9.0308">
        <ele>540.6</ele>
        <time>2024-07-30T08:53:26Z</time>
      </trkpt>
      <trkpt lat="41.8056" lon="9.03081">
        <ele>540.8</ele>
        <time>2024-07-30T08:53:28Z</time>
      </trkpt>
      <trkpt lat="41.80562" lon="9.0308">
        <ele>541.4</ele>
        <time>2024-07-30T08:53:34Z</time>
      </trkpt>
      <trkpt lat="41.80566" lon="9.03079">
        <ele>541.8</ele>
        <time>2024-07-30T08:53:37Z</time>
      </trkpt>
      <trkpt lat="41.8057" lon="9.03077">
        <ele>542.8</ele>
        <time>2024-07-30T08:53:45Z</time>
      </trkpt>
      <trkpt lat="41.80571" lon="9.03075">
        <ele>543.2</ele>
        <time>2024-07-30T08:53:52Z</time>
      </trkpt>
      <trkpt lat="41.80573" lon="9.03076">
        <ele>544</ele>
        <time>2024-07-30T08:53:55Z</time>
      </trkpt>
      <trkpt lat="41.80571" lon="9.03077">
        <ele>544.4</ele>
        <time>2024-07-30T08:54:04Z</time>
      </trkpt>
      <trkpt lat="41.80567" lon="9.03075">
        <ele>545</ele>
        <time>2024-07-30T08:54:15Z</time>
      </trkpt>
      <trkpt lat="41.80566" lon="9.03075">
        <ele>545.2</ele>
        <time>2024-07-30T08:54:20Z</time>
      </trkpt>
      <trkpt lat="41.80566" lon="9.03072">
        <ele>545.6</ele>
        <time>2024-07-30T08:54:36Z</time>
      </trkpt>
      <trkpt lat="41.80563" lon="9.03062">
        <ele>544.4</ele>
        <time>2024-07-30T08:54:51Z</time>
      </trkpt>
      <trkpt lat="41.80563" lon="9.03058">
        <ele>544.6</ele>
        <time>2024-07-30T08:54:56Z</time>
      </trkpt>
      <trkpt lat="41.80563" lon="9.03057">
        <ele>544.8</ele>
        <time>2024-07-30T08:54:58Z</time>
      </trkpt>
      <trkpt lat="41.80562" lon="9.03055">
        <ele>545</ele>
        <time>2024-07-30T08:55:00Z</time>
      </trkpt>
      <trkpt lat="41.80562" lon="9.03054">
        <ele>545</ele>
        <time>2024-07-30T08:55:02Z</time>
      </trkpt>
      <trkpt lat="41.80562" lon="9.03051">
        <ele>545.6</ele>
        <time>2024-07-30T08:55:06Z</time>
      </trkpt>
      <trkpt lat="41.80561" lon="9.03049">
        <ele>546</ele>
        <time>2024-07-30T08:55:14Z</time>
      </trkpt>
      <trkpt lat="41.8056" lon="9.03045">
        <ele>545.8</ele>
        <time>2024-07-30T08:55:20Z</time>
      </trkpt>
      <trkpt lat="41.80562" lon="9.0304">
        <ele>546.4</ele>
        <time>2024-07-30T08:55:36Z</time>
      </trkpt>
      <trkpt lat="41.80565" lon="9.03036">
        <ele>546.2</ele>
        <time>2024-07-30T08:55:53Z</time>
      </trkpt>
      <trkpt lat="41.80566" lon="9.03029">
        <ele>545.8</ele>
        <time>2024-07-30T08:56:03Z</time>
      </trkpt>
      <trkpt lat="41.80566" lon="9.03025">
        <ele>545</ele>
        <time>2024-07-30T08:56:10Z</time>
      </trkpt>
      <trkpt lat="41.80569" lon="9.03023">
        <ele>544.8</ele>
        <time>2024-07-30T08:56:17Z</time>
      </trkpt>
      <trkpt lat="41.80567" lon="9.03015">
        <ele>544</ele>
        <time>2024-07-30T08:56:27Z</time>
      </trkpt>
      <trkpt lat="41.80567" lon="9.03015">
        <ele>544</ele>
        <time>2024-07-30T08:56:28Z</time>
      </trkpt>
      <trkpt lat="41.80567" lon="9.03015">
        <ele>543.8</ele>
        <time>2024-07-30T08:56:29Z</time>
      </trkpt>
      <trkpt lat="41.80565" lon="9.03013">
        <ele>543.4</ele>
        <time>2024-07-30T08:56:33Z</time>
      </trkpt>
      <trkpt lat="41.80565" lon="9.03013">
        <ele>542.8</ele>
        <time>2024-07-30T08:56:36Z</time>
      </trkpt>
      <trkpt lat="41.80565" lon="9.03014">
        <ele>542.2</ele>
        <time>2024-07-30T08:56:40Z</time>
      </trkpt>
      <trkpt lat="41.80567" lon="9.03017">
        <ele>541.6</ele>
        <time>2024-07-30T08:56:48Z</time>
      </trkpt>
      <trkpt lat="41.8057" lon="9.03017">
        <ele>540.6</ele>
        <time>2024-07-30T08:56:53Z</time>
      </trkpt>
      <trkpt lat="41.80571" lon="9.03016">
        <ele>540.4</ele>
        <time>2024-07-30T08:56:55Z</time>
      </trkpt>
      <trkpt lat="41.80575" lon="9.03016">
        <ele>539.6</ele>
        <time>2024-07-30T08:57:01Z</time>
      </trkpt>
      <trkpt lat="41.8058" lon="9.03014">
        <ele>538.6</ele>
        <time>2024-07-30T08:57:08Z</time>
      </trkpt>
      <trkpt lat="41.80581" lon="9.03013">
        <ele>538.4</ele>
        <time>2024-07-30T08:57:09Z</time>
      </trkpt>
      <trkpt lat="41.80582" lon="9.03011">
        <ele>538.2</ele>
        <time>2024-07-30T08:57:11Z</time>
      </trkpt>
      <trkpt lat="41.80585" lon="9.03002">
        <ele>537.8</ele>
        <time>2024-07-30T08:57:18Z</time>
      </trkpt>
      <trkpt lat="41.80586" lon="9.02996">
        <ele>537.8</ele>
        <time>2024-07-30T08:57:22Z</time>
      </trkpt>
      <trkpt lat="41.80587" lon="9.02991">
        <ele>537.8</ele>
        <time>2024-07-30T08:57:25Z</time>
      </trkpt>
      <trkpt lat="41.80587" lon="9.02977">
        <ele>538</ele>
        <time>2024-07-30T08:57:35Z</time>
      </trkpt>
      <trkpt lat="41.80585" lon="9.02969">
        <ele>537.8</ele>
        <time>2024-07-30T08:57:40Z</time>
      </trkpt>
      <trkpt lat="41.80585" lon="9.02956">
        <ele>537.8</ele>
        <time>2024-07-30T08:57:48Z</time>
      </trkpt>
      <trkpt lat="41.80587" lon="9.02949">
        <ele>537.6</ele>
        <time>2024-07-30T08:57:53Z</time>
      </trkpt>
      <trkpt lat="41.80591" lon="9.02938">
        <ele>537.2</ele>
        <time>2024-07-30T08:58:02Z</time>
      </trkpt>
      <trkpt lat="41.80594" lon="9.0292">
        <ele>537.2</ele>
        <time>2024-07-30T08:58:17Z</time>
      </trkpt>
      <trkpt lat="41.80596" lon="9.02916">
        <ele>535.6</ele>
        <time>2024-07-30T08:58:21Z</time>
      </trkpt>
      <trkpt lat="41.80599" lon="9.02912">
        <ele>535.4</ele>
        <time>2024-07-30T08:58:26Z</time>
      </trkpt>
      <trkpt lat="41.80601" lon="9.02912">
        <ele>535.2</ele>
        <time>2024-07-30T08:58:28Z</time>
      </trkpt>
      <trkpt lat="41.80602" lon="9.02909">
        <ele>534.8</ele>
        <time>2024-07-30T08:58:33Z</time>
      </trkpt>
      <trkpt lat="41.80603" lon="9.02908">
        <ele>534.6</ele>
        <time>2024-07-30T08:58:37Z</time>
      </trkpt>
      <trkpt lat="41.80603" lon="9.02908">
        <ele>534.6</ele>
        <time>2024-07-30T08:58:38Z</time>
      </trkpt>
      <trkpt lat="41.80602" lon="9.02907">
        <ele>534.6</ele>
        <time>2024-07-30T08:58:40Z</time>
      </trkpt>
      <trkpt lat="41.80605" lon="9.02908">
        <ele>535.6</ele>
        <time>2024-07-30T08:58:54Z</time>
      </trkpt>
      <trkpt lat="41.80604" lon="9.02908">
        <ele>534.2</ele>
        <time>2024-07-30T08:59:09Z</time>
      </trkpt>
      <trkpt lat="41.80603" lon="9.02908">
        <ele>534.4</ele>
        <time>2024-07-30T08:59:25Z</time>
      </trkpt>
      <trkpt lat="41.806" lon="9.02906">
        <ele>535.4</ele>
        <time>2024-07-30T08:59:34Z</time>
      </trkpt>
      <trkpt lat="41.806" lon="9.02904">
        <ele>535.6</ele>
        <time>2024-07-30T08:59:37Z</time>
      </trkpt>
      <trkpt lat="41.806" lon="9.02904">
        <ele>536.6</ele>
        <time>2024-07-30T08:59:45Z</time>
      </trkpt>
      <trkpt lat="41.80601" lon="9.02904">
        <ele>536.8</ele>
        <time>2024-07-30T08:59:46Z</time>
      </trkpt>
      <trkpt lat="41.80601" lon="9.02904">
        <ele>536.6</ele>
        <time>2024-07-30T09:00:02Z</time>
      </trkpt>
      <trkpt lat="41.80604" lon="9.02898">
        <ele>535.6</ele>
        <time>2024-07-30T09:00:11Z</time>
      </trkpt>
      <trkpt lat="41.80604" lon="9.02895">
        <ele>535</ele>
        <time>2024-07-30T09:00:13Z</time>
      </trkpt>
      <trkpt lat="41.80606" lon="9.02892">
        <ele>534.4</ele>
        <time>2024-07-30T09:00:16Z</time>
      </trkpt>
      <trkpt lat="41.80606" lon="9.02882">
        <ele>533.6</ele>
        <time>2024-07-30T09:00:25Z</time>
      </trkpt>
      <trkpt lat="41.80608" lon="9.02878">
        <ele>533.4</ele>
        <time>2024-07-30T09:00:30Z</time>
      </trkpt>
      <trkpt lat="41.8061" lon="9.02867">
        <ele>532.6</ele>
        <time>2024-07-30T09:00:38Z</time>
      </trkpt>
      <trkpt lat="41.80611" lon="9.0286">
        <ele>533.2</ele>
        <time>2024-07-30T09:00:46Z</time>
      </trkpt>
      <trkpt lat="41.80612" lon="9.02858">
        <ele>532.8</ele>
        <time>2024-07-30T09:00:50Z</time>
      </trkpt>
      <trkpt lat="41.80612" lon="9.02857">
        <ele>532.6</ele>
        <time>2024-07-30T09:00:51Z</time>
      </trkpt>
      <trkpt lat="41.80611" lon="9.02855">
        <ele>532.2</ele>
        <time>2024-07-30T09:00:53Z</time>
      </trkpt>
      <trkpt lat="41.80608" lon="9.02844">
        <ele>531.2</ele>
        <time>2024-07-30T09:01:05Z</time>
      </trkpt>
      <trkpt lat="41.80607" lon="9.02841">
        <ele>531.2</ele>
        <time>2024-07-30T09:01:08Z</time>
      </trkpt>
      <trkpt lat="41.80606" lon="9.02838">
        <ele>531</ele>
        <time>2024-07-30T09:01:11Z</time>
      </trkpt>
      <trkpt lat="41.80602" lon="9.02829">
        <ele>531.4</ele>
        <time>2024-07-30T09:01:21Z</time>
      </trkpt>
      <trkpt lat="41.80603" lon="9.02825">
        <ele>530.2</ele>
        <time>2024-07-30T09:01:32Z</time>
      </trkpt>
      <trkpt lat="41.80604" lon="9.02821">
        <ele>529.6</ele>
        <time>2024-07-30T09:01:35Z</time>
      </trkpt>
      <trkpt lat="41.80604" lon="9.02819">
        <ele>529</ele>
        <time>2024-07-30T09:01:37Z</time>
      </trkpt>
      <trkpt lat="41.80604" lon="9.02815">
        <ele>528.6</ele>
        <time>2024-07-30T09:01:40Z</time>
      </trkpt>
      <trkpt lat="41.80605" lon="9.02811">
        <ele>528</ele>
        <time>2024-07-30T09:01:45Z</time>
      </trkpt>
      <trkpt lat="41.80605" lon="9.0281">
        <ele>528</ele>
        <time>2024-07-30T09:01:46Z</time>
      </trkpt>
      <trkpt lat="41.80606" lon="9.02804">
        <ele>527</ele>
        <time>2024-07-30T09:01:52Z</time>
      </trkpt>
      <trkpt lat="41.80606" lon="9.02802">
        <ele>526.8</ele>
        <time>2024-07-30T09:01:53Z</time>
      </trkpt>
      <trkpt lat="41.80605" lon="9.02801">
        <ele>526.6</ele>
        <time>2024-07-30T09:01:55Z</time>
      </trkpt>
      <trkpt lat="41.80606" lon="9.02798">
        <ele>526.4</ele>
        <time>2024-07-30T09:01:57Z</time>
      </trkpt>
      <trkpt lat="41.80606" lon="9.02797">
        <ele>525.8</ele>
        <time>2024-07-30T09:01:58Z</time>
      </trkpt>
      <trkpt lat="41.80606" lon="9.02795">
        <ele>525</ele>
        <time>2024-07-30T09:02:00Z</time>
      </trkpt>
      <trkpt lat="41.80606" lon="9.02795">
        <ele>524.8</ele>
        <time>2024-07-30T09:02:01Z</time>
      </trkpt>
      <trkpt lat="41.80605" lon="9.02788">
        <ele>523.8</ele>
        <time>2024-07-30T09:02:07Z</time>
      </trkpt>
      <trkpt lat="41.80604" lon="9.02788">
        <ele>523.6</ele>
        <time>2024-07-30T09:02:08Z</time>
      </trkpt>
      <trkpt lat="41.80604" lon="9.02787">
        <ele>523.4</ele>
        <time>2024-07-30T09:02:09Z</time>
      </trkpt>
      <trkpt lat="41.80605" lon="9.02785">
        <ele>523</ele>
        <time>2024-07-30T09:02:11Z</time>
      </trkpt>
      <trkpt lat="41.80605" lon="9.02785">
        <ele>522.6</ele>
        <time>2024-07-30T09:02:12Z</time>
      </trkpt>
      <trkpt lat="41.80605" lon="9.02778">
        <ele>521.6</ele>
        <time>2024-07-30T09:02:18Z</time>
      </trkpt>
      <trkpt lat="41.80605" lon="9.02775">
        <ele>521.2</ele>
        <time>2024-07-30T09:02:20Z</time>
      </trkpt>
      <trkpt lat="41.80605" lon="9.02772">
        <ele>521</ele>
        <time>2024-07-30T09:02:22Z</time>
      </trkpt>
      <trkpt lat="41.80605" lon="9.02769">
        <ele>520.8</ele>
        <time>2024-07-30T09:02:25Z</time>
      </trkpt>
      <trkpt lat="41.80605" lon="9.02768">
        <ele>520.8</ele>
        <time>2024-07-30T09:02:26Z</time>
      </trkpt>
      <trkpt lat="41.80605" lon="9.02767">
        <ele>520.8</ele>
        <time>2024-07-30T09:02:27Z</time>
      </trkpt>
      <trkpt lat="41.80606" lon="9.02765">
        <ele>520.8</ele>
        <time>2024-07-30T09:02:29Z</time>
      </trkpt>
      <trkpt lat="41.80606" lon="9.02763">
        <ele>520.4</ele>
        <time>2024-07-30T09:02:31Z</time>
      </trkpt>
      <trkpt lat="41.80607" lon="9.02762">
        <ele>520.4</ele>
        <time>2024-07-30T09:02:32Z</time>
      </trkpt>
      <trkpt lat="41.8061" lon="9.02757">
        <ele>519.2</ele>
        <time>2024-07-30T09:02:36Z</time>
      </trkpt>
      <trkpt lat="41.8061" lon="9.02753">
        <ele>518.8</ele>
        <time>2024-07-30T09:02:39Z</time>
      </trkpt>
      <trkpt lat="41.8061" lon="9.02749">
        <ele>518.6</ele>
        <time>2024-07-30T09:02:41Z</time>
      </trkpt>
      <trkpt lat="41.80611" lon="9.02743">
        <ele>518.2</ele>
        <time>2024-07-30T09:02:45Z</time>
      </trkpt>
      <trkpt lat="41.80611" lon="9.02742">
        <ele>518.2</ele>
        <time>2024-07-30T09:02:46Z</time>
      </trkpt>
      <trkpt lat="41.80613" lon="9.02737">
        <ele>517.8</ele>
        <time>2024-07-30T09:02:52Z</time>
      </trkpt>
      <trkpt lat="41.80612" lon="9.02736">
        <ele>517.6</ele>
        <time>2024-07-30T09:02:54Z</time>
      </trkpt>
      <trkpt lat="41.80613" lon="9.02735">
        <ele>517</ele>
        <time>2024-07-30T09:02:57Z</time>
      </trkpt>
      <trkpt lat="41.80613" lon="9.02734">
        <ele>517</ele>
        <time>2024-07-30T09:02:58Z</time>
      </trkpt>
      <trkpt lat="41.80611" lon="9.0273">
        <ele>516</ele>
        <time>2024-07-30T09:03:02Z</time>
      </trkpt>
      <trkpt lat="41.8061" lon="9.0273">
        <ele>515.8</ele>
        <time>2024-07-30T09:03:03Z</time>
      </trkpt>
      <trkpt lat="41.80606" lon="9.02726">
        <ele>515.2</ele>
        <time>2024-07-30T09:03:09Z</time>
      </trkpt>
      <trkpt lat="41.80604" lon="9.02725">
        <ele>515.2</ele>
        <time>2024-07-30T09:03:12Z</time>
      </trkpt>
      <trkpt lat="41.80602" lon="9.02722">
        <ele>514.8</ele>
        <time>2024-07-30T09:03:17Z</time>
      </trkpt>
      <trkpt lat="41.806" lon="9.02721">
        <ele>514.2</ele>
        <time>2024-07-30T09:03:20Z</time>
      </trkpt>
      <trkpt lat="41.80599" lon="9.0272">
        <ele>513.8</ele>
        <time>2024-07-30T09:03:22Z</time>
      </trkpt>
      <trkpt lat="41.80596" lon="9.02719">
        <ele>513.4</ele>
        <time>2024-07-30T09:03:25Z</time>
      </trkpt>
      <trkpt lat="41.80593" lon="9.02718">
        <ele>513</ele>
        <time>2024-07-30T09:03:28Z</time>
      </trkpt>
      <trkpt lat="41.80593" lon="9.02717">
        <ele>513</ele>
        <time>2024-07-30T09:03:29Z</time>
      </trkpt>
      <trkpt lat="41.80591" lon="9.02715">
        <ele>513.2</ele>
        <time>2024-07-30T09:03:32Z</time>
      </trkpt>
      <trkpt lat="41.80588" lon="9.02713">
        <ele>513.2</ele>
        <time>2024-07-30T09:03:36Z</time>
      </trkpt>
      <trkpt lat="41.80584" lon="9.02706">
        <ele>514.2</ele>
        <time>2024-07-30T09:03:42Z</time>
      </trkpt>
      <trkpt lat="41.80584" lon="9.02704">
        <ele>514.4</ele>
        <time>2024-07-30T09:03:45Z</time>
      </trkpt>
      <trkpt lat="41.80584" lon="9.02702">
        <ele>514.6</ele>
        <time>2024-07-30T09:03:47Z</time>
      </trkpt>
      <trkpt lat="41.80584" lon="9.027">
        <ele>514.6</ele>
        <time>2024-07-30T09:03:48Z</time>
      </trkpt>
      <trkpt lat="41.80575" lon="9.02691">
        <ele>514.4</ele>
        <time>2024-07-30T09:03:58Z</time>
      </trkpt>
      <trkpt lat="41.80575" lon="9.02685">
        <ele>514.2</ele>
        <time>2024-07-30T09:04:03Z</time>
      </trkpt>
      <trkpt lat="41.80575" lon="9.02684">
        <ele>514.2</ele>
        <time>2024-07-30T09:04:04Z</time>
      </trkpt>
      <trkpt lat="41.80576" lon="9.02677">
        <ele>513.6</ele>
        <time>2024-07-30T09:04:11Z</time>
      </trkpt>
      <trkpt lat="41.80578" lon="9.02676">
        <ele>513</ele>
        <time>2024-07-30T09:04:13Z</time>
      </trkpt>
      <trkpt lat="41.80578" lon="9.02673">
        <ele>512.6</ele>
        <time>2024-07-30T09:04:15Z</time>
      </trkpt>
      <trkpt lat="41.80578" lon="9.02671">
        <ele>512.4</ele>
        <time>2024-07-30T09:04:16Z</time>
      </trkpt>
      <trkpt lat="41.80578" lon="9.02669">
        <ele>512.2</ele>
        <time>2024-07-30T09:04:18Z</time>
      </trkpt>
      <trkpt lat="41.8058" lon="9.02666">
        <ele>512</ele>
        <time>2024-07-30T09:04:20Z</time>
      </trkpt>
      <trkpt lat="41.8058" lon="9.02662">
        <ele>511.8</ele>
        <time>2024-07-30T09:04:23Z</time>
      </trkpt>
      <trkpt lat="41.8058" lon="9.02661">
        <ele>511.6</ele>
        <time>2024-07-30T09:04:25Z</time>
      </trkpt>
      <trkpt lat="41.80582" lon="9.0266">
        <ele>511.6</ele>
        <time>2024-07-30T09:04:26Z</time>
      </trkpt>
      <trkpt lat="41.80582" lon="9.02659">
        <ele>511.4</ele>
        <time>2024-07-30T09:04:27Z</time>
      </trkpt>
      <trkpt lat="41.80584" lon="9.02658">
        <ele>511</ele>
        <time>2024-07-30T09:04:30Z</time>
      </trkpt>
      <trkpt lat="41.80585" lon="9.02654">
        <ele>510.4</ele>
        <time>2024-07-30T09:04:34Z</time>
      </trkpt>
      <trkpt lat="41.80586" lon="9.02652">
        <ele>510.2</ele>
        <time>2024-07-30T09:04:36Z</time>
      </trkpt>
      <trkpt lat="41.80587" lon="9.02651">
        <ele>510.2</ele>
        <time>2024-07-30T09:04:37Z</time>
      </trkpt>
      <trkpt lat="41.80589" lon="9.02648">
        <ele>510</ele>
        <time>2024-07-30T09:04:40Z</time>
      </trkpt>
      <trkpt lat="41.80591" lon="9.02638">
        <ele>510</ele>
        <time>2024-07-30T09:04:45Z</time>
      </trkpt>
      <trkpt lat="41.80592" lon="9.02633">
        <ele>509.8</ele>
        <time>2024-07-30T09:04:48Z</time>
      </trkpt>
      <trkpt lat="41.80593" lon="9.02629">
        <ele>509.8</ele>
        <time>2024-07-30T09:04:51Z</time>
      </trkpt>
      <trkpt lat="41.80597" lon="9.02621">
        <ele>509.6</ele>
        <time>2024-07-30T09:04:59Z</time>
      </trkpt>
      <trkpt lat="41.80597" lon="9.02618">
        <ele>509.4</ele>
        <time>2024-07-30T09:05:01Z</time>
      </trkpt>
      <trkpt lat="41.80599" lon="9.02615">
        <ele>508.2</ele>
        <time>2024-07-30T09:05:06Z</time>
      </trkpt>
      <trkpt lat="41.80599" lon="9.02613">
        <ele>507.8</ele>
        <time>2024-07-30T09:05:08Z</time>
      </trkpt>
      <trkpt lat="41.80599" lon="9.02606">
        <ele>507</ele>
        <time>2024-07-30T09:05:12Z</time>
      </trkpt>
      <trkpt lat="41.80599" lon="9.02603">
        <ele>506.8</ele>
        <time>2024-07-30T09:05:14Z</time>
      </trkpt>
      <trkpt lat="41.806" lon="9.02601">
        <ele>506.4</ele>
        <time>2024-07-30T09:05:16Z</time>
      </trkpt>
      <trkpt lat="41.806" lon="9.02597">
        <ele>506</ele>
        <time>2024-07-30T09:05:19Z</time>
      </trkpt>
      <trkpt lat="41.806" lon="9.02595">
        <ele>505.6</ele>
        <time>2024-07-30T09:05:21Z</time>
      </trkpt>
      <trkpt lat="41.806" lon="9.02594">
        <ele>505.4</ele>
        <time>2024-07-30T09:05:22Z</time>
      </trkpt>
      <trkpt lat="41.806" lon="9.02593">
        <ele>505.2</ele>
        <time>2024-07-30T09:05:23Z</time>
      </trkpt>
      <trkpt lat="41.806" lon="9.02592">
        <ele>505</ele>
        <time>2024-07-30T09:05:25Z</time>
      </trkpt>
      <trkpt lat="41.80599" lon="9.02591">
        <ele>504.8</ele>
        <time>2024-07-30T09:05:26Z</time>
      </trkpt>
      <trkpt lat="41.80597" lon="9.02589">
        <ele>504.6</ele>
        <time>2024-07-30T09:05:30Z</time>
      </trkpt>
      <trkpt lat="41.80597" lon="9.02588">
        <ele>504.4</ele>
        <time>2024-07-30T09:05:31Z</time>
      </trkpt>
      <trkpt lat="41.80597" lon="9.02588">
        <ele>503.8</ele>
        <time>2024-07-30T09:05:32Z</time>
      </trkpt>
      <trkpt lat="41.80595" lon="9.02587">
        <ele>503.6</ele>
        <time>2024-07-30T09:05:35Z</time>
      </trkpt>
      <trkpt lat="41.80595" lon="9.02585">
        <ele>502.6</ele>
        <time>2024-07-30T09:05:39Z</time>
      </trkpt>
      <trkpt lat="41.80594" lon="9.02582">
        <ele>501.4</ele>
        <time>2024-07-30T09:05:46Z</time>
      </trkpt>
      <trkpt lat="41.80593" lon="9.02579">
        <ele>501.4</ele>
        <time>2024-07-30T09:05:50Z</time>
      </trkpt>
      <trkpt lat="41.80592" lon="9.02578">
        <ele>500.4</ele>
        <time>2024-07-30T09:05:53Z</time>
      </trkpt>
      <trkpt lat="41.80592" lon="9.02577">
        <ele>500.2</ele>
        <time>2024-07-30T09:05:55Z</time>
      </trkpt>
      <trkpt lat="41.8059" lon="9.02576">
        <ele>499.8</ele>
        <time>2024-07-30T09:05:58Z</time>
      </trkpt>
      <trkpt lat="41.80586" lon="9.02573">
        <ele>499.6</ele>
        <time>2024-07-30T09:06:03Z</time>
      </trkpt>
      <trkpt lat="41.8058" lon="9.02569">
        <ele>499.6</ele>
        <time>2024-07-30T09:06:08Z</time>
      </trkpt>
      <trkpt lat="41.80576" lon="9.02564">
        <ele>499.8</ele>
        <time>2024-07-30T09:06:12Z</time>
      </trkpt>
      <trkpt lat="41.80576" lon="9.02563">
        <ele>499.8</ele>
        <time>2024-07-30T09:06:13Z</time>
      </trkpt>
      <trkpt lat="41.80575" lon="9.02562">
        <ele>500</ele>
        <time>2024-07-30T09:06:14Z</time>
      </trkpt>
      <trkpt lat="41.80573" lon="9.0256">
        <ele>500</ele>
        <time>2024-07-30T09:06:16Z</time>
      </trkpt>
      <trkpt lat="41.80573" lon="9.02558">
        <ele>499.8</ele>
        <time>2024-07-30T09:06:19Z</time>
      </trkpt>
      <trkpt lat="41.80571" lon="9.02551">
        <ele>499.6</ele>
        <time>2024-07-30T09:06:28Z</time>
      </trkpt>
      <trkpt lat="41.80571" lon="9.0255">
        <ele>499.4</ele>
        <time>2024-07-30T09:06:30Z</time>
      </trkpt>
      <trkpt lat="41.8057" lon="9.02544">
        <ele>498.2</ele>
        <time>2024-07-30T09:06:39Z</time>
      </trkpt>
      <trkpt lat="41.80573" lon="9.02536">
        <ele>497.2</ele>
        <time>2024-07-30T09:06:44Z</time>
      </trkpt>
      <trkpt lat="41.80573" lon="9.02534">
        <ele>497.2</ele>
        <time>2024-07-30T09:06:45Z</time>
      </trkpt>
      <trkpt lat="41.80574" lon="9.02533">
        <ele>497</ele>
        <time>2024-07-30T09:06:46Z</time>
      </trkpt>
      <trkpt lat="41.80575" lon="9.02529">
        <ele>496.8</ele>
        <time>2024-07-30T09:06:48Z</time>
      </trkpt>
      <trkpt lat="41.80576" lon="9.02523">
        <ele>496.6</ele>
        <time>2024-07-30T09:06:53Z</time>
      </trkpt>
      <trkpt lat="41.80575" lon="9.02513">
        <ele>497</ele>
        <time>2024-07-30T09:06:58Z</time>
      </trkpt>
      <trkpt lat="41.80575" lon="9.02509">
        <ele>497</ele>
        <time>2024-07-30T09:07:01Z</time>
      </trkpt>
      <trkpt lat="41.80577" lon="9.02501">
        <ele>496.2</ele>
        <time>2024-07-30T09:07:07Z</time>
      </trkpt>
      <trkpt lat="41.80579" lon="9.02496">
        <ele>495.8</ele>
        <time>2024-07-30T09:07:11Z</time>
      </trkpt>
      <trkpt lat="41.80581" lon="9.02489">
        <ele>495.2</ele>
        <time>2024-07-30T09:07:17Z</time>
      </trkpt>
      <trkpt lat="41.80582" lon="9.02489">
        <ele>495</ele>
        <time>2024-07-30T09:07:18Z</time>
      </trkpt>
      <trkpt lat="41.80582" lon="9.02485">
        <ele>494.2</ele>
        <time>2024-07-30T09:07:23Z</time>
      </trkpt>
      <trkpt lat="41.80582" lon="9.02484">
        <ele>494</ele>
        <time>2024-07-30T09:07:24Z</time>
      </trkpt>
      <trkpt lat="41.80582" lon="9.02483">
        <ele>494</ele>
        <time>2024-07-30T09:07:25Z</time>
      </trkpt>
      <trkpt lat="41.80581" lon="9.02476">
        <ele>493.2</ele>
        <time>2024-07-30T09:07:31Z</time>
      </trkpt>
      <trkpt lat="41.8058" lon="9.02475">
        <ele>492.8</ele>
        <time>2024-07-30T09:07:32Z</time>
      </trkpt>
      <trkpt lat="41.8058" lon="9.02473">
        <ele>492.6</ele>
        <time>2024-07-30T09:07:34Z</time>
      </trkpt>
      <trkpt lat="41.80578" lon="9.02469">
        <ele>491.8</ele>
        <time>2024-07-30T09:07:40Z</time>
      </trkpt>
      <trkpt lat="41.80576" lon="9.02465">
        <ele>490.8</ele>
        <time>2024-07-30T09:07:46Z</time>
      </trkpt>
      <trkpt lat="41.80573" lon="9.02463">
        <ele>490.4</ele>
        <time>2024-07-30T09:07:50Z</time>
      </trkpt>
      <trkpt lat="41.80571" lon="9.02463">
        <ele>489.6</ele>
        <time>2024-07-30T09:07:55Z</time>
      </trkpt>
      <trkpt lat="41.8057" lon="9.02459">
        <ele>488.6</ele>
        <time>2024-07-30T09:08:01Z</time>
      </trkpt>
      <trkpt lat="41.8057" lon="9.02457">
        <ele>488.2</ele>
        <time>2024-07-30T09:08:04Z</time>
      </trkpt>
      <trkpt lat="41.80571" lon="9.02454">
        <ele>487.6</ele>
        <time>2024-07-30T09:08:08Z</time>
      </trkpt>
      <trkpt lat="41.80575" lon="9.02452">
        <ele>486.4</ele>
        <time>2024-07-30T09:08:14Z</time>
      </trkpt>
      <trkpt lat="41.80576" lon="9.02451">
        <ele>486.2</ele>
        <time>2024-07-30T09:08:16Z</time>
      </trkpt>
      <trkpt lat="41.80576" lon="9.02447">
        <ele>485.4</ele>
        <time>2024-07-30T09:08:22Z</time>
      </trkpt>
      <trkpt lat="41.80574" lon="9.02443">
        <ele>484.2</ele>
        <time>2024-07-30T09:08:27Z</time>
      </trkpt>
      <trkpt lat="41.8057" lon="9.02438">
        <ele>483.2</ele>
        <time>2024-07-30T09:08:32Z</time>
      </trkpt>
      <trkpt lat="41.80568" lon="9.02434">
        <ele>482.2</ele>
        <time>2024-07-30T09:08:40Z</time>
      </trkpt>
      <trkpt lat="41.80566" lon="9.02434">
        <ele>481.2</ele>
        <time>2024-07-30T09:08:45Z</time>
      </trkpt>
      <trkpt lat="41.80565" lon="9.02433">
        <ele>481</ele>
        <time>2024-07-30T09:08:50Z</time>
      </trkpt>
      <trkpt lat="41.80564" lon="9.02433">
        <ele>480.4</ele>
        <time>2024-07-30T09:09:06Z</time>
      </trkpt>
      <trkpt lat="41.80564" lon="9.02433">
        <ele>480</ele>
        <time>2024-07-30T09:09:09Z</time>
      </trkpt>
      <trkpt lat="41.80564" lon="9.02432">
        <ele>479.6</ele>
        <time>2024-07-30T09:09:11Z</time>
      </trkpt>
      <trkpt lat="41.80564" lon="9.02432">
        <ele>479.2</ele>
        <time>2024-07-30T09:09:13Z</time>
      </trkpt>
      <trkpt lat="41.80563" lon="9.02431">
        <ele>478.8</ele>
        <time>2024-07-30T09:09:15Z</time>
      </trkpt>
      <trkpt lat="41.80562" lon="9.02428">
        <ele>478.2</ele>
        <time>2024-07-30T09:09:20Z</time>
      </trkpt>
      <trkpt lat="41.80562" lon="9.02427">
        <ele>477.6</ele>
        <time>2024-07-30T09:09:23Z</time>
      </trkpt>
      <trkpt lat="41.80561" lon="9.02426">
        <ele>477.4</ele>
        <time>2024-07-30T09:09:24Z</time>
      </trkpt>
      <trkpt lat="41.80561" lon="9.02422">
        <ele>476.6</ele>
        <time>2024-07-30T09:09:29Z</time>
      </trkpt>
      <trkpt lat="41.80561" lon="9.02416">
        <ele>475.6</ele>
        <time>2024-07-30T09:09:35Z</time>
      </trkpt>
      <trkpt lat="41.80556" lon="9.0241">
        <ele>475.2</ele>
        <time>2024-07-30T09:09:42Z</time>
      </trkpt>
      <trkpt lat="41.80554" lon="9.02407">
        <ele>474.4</ele>
        <time>2024-07-30T09:09:47Z</time>
      </trkpt>
      <trkpt lat="41.8055" lon="9.02406">
        <ele>473.4</ele>
        <time>2024-07-30T09:09:52Z</time>
      </trkpt>
      <trkpt lat="41.80549" lon="9.02405">
        <ele>473.4</ele>
        <time>2024-07-30T09:09:53Z</time>
      </trkpt>
      <trkpt lat="41.80549" lon="9.02405">
        <ele>473</ele>
        <time>2024-07-30T09:09:59Z</time>
      </trkpt>
      <trkpt lat="41.80552" lon="9.02403">
        <ele>473.6</ele>
        <time>2024-07-30T09:10:03Z</time>
      </trkpt>
      <trkpt lat="41.80554" lon="9.02404">
        <ele>474.2</ele>
        <time>2024-07-30T09:10:05Z</time>
      </trkpt>
      <trkpt lat="41.80554" lon="9.02404">
        <ele>474.4</ele>
        <time>2024-07-30T09:10:07Z</time>
      </trkpt>
      <trkpt lat="41.80557" lon="9.02405">
        <ele>475.4</ele>
        <time>2024-07-30T09:10:12Z</time>
      </trkpt>
      <trkpt lat="41.80559" lon="9.02408">
        <ele>476.6</ele>
        <time>2024-07-30T09:10:18Z</time>
      </trkpt>
      <trkpt lat="41.8056" lon="9.0241">
        <ele>476.8</ele>
        <time>2024-07-30T09:10:20Z</time>
      </trkpt>
      <trkpt lat="41.80561" lon="9.02412">
        <ele>477.6</ele>
        <time>2024-07-30T09:10:23Z</time>
      </trkpt>
      <trkpt lat="41.80561" lon="9.02412">
        <ele>477.8</ele>
        <time>2024-07-30T09:10:24Z</time>
      </trkpt>
      <trkpt lat="41.80561" lon="9.02415">
        <ele>478.4</ele>
        <time>2024-07-30T09:10:27Z</time>
      </trkpt>
      <trkpt lat="41.80561" lon="9.02417">
        <ele>478.8</ele>
        <time>2024-07-30T09:10:29Z</time>
      </trkpt>
      <trkpt lat="41.80561" lon="9.02418">
        <ele>479</ele>
        <time>2024-07-30T09:10:30Z</time>
      </trkpt>
      <trkpt lat="41.80561" lon="9.02422">
        <ele>479.8</ele>
        <time>2024-07-30T09:10:35Z</time>
      </trkpt>
      <trkpt lat="41.8056" lon="9.02422">
        <ele>480</ele>
        <time>2024-07-30T09:10:36Z</time>
      </trkpt>
      <trkpt lat="41.80559" lon="9.02423">
        <ele>480.2</ele>
        <time>2024-07-30T09:10:38Z</time>
      </trkpt>
      <trkpt lat="41.80553" lon="9.02428">
        <ele>479.6</ele>
        <time>2024-07-30T09:10:45Z</time>
      </trkpt>
      <trkpt lat="41.80543" lon="9.02435">
        <ele>479.2</ele>
        <time>2024-07-30T09:10:56Z</time>
      </trkpt>
      <trkpt lat="41.8054" lon="9.02436">
        <ele>479</ele>
        <time>2024-07-30T09:11:00Z</time>
      </trkpt>
      <trkpt lat="41.80538" lon="9.02436">
        <ele>478.8</ele>
        <time>2024-07-30T09:11:03Z</time>
      </trkpt>
      <trkpt lat="41.80537" lon="9.02437">
        <ele>478.8</ele>
        <time>2024-07-30T09:11:04Z</time>
      </trkpt>
      <trkpt lat="41.80535" lon="9.02437">
        <ele>479</ele>
        <time>2024-07-30T09:11:06Z</time>
      </trkpt>
      <trkpt lat="41.80531" lon="9.02436">
        <ele>479.4</ele>
        <time>2024-07-30T09:11:10Z</time>
      </trkpt>
      <trkpt lat="41.80528" lon="9.02435">
        <ele>479.4</ele>
        <time>2024-07-30T09:11:14Z</time>
      </trkpt>
      <trkpt lat="41.80525" lon="9.02434">
        <ele>479.8</ele>
        <time>2024-07-30T09:11:16Z</time>
      </trkpt>
      <trkpt lat="41.80524" lon="9.02432">
        <ele>480</ele>
        <time>2024-07-30T09:11:18Z</time>
      </trkpt>
      <trkpt lat="41.80521" lon="9.02432">
        <ele>480</ele>
        <time>2024-07-30T09:11:21Z</time>
      </trkpt>
      <trkpt lat="41.80518" lon="9.02429">
        <ele>480</ele>
        <time>2024-07-30T09:11:25Z</time>
      </trkpt>
      <trkpt lat="41.80516" lon="9.02427">
        <ele>480</ele>
        <time>2024-07-30T09:11:27Z</time>
      </trkpt>
      <trkpt lat="41.80514" lon="9.02425">
        <ele>480</ele>
        <time>2024-07-30T09:11:29Z</time>
      </trkpt>
      <trkpt lat="41.8051" lon="9.02423">
        <ele>480.4</ele>
        <time>2024-07-30T09:11:33Z</time>
      </trkpt>
      <trkpt lat="41.80507" lon="9.02416">
        <ele>481</ele>
        <time>2024-07-30T09:11:39Z</time>
      </trkpt>
      <trkpt lat="41.80506" lon="9.02413">
        <ele>481</ele>
        <time>2024-07-30T09:11:41Z</time>
      </trkpt>
      <trkpt lat="41.80505" lon="9.02412">
        <ele>481.2</ele>
        <time>2024-07-30T09:11:42Z</time>
      </trkpt>
      <trkpt lat="41.80503" lon="9.02413">
        <ele>481.2</ele>
        <time>2024-07-30T09:11:44Z</time>
      </trkpt>
      <trkpt lat="41.80503" lon="9.02412">
        <ele>481.6</ele>
        <time>2024-07-30T09:11:46Z</time>
      </trkpt>
      <trkpt lat="41.80501" lon="9.02412">
        <ele>481.8</ele>
        <time>2024-07-30T09:11:51Z</time>
      </trkpt>
      <trkpt lat="41.80495" lon="9.02411">
        <ele>482</ele>
        <time>2024-07-30T09:11:59Z</time>
      </trkpt>
      <trkpt lat="41.80491" lon="9.0241">
        <ele>483</ele>
        <time>2024-07-30T09:12:06Z</time>
      </trkpt>
      <trkpt lat="41.80487" lon="9.02408">
        <ele>483</ele>
        <time>2024-07-30T09:12:12Z</time>
      </trkpt>
      <trkpt lat="41.80486" lon="9.02407">
        <ele>483</ele>
        <time>2024-07-30T09:12:14Z</time>
      </trkpt>
      <trkpt lat="41.80477" lon="9.02408">
        <ele>483.2</ele>
        <time>2024-07-30T09:12:22Z</time>
      </trkpt>
      <trkpt lat="41.80472" lon="9.02408">
        <ele>483.6</ele>
        <time>2024-07-30T09:12:27Z</time>
      </trkpt>
      <trkpt lat="41.80471" lon="9.02407">
        <ele>483.8</ele>
        <time>2024-07-30T09:12:29Z</time>
      </trkpt>
      <trkpt lat="41.80468" lon="9.02405">
        <ele>483.8</ele>
        <time>2024-07-30T09:12:31Z</time>
      </trkpt>
      <trkpt lat="41.80464" lon="9.02407">
        <ele>484.2</ele>
        <time>2024-07-30T09:12:34Z</time>
      </trkpt>
      <trkpt lat="41.80462" lon="9.02407">
        <ele>484.2</ele>
        <time>2024-07-30T09:12:36Z</time>
      </trkpt>
      <trkpt lat="41.80457" lon="9.02407">
        <ele>484.6</ele>
        <time>2024-07-30T09:12:40Z</time>
      </trkpt>
      <trkpt lat="41.80454" lon="9.02406">
        <ele>484.6</ele>
        <time>2024-07-30T09:12:44Z</time>
      </trkpt>
      <trkpt lat="41.80452" lon="9.02407">
        <ele>484.8</ele>
        <time>2024-07-30T09:12:46Z</time>
      </trkpt>
      <trkpt lat="41.80451" lon="9.02407">
        <ele>484.8</ele>
        <time>2024-07-30T09:12:47Z</time>
      </trkpt>
      <trkpt lat="41.80448" lon="9.02406">
        <ele>485.2</ele>
        <time>2024-07-30T09:12:50Z</time>
      </trkpt>
      <trkpt lat="41.80445" lon="9.02408">
        <ele>485.6</ele>
        <time>2024-07-30T09:12:53Z</time>
      </trkpt>
      <trkpt lat="41.80441" lon="9.02409">
        <ele>486.2</ele>
        <time>2024-07-30T09:12:57Z</time>
      </trkpt>
      <trkpt lat="41.80441" lon="9.0241">
        <ele>486.4</ele>
        <time>2024-07-30T09:12:58Z</time>
      </trkpt>
      <trkpt lat="41.80441" lon="9.0241">
        <ele>486.4</ele>
        <time>2024-07-30T09:12:59Z</time>
      </trkpt>
      <trkpt lat="41.80441" lon="9.02412">
        <ele>487</ele>
        <time>2024-07-30T09:13:02Z</time>
      </trkpt>
      <trkpt lat="41.8044" lon="9.02413">
        <ele>487.2</ele>
        <time>2024-07-30T09:13:03Z</time>
      </trkpt>
      <trkpt lat="41.8044" lon="9.02414">
        <ele>487.4</ele>
        <time>2024-07-30T09:13:04Z</time>
      </trkpt>
      <trkpt lat="41.80441" lon="9.02418">
        <ele>488.4</ele>
        <time>2024-07-30T09:13:08Z</time>
      </trkpt>
      <trkpt lat="41.80441" lon="9.02421">
        <ele>489.4</ele>
        <time>2024-07-30T09:13:12Z</time>
      </trkpt>
      <trkpt lat="41.8044" lon="9.02423">
        <ele>490</ele>
        <time>2024-07-30T09:13:17Z</time>
      </trkpt>
      <trkpt lat="41.8044" lon="9.02425">
        <ele>490.6</ele>
        <time>2024-07-30T09:13:20Z</time>
      </trkpt>
      <trkpt lat="41.8044" lon="9.0243">
        <ele>491.6</ele>
        <time>2024-07-30T09:13:30Z</time>
      </trkpt>
      <trkpt lat="41.80438" lon="9.02432">
        <ele>491.8</ele>
        <time>2024-07-30T09:13:35Z</time>
      </trkpt>
      <trkpt lat="41.80433" lon="9.02438">
        <ele>492.6</ele>
        <time>2024-07-30T09:13:45Z</time>
      </trkpt>
      <trkpt lat="41.80428" lon="9.02443">
        <ele>492.6</ele>
        <time>2024-07-30T09:13:52Z</time>
      </trkpt>
      <trkpt lat="41.80427" lon="9.02444">
        <ele>492.6</ele>
        <time>2024-07-30T09:13:53Z</time>
      </trkpt>
      <trkpt lat="41.80423" lon="9.02449">
        <ele>493.2</ele>
        <time>2024-07-30T09:14:00Z</time>
      </trkpt>
      <trkpt lat="41.80422" lon="9.02451">
        <ele>493.4</ele>
        <time>2024-07-30T09:14:02Z</time>
      </trkpt>
      <trkpt lat="41.8042" lon="9.02453">
        <ele>493.8</ele>
        <time>2024-07-30T09:14:05Z</time>
      </trkpt>
      <trkpt lat="41.80417" lon="9.0246">
        <ele>494.6</ele>
        <time>2024-07-30T09:14:12Z</time>
      </trkpt>
      <trkpt lat="41.80417" lon="9.02461">
        <ele>494.8</ele>
        <time>2024-07-30T09:14:13Z</time>
      </trkpt>
      <trkpt lat="41.80416" lon="9.02463">
        <ele>494.8</ele>
        <time>2024-07-30T09:14:15Z</time>
      </trkpt>
      <trkpt lat="41.80415" lon="9.02464">
        <ele>495</ele>
        <time>2024-07-30T09:14:17Z</time>
      </trkpt>
      <trkpt lat="41.80415" lon="9.02466">
        <ele>495</ele>
        <time>2024-07-30T09:14:19Z</time>
      </trkpt>
      <trkpt lat="41.80412" lon="9.02471">
        <ele>495.4</ele>
        <time>2024-07-30T09:14:23Z</time>
      </trkpt>
      <trkpt lat="41.8041" lon="9.02472">
        <ele>495.8</ele>
        <time>2024-07-30T09:14:25Z</time>
      </trkpt>
      <trkpt lat="41.80407" lon="9.02474">
        <ele>495.8</ele>
        <time>2024-07-30T09:14:27Z</time>
      </trkpt>
      <trkpt lat="41.80405" lon="9.02476">
        <ele>496</ele>
        <time>2024-07-30T09:14:30Z</time>
      </trkpt>
      <trkpt lat="41.80403" lon="9.02476">
        <ele>496.2</ele>
        <time>2024-07-30T09:14:31Z</time>
      </trkpt>
      <trkpt lat="41.80402" lon="9.02476">
        <ele>496.2</ele>
        <time>2024-07-30T09:14:32Z</time>
      </trkpt>
      <trkpt lat="41.80401" lon="9.02478">
        <ele>496.8</ele>
        <time>2024-07-30T09:14:35Z</time>
      </trkpt>
      <trkpt lat="41.804" lon="9.02479">
        <ele>497</ele>
        <time>2024-07-30T09:14:37Z</time>
      </trkpt>
      <trkpt lat="41.80397" lon="9.02485">
        <ele>498</ele>
        <time>2024-07-30T09:14:44Z</time>
      </trkpt>
      <trkpt lat="41.80395" lon="9.0249">
        <ele>498.4</ele>
        <time>2024-07-30T09:14:47Z</time>
      </trkpt>
      <trkpt lat="41.80395" lon="9.02491">
        <ele>498.6</ele>
        <time>2024-07-30T09:14:48Z</time>
      </trkpt>
      <trkpt lat="41.80394" lon="9.02492">
        <ele>498.6</ele>
        <time>2024-07-30T09:14:49Z</time>
      </trkpt>
      <trkpt lat="41.80395" lon="9.02493">
        <ele>499</ele>
        <time>2024-07-30T09:14:50Z</time>
      </trkpt>
      <trkpt lat="41.80394" lon="9.02494">
        <ele>499.4</ele>
        <time>2024-07-30T09:14:52Z</time>
      </trkpt>
      <trkpt lat="41.80394" lon="9.02496">
        <ele>499.8</ele>
        <time>2024-07-30T09:14:54Z</time>
      </trkpt>
      <trkpt lat="41.80395" lon="9.02498">
        <ele>500</ele>
        <time>2024-07-30T09:14:56Z</time>
      </trkpt>
      <trkpt lat="41.80395" lon="9.025">
        <ele>500.2</ele>
        <time>2024-07-30T09:14:58Z</time>
      </trkpt>
      <trkpt lat="41.80397" lon="9.02504">
        <ele>501</ele>
        <time>2024-07-30T09:15:03Z</time>
      </trkpt>
      <trkpt lat="41.80397" lon="9.02509">
        <ele>502.2</ele>
        <time>2024-07-30T09:15:10Z</time>
      </trkpt>
      <trkpt lat="41.804" lon="9.02514">
        <ele>503.4</ele>
        <time>2024-07-30T09:15:17Z</time>
      </trkpt>
      <trkpt lat="41.80399" lon="9.02518">
        <ele>504.4</ele>
        <time>2024-07-30T09:15:22Z</time>
      </trkpt>
      <trkpt lat="41.80398" lon="9.02518">
        <ele>504.8</ele>
        <time>2024-07-30T09:15:23Z</time>
      </trkpt>
      <trkpt lat="41.80396" lon="9.0252">
        <ele>505</ele>
        <time>2024-07-30T09:15:25Z</time>
      </trkpt>
      <trkpt lat="41.80395" lon="9.02522">
        <ele>505.6</ele>
        <time>2024-07-30T09:15:28Z</time>
      </trkpt>
      <trkpt lat="41.80392" lon="9.02528">
        <ele>506.4</ele>
        <time>2024-07-30T09:15:40Z</time>
      </trkpt>
      <trkpt lat="41.80391" lon="9.02531">
        <ele>506.8</ele>
        <time>2024-07-30T09:15:45Z</time>
      </trkpt>
      <trkpt lat="41.8039" lon="9.02538">
        <ele>508.2</ele>
        <time>2024-07-30T09:15:52Z</time>
      </trkpt>
      <trkpt lat="41.8039" lon="9.02545">
        <ele>509.2</ele>
        <time>2024-07-30T09:15:57Z</time>
      </trkpt>
      <trkpt lat="41.8039" lon="9.02546">
        <ele>509.4</ele>
        <time>2024-07-30T09:15:58Z</time>
      </trkpt>
      <trkpt lat="41.80389" lon="9.02548">
        <ele>510.2</ele>
        <time>2024-07-30T09:16:02Z</time>
      </trkpt>
      <trkpt lat="41.80389" lon="9.0255">
        <ele>510.6</ele>
        <time>2024-07-30T09:16:05Z</time>
      </trkpt>
      <trkpt lat="41.80387" lon="9.02555">
        <ele>511.4</ele>
        <time>2024-07-30T09:16:09Z</time>
      </trkpt>
      <trkpt lat="41.80386" lon="9.02561">
        <ele>512.2</ele>
        <time>2024-07-30T09:16:16Z</time>
      </trkpt>
      <trkpt lat="41.80384" lon="9.02561">
        <ele>512.4</ele>
        <time>2024-07-30T09:16:27Z</time>
      </trkpt>
      <trkpt lat="41.80382" lon="9.02564">
        <ele>512.8</ele>
        <time>2024-07-30T09:16:31Z</time>
      </trkpt>
      <trkpt lat="41.80381" lon="9.02567">
        <ele>513.4</ele>
        <time>2024-07-30T09:16:35Z</time>
      </trkpt>
      <trkpt lat="41.8038" lon="9.02568">
        <ele>513.4</ele>
        <time>2024-07-30T09:16:36Z</time>
      </trkpt>
      <trkpt lat="41.80377" lon="9.02571">
        <ele>514.6</ele>
        <time>2024-07-30T09:16:42Z</time>
      </trkpt>
      <trkpt lat="41.80374" lon="9.02574">
        <ele>515.4</ele>
        <time>2024-07-30T09:16:49Z</time>
      </trkpt>
      <trkpt lat="41.80372" lon="9.02576">
        <ele>515.8</ele>
        <time>2024-07-30T09:16:53Z</time>
      </trkpt>
      <trkpt lat="41.80372" lon="9.02584">
        <ele>516.8</ele>
        <time>2024-07-30T09:17:00Z</time>
      </trkpt>
      <trkpt lat="41.8037" lon="9.02587">
        <ele>517</ele>
        <time>2024-07-30T09:17:03Z</time>
      </trkpt>
      <trkpt lat="41.8037" lon="9.02588">
        <ele>517.2</ele>
        <time>2024-07-30T09:17:04Z</time>
      </trkpt>
      <trkpt lat="41.8037" lon="9.02593">
        <ele>517.8</ele>
        <time>2024-07-30T09:17:14Z</time>
      </trkpt>
      <trkpt lat="41.80369" lon="9.02596">
        <ele>518.6</ele>
        <time>2024-07-30T09:17:19Z</time>
      </trkpt>
      <trkpt lat="41.80369" lon="9.02597">
        <ele>518.8</ele>
        <time>2024-07-30T09:17:21Z</time>
      </trkpt>
      <trkpt lat="41.80368" lon="9.02602">
        <ele>519.8</ele>
        <time>2024-07-30T09:17:27Z</time>
      </trkpt>
      <trkpt lat="41.80366" lon="9.02609">
        <ele>521</ele>
        <time>2024-07-30T09:17:35Z</time>
      </trkpt>
      <trkpt lat="41.80365" lon="9.02611">
        <ele>521.6</ele>
        <time>2024-07-30T09:17:37Z</time>
      </trkpt>
      <trkpt lat="41.80365" lon="9.02613">
        <ele>522</ele>
        <time>2024-07-30T09:17:40Z</time>
      </trkpt>
      <trkpt lat="41.80363" lon="9.02617">
        <ele>523.2</ele>
        <time>2024-07-30T09:17:47Z</time>
      </trkpt>
      <trkpt lat="41.80357" lon="9.02623">
        <ele>524.4</ele>
        <time>2024-07-30T09:17:54Z</time>
      </trkpt>
      <trkpt lat="41.80353" lon="9.02627">
        <ele>524.8</ele>
        <time>2024-07-30T09:17:58Z</time>
      </trkpt>
      <trkpt lat="41.80351" lon="9.02627">
        <ele>525</ele>
        <time>2024-07-30T09:18:00Z</time>
      </trkpt>
      <trkpt lat="41.80346" lon="9.02628">
        <ele>525.2</ele>
        <time>2024-07-30T09:18:05Z</time>
      </trkpt>
      <trkpt lat="41.80345" lon="9.02628">
        <ele>525.4</ele>
        <time>2024-07-30T09:18:06Z</time>
      </trkpt>
      <trkpt lat="41.80343" lon="9.02626">
        <ele>525.6</ele>
        <time>2024-07-30T09:18:07Z</time>
      </trkpt>
      <trkpt lat="41.80342" lon="9.02628">
        <ele>525.8</ele>
        <time>2024-07-30T09:18:09Z</time>
      </trkpt>
      <trkpt lat="41.8034" lon="9.02628">
        <ele>526</ele>
        <time>2024-07-30T09:18:11Z</time>
      </trkpt>
      <trkpt lat="41.80339" lon="9.02627">
        <ele>526.2</ele>
        <time>2024-07-30T09:18:14Z</time>
      </trkpt>
      <trkpt lat="41.80335" lon="9.02623">
        <ele>524.2</ele>
        <time>2024-07-30T09:18:20Z</time>
      </trkpt>
      <trkpt lat="41.80327" lon="9.02618">
        <ele>524</ele>
        <time>2024-07-30T09:18:25Z</time>
      </trkpt>
      <trkpt lat="41.80321" lon="9.02615">
        <ele>524</ele>
        <time>2024-07-30T09:18:30Z</time>
      </trkpt>
      <trkpt lat="41.80319" lon="9.02614">
        <ele>523.8</ele>
        <time>2024-07-30T09:18:32Z</time>
      </trkpt>
      <trkpt lat="41.80318" lon="9.02613">
        <ele>523.6</ele>
        <time>2024-07-30T09:18:33Z</time>
      </trkpt>
      <trkpt lat="41.80318" lon="9.0261">
        <ele>523.2</ele>
        <time>2024-07-30T09:18:35Z</time>
      </trkpt>
      <trkpt lat="41.80317" lon="9.02603">
        <ele>523.2</ele>
        <time>2024-07-30T09:18:42Z</time>
      </trkpt>
      <trkpt lat="41.80314" lon="9.02599">
        <ele>523.4</ele>
        <time>2024-07-30T09:18:45Z</time>
      </trkpt>
      <trkpt lat="41.80312" lon="9.02596">
        <ele>523.4</ele>
        <time>2024-07-30T09:18:47Z</time>
      </trkpt>
      <trkpt lat="41.80307" lon="9.02591">
        <ele>523.6</ele>
        <time>2024-07-30T09:18:52Z</time>
      </trkpt>
      <trkpt lat="41.80303" lon="9.02585">
        <ele>524.4</ele>
        <time>2024-07-30T09:18:59Z</time>
      </trkpt>
      <trkpt lat="41.80302" lon="9.02583">
        <ele>524.8</ele>
        <time>2024-07-30T09:19:01Z</time>
      </trkpt>
      <trkpt lat="41.80302" lon="9.02581">
        <ele>525</ele>
        <time>2024-07-30T09:19:02Z</time>
      </trkpt>
      <trkpt lat="41.80301" lon="9.02579">
        <ele>525</ele>
        <time>2024-07-30T09:19:03Z</time>
      </trkpt>
      <trkpt lat="41.80301" lon="9.02577">
        <ele>525.4</ele>
        <time>2024-07-30T09:19:05Z</time>
      </trkpt>
      <trkpt lat="41.803" lon="9.02576">
        <ele>525.6</ele>
        <time>2024-07-30T09:19:06Z</time>
      </trkpt>
      <trkpt lat="41.80299" lon="9.02574">
        <ele>526.2</ele>
        <time>2024-07-30T09:19:08Z</time>
      </trkpt>
      <trkpt lat="41.80299" lon="9.02571">
        <ele>526.4</ele>
        <time>2024-07-30T09:19:12Z</time>
      </trkpt>
      <trkpt lat="41.80299" lon="9.02568">
        <ele>526.4</ele>
        <time>2024-07-30T09:19:14Z</time>
      </trkpt>
      <trkpt lat="41.80301" lon="9.02565">
        <ele>526.2</ele>
        <time>2024-07-30T09:19:16Z</time>
      </trkpt>
      <trkpt lat="41.80302" lon="9.02559">
        <ele>525.8</ele>
        <time>2024-07-30T09:19:19Z</time>
      </trkpt>
      <trkpt lat="41.80302" lon="9.02557">
        <ele>525.4</ele>
        <time>2024-07-30T09:19:21Z</time>
      </trkpt>
      <trkpt lat="41.80303" lon="9.02554">
        <ele>525.2</ele>
        <time>2024-07-30T09:19:23Z</time>
      </trkpt>
      <trkpt lat="41.80305" lon="9.02552">
        <ele>524.8</ele>
        <time>2024-07-30T09:19:25Z</time>
      </trkpt>
      <trkpt lat="41.80304" lon="9.02545">
        <ele>524.6</ele>
        <time>2024-07-30T09:19:31Z</time>
      </trkpt>
      <trkpt lat="41.80303" lon="9.02544">
        <ele>524.4</ele>
        <time>2024-07-30T09:19:33Z</time>
      </trkpt>
      <trkpt lat="41.80304" lon="9.02543">
        <ele>524.4</ele>
        <time>2024-07-30T09:19:34Z</time>
      </trkpt>
      <trkpt lat="41.80304" lon="9.02541">
        <ele>524.4</ele>
        <time>2024-07-30T09:19:36Z</time>
      </trkpt>
      <trkpt lat="41.80306" lon="9.0254">
        <ele>524.4</ele>
        <time>2024-07-30T09:19:39Z</time>
      </trkpt>
      <trkpt lat="41.80308" lon="9.02539">
        <ele>524.2</ele>
        <time>2024-07-30T09:19:45Z</time>
      </trkpt>
      <trkpt lat="41.8031" lon="9.02536">
        <ele>523.8</ele>
        <time>2024-07-30T09:19:49Z</time>
      </trkpt>
      <trkpt lat="41.80311" lon="9.02532">
        <ele>523.4</ele>
        <time>2024-07-30T09:19:54Z</time>
      </trkpt>
      <trkpt lat="41.80311" lon="9.02525">
        <ele>522.4</ele>
        <time>2024-07-30T09:20:01Z</time>
      </trkpt>
      <trkpt lat="41.8031" lon="9.0252">
        <ele>521.8</ele>
        <time>2024-07-30T09:20:07Z</time>
      </trkpt>
      <trkpt lat="41.80309" lon="9.02511">
        <ele>521.2</ele>
        <time>2024-07-30T09:20:14Z</time>
      </trkpt>
      <trkpt lat="41.80308" lon="9.02505">
        <ele>520.6</ele>
        <time>2024-07-30T09:20:17Z</time>
      </trkpt>
      <trkpt lat="41.80305" lon="9.02499">
        <ele>520.4</ele>
        <time>2024-07-30T09:20:20Z</time>
      </trkpt>
      <trkpt lat="41.80304" lon="9.02494">
        <ele>520.2</ele>
        <time>2024-07-30T09:20:23Z</time>
      </trkpt>
      <trkpt lat="41.803" lon="9.02479">
        <ele>519.4</ele>
        <time>2024-07-30T09:20:39Z</time>
      </trkpt>
      <trkpt lat="41.803" lon="9.02476">
        <ele>519.4</ele>
        <time>2024-07-30T09:20:42Z</time>
      </trkpt>
      <trkpt lat="41.80299" lon="9.02474">
        <ele>519.2</ele>
        <time>2024-07-30T09:20:44Z</time>
      </trkpt>
      <trkpt lat="41.80299" lon="9.02472">
        <ele>519</ele>
        <time>2024-07-30T09:20:46Z</time>
      </trkpt>
      <trkpt lat="41.803" lon="9.02468">
        <ele>519</ele>
        <time>2024-07-30T09:20:49Z</time>
      </trkpt>
      <trkpt lat="41.803" lon="9.02466">
        <ele>519</ele>
        <time>2024-07-30T09:20:51Z</time>
      </trkpt>
      <trkpt lat="41.80299" lon="9.02459">
        <ele>518.8</ele>
        <time>2024-07-30T09:20:55Z</time>
      </trkpt>
      <trkpt lat="41.80298" lon="9.02456">
        <ele>518.8</ele>
        <time>2024-07-30T09:20:57Z</time>
      </trkpt>
      <trkpt lat="41.80298" lon="9.02455">
        <ele>518.4</ele>
        <time>2024-07-30T09:20:58Z</time>
      </trkpt>
      <trkpt lat="41.80297" lon="9.02454">
        <ele>518</ele>
        <time>2024-07-30T09:20:59Z</time>
      </trkpt>
      <trkpt lat="41.80296" lon="9.02453">
        <ele>517.4</ele>
        <time>2024-07-30T09:21:01Z</time>
      </trkpt>
      <trkpt lat="41.80294" lon="9.02451">
        <ele>517</ele>
        <time>2024-07-30T09:21:05Z</time>
      </trkpt>
      <trkpt lat="41.80292" lon="9.0245">
        <ele>516.2</ele>
        <time>2024-07-30T09:21:08Z</time>
      </trkpt>
      <trkpt lat="41.80291" lon="9.02451">
        <ele>515.8</ele>
        <time>2024-07-30T09:21:10Z</time>
      </trkpt>
      <trkpt lat="41.80288" lon="9.02451">
        <ele>515.6</ele>
        <time>2024-07-30T09:21:12Z</time>
      </trkpt>
      <trkpt lat="41.80284" lon="9.02452">
        <ele>514.6</ele>
        <time>2024-07-30T09:21:16Z</time>
      </trkpt>
      <trkpt lat="41.80282" lon="9.02452">
        <ele>513.8</ele>
        <time>2024-07-30T09:21:19Z</time>
      </trkpt>
      <trkpt lat="41.80281" lon="9.02452">
        <ele>513.6</ele>
        <time>2024-07-30T09:21:20Z</time>
      </trkpt>
      <trkpt lat="41.80272" lon="9.02449">
        <ele>512.6</ele>
        <time>2024-07-30T09:21:30Z</time>
      </trkpt>
      <trkpt lat="41.80271" lon="9.02449">
        <ele>512.6</ele>
        <time>2024-07-30T09:21:31Z</time>
      </trkpt>
      <trkpt lat="41.8027" lon="9.02449">
        <ele>512.4</ele>
        <time>2024-07-30T09:21:32Z</time>
      </trkpt>
      <trkpt lat="41.80267" lon="9.02446">
        <ele>512.4</ele>
        <time>2024-07-30T09:21:38Z</time>
      </trkpt>
      <trkpt lat="41.80265" lon="9.02444">
        <ele>513</ele>
        <time>2024-07-30T09:21:42Z</time>
      </trkpt>
      <trkpt lat="41.80263" lon="9.02444">
        <ele>513.8</ele>
        <time>2024-07-30T09:21:44Z</time>
      </trkpt>
      <trkpt lat="41.8026" lon="9.02443">
        <ele>514.6</ele>
        <time>2024-07-30T09:21:48Z</time>
      </trkpt>
      <trkpt lat="41.80261" lon="9.0244">
        <ele>514.8</ele>
        <time>2024-07-30T09:21:51Z</time>
      </trkpt>
      <trkpt lat="41.80261" lon="9.02432">
        <ele>513.8</ele>
        <time>2024-07-30T09:22:01Z</time>
      </trkpt>
      <trkpt lat="41.80261" lon="9.02431">
        <ele>513.8</ele>
        <time>2024-07-30T09:22:02Z</time>
      </trkpt>
      <trkpt lat="41.80259" lon="9.02424">
        <ele>513.2</ele>
        <time>2024-07-30T09:22:16Z</time>
      </trkpt>
      <trkpt lat="41.8026" lon="9.02419">
        <ele>512.8</ele>
        <time>2024-07-30T09:22:22Z</time>
      </trkpt>
      <trkpt lat="41.80261" lon="9.02419">
        <ele>512.6</ele>
        <time>2024-07-30T09:22:23Z</time>
      </trkpt>
      <trkpt lat="41.80264" lon="9.02414">
        <ele>511.6</ele>
        <time>2024-07-30T09:22:29Z</time>
      </trkpt>
      <trkpt lat="41.80265" lon="9.02413">
        <ele>511.6</ele>
        <time>2024-07-30T09:22:30Z</time>
      </trkpt>
      <trkpt lat="41.80267" lon="9.0241">
        <ele>511.2</ele>
        <time>2024-07-30T09:22:33Z</time>
      </trkpt>
      <trkpt lat="41.8027" lon="9.02406">
        <ele>510.6</ele>
        <time>2024-07-30T09:22:38Z</time>
      </trkpt>
      <trkpt lat="41.80272" lon="9.02401">
        <ele>509.6</ele>
        <time>2024-07-30T09:22:42Z</time>
      </trkpt>
      <trkpt lat="41.80273" lon="9.024">
        <ele>509.4</ele>
        <time>2024-07-30T09:22:43Z</time>
      </trkpt>
      <trkpt lat="41.80274" lon="9.02399">
        <ele>509.4</ele>
        <time>2024-07-30T09:22:44Z</time>
      </trkpt>
      <trkpt lat="41.80277" lon="9.02396">
        <ele>508.8</ele>
        <time>2024-07-30T09:22:48Z</time>
      </trkpt>
      <trkpt lat="41.80278" lon="9.02391">
        <ele>508.4</ele>
        <time>2024-07-30T09:22:51Z</time>
      </trkpt>
      <trkpt lat="41.8028" lon="9.02384">
        <ele>507.8</ele>
        <time>2024-07-30T09:22:55Z</time>
      </trkpt>
      <trkpt lat="41.8028" lon="9.0238">
        <ele>507.6</ele>
        <time>2024-07-30T09:22:58Z</time>
      </trkpt>
      <trkpt lat="41.8028" lon="9.02376">
        <ele>507.2</ele>
        <time>2024-07-30T09:23:00Z</time>
      </trkpt>
      <trkpt lat="41.8028" lon="9.02375">
        <ele>506.8</ele>
        <time>2024-07-30T09:23:01Z</time>
      </trkpt>
      <trkpt lat="41.80279" lon="9.02373">
        <ele>506.8</ele>
        <time>2024-07-30T09:23:03Z</time>
      </trkpt>
      <trkpt lat="41.80279" lon="9.02372">
        <ele>506</ele>
        <time>2024-07-30T09:23:09Z</time>
      </trkpt>
      <trkpt lat="41.80279" lon="9.02371">
        <ele>505.6</ele>
        <time>2024-07-30T09:23:14Z</time>
      </trkpt>
      <trkpt lat="41.8028" lon="9.02368">
        <ele>505.2</ele>
        <time>2024-07-30T09:23:32Z</time>
      </trkpt>
      <trkpt lat="41.8028" lon="9.02367">
        <ele>505</ele>
        <time>2024-07-30T09:23:33Z</time>
      </trkpt>
      <trkpt lat="41.8028" lon="9.02358">
        <ele>503.8</ele>
        <time>2024-07-30T09:23:46Z</time>
      </trkpt>
      <trkpt lat="41.80281" lon="9.02357">
        <ele>503</ele>
        <time>2024-07-30T09:23:50Z</time>
      </trkpt>
      <trkpt lat="41.8028" lon="9.02356">
        <ele>502.4</ele>
        <time>2024-07-30T09:23:52Z</time>
      </trkpt>
      <trkpt lat="41.80282" lon="9.02352">
        <ele>501.4</ele>
        <time>2024-07-30T09:23:58Z</time>
      </trkpt>
      <trkpt lat="41.80282" lon="9.02351">
        <ele>500.8</ele>
        <time>2024-07-30T09:24:04Z</time>
      </trkpt>
      <trkpt lat="41.80283" lon="9.02351">
        <ele>497.6</ele>
        <time>2024-07-30T09:24:07Z</time>
      </trkpt>
      <trkpt lat="41.80283" lon="9.02351">
        <ele>494.8</ele>
        <time>2024-07-30T09:24:08Z</time>
      </trkpt>
      <trkpt lat="41.80283" lon="9.02351">
        <ele>492.6</ele>
        <time>2024-07-30T09:24:09Z</time>
      </trkpt>
      <trkpt lat="41.80283" lon="9.02351">
        <ele>490.6</ele>
        <time>2024-07-30T09:24:10Z</time>
      </trkpt>
      <trkpt lat="41.80283" lon="9.02351">
        <ele>489.4</ele>
        <time>2024-07-30T09:24:13Z</time>
      </trkpt>
      <trkpt lat="41.80283" lon="9.02351">
        <ele>488.2</ele>
        <time>2024-07-30T09:24:16Z</time>
      </trkpt>
      <trkpt lat="41.80283" lon="9.02351">
        <ele>495.4</ele>
        <time>2024-07-30T09:24:19Z</time>
      </trkpt>
      <trkpt lat="41.80283" lon="9.02351">
        <ele>497.8</ele>
        <time>2024-07-30T09:24:20Z</time>
      </trkpt>
      <trkpt lat="41.80283" lon="9.02351">
        <ele>499</ele>
        <time>2024-07-30T09:24:21Z</time>
      </trkpt>
      <trkpt lat="41.80283" lon="9.02351">
        <ele>500.2</ele>
        <time>2024-07-30T09:24:23Z</time>
      </trkpt>
      <trkpt lat="41.80283" lon="9.02351">
        <ele>500.6</ele>
        <time>2024-07-30T09:24:39Z</time>
      </trkpt>
      <trkpt lat="41.80282" lon="9.02347">
        <ele>499.2</ele>
        <time>2024-07-30T09:24:51Z</time>
      </trkpt>
      <trkpt lat="41.80282" lon="9.02347">
        <ele>499</ele>
        <time>2024-07-30T09:24:52Z</time>
      </trkpt>
      <trkpt lat="41.80282" lon="9.02345">
        <ele>497.8</ele>
        <time>2024-07-30T09:25:01Z</time>
      </trkpt>
      <trkpt lat="41.80283" lon="9.02344">
        <ele>497.8</ele>
        <time>2024-07-30T09:25:03Z</time>
      </trkpt>
      <trkpt lat="41.80277" lon="9.02344">
        <ele>498.8</ele>
        <time>2024-07-30T09:25:21Z</time>
      </trkpt>
      <trkpt lat="41.80275" lon="9.02344">
        <ele>499</ele>
        <time>2024-07-30T09:25:23Z</time>
      </trkpt>
      <trkpt lat="41.80266" lon="9.02344">
        <ele>498.8</ele>
        <time>2024-07-30T09:25:39Z</time>
      </trkpt>
      <trkpt lat="41.80253" lon="9.02346">
        <ele>499</ele>
        <time>2024-07-30T09:25:52Z</time>
      </trkpt>
      <trkpt lat="41.80251" lon="9.02347">
        <ele>499</ele>
        <time>2024-07-30T09:25:54Z</time>
      </trkpt>
      <trkpt lat="41.80249" lon="9.02349">
        <ele>498.8</ele>
        <time>2024-07-30T09:25:55Z</time>
      </trkpt>
      <trkpt lat="41.80245" lon="9.0235">
        <ele>498.2</ele>
        <time>2024-07-30T09:25:59Z</time>
      </trkpt>
      <trkpt lat="41.80246" lon="9.02351">
        <ele>498</ele>
        <time>2024-07-30T09:26:01Z</time>
      </trkpt>
      <trkpt lat="41.80247" lon="9.02348">
        <ele>497</ele>
        <time>2024-07-30T09:26:07Z</time>
      </trkpt>
      <trkpt lat="41.80247" lon="9.02347">
        <ele>496.6</ele>
        <time>2024-07-30T09:26:08Z</time>
      </trkpt>
      <trkpt lat="41.80247" lon="9.02344">
        <ele>495.6</ele>
        <time>2024-07-30T09:26:12Z</time>
      </trkpt>
      <trkpt lat="41.80247" lon="9.02341">
        <ele>494.6</ele>
        <time>2024-07-30T09:26:18Z</time>
      </trkpt>
      <trkpt lat="41.80249" lon="9.02339">
        <ele>493.4</ele>
        <time>2024-07-30T09:26:24Z</time>
      </trkpt>
      <trkpt lat="41.80248" lon="9.02334">
        <ele>493</ele>
        <time>2024-07-30T09:26:26Z</time>
      </trkpt>
      <trkpt lat="41.80246" lon="9.02328">
        <ele>492.2</ele>
        <time>2024-07-30T09:26:30Z</time>
      </trkpt>
      <trkpt lat="41.80247" lon="9.02322">
        <ele>491.6</ele>
        <time>2024-07-30T09:26:40Z</time>
      </trkpt>
      <trkpt lat="41.80248" lon="9.0232">
        <ele>491.2</ele>
        <time>2024-07-30T09:26:42Z</time>
      </trkpt>
      <trkpt lat="41.80249" lon="9.0231">
        <ele>491</ele>
        <time>2024-07-30T09:26:57Z</time>
      </trkpt>
      <trkpt lat="41.80246" lon="9.02311">
        <ele>491.2</ele>
        <time>2024-07-30T09:27:12Z</time>
      </trkpt>
      <trkpt lat="41.80249" lon="9.02311">
        <ele>490.6</ele>
        <time>2024-07-30T09:27:27Z</time>
      </trkpt>
      <trkpt lat="41.80254" lon="9.02308">
        <ele>490.2</ele>
        <time>2024-07-30T09:27:33Z</time>
      </trkpt>
      <trkpt lat="41.8026" lon="9.02304">
        <ele>490</ele>
        <time>2024-07-30T09:27:40Z</time>
      </trkpt>
      <trkpt lat="41.80262" lon="9.02303">
        <ele>489.8</ele>
        <time>2024-07-30T09:27:44Z</time>
      </trkpt>
      <trkpt lat="41.80263" lon="9.02302">
        <ele>489.4</ele>
        <time>2024-07-30T09:27:46Z</time>
      </trkpt>
      <trkpt lat="41.80264" lon="9.02302">
        <ele>489.2</ele>
        <time>2024-07-30T09:27:48Z</time>
      </trkpt>
      <trkpt lat="41.80264" lon="9.02301">
        <ele>489</ele>
        <time>2024-07-30T09:27:49Z</time>
      </trkpt>
      <trkpt lat="41.80264" lon="9.02297">
        <ele>488.6</ele>
        <time>2024-07-30T09:27:51Z</time>
      </trkpt>
      <trkpt lat="41.80264" lon="9.02293">
        <ele>488.4</ele>
        <time>2024-07-30T09:27:53Z</time>
      </trkpt>
      <trkpt lat="41.80265" lon="9.02291">
        <ele>488.2</ele>
        <time>2024-07-30T09:27:55Z</time>
      </trkpt>
      <trkpt lat="41.80267" lon="9.02288">
        <ele>488.8</ele>
        <time>2024-07-30T09:28:00Z</time>
      </trkpt>
      <trkpt lat="41.80269" lon="9.02286">
        <ele>489.2</ele>
        <time>2024-07-30T09:28:02Z</time>
      </trkpt>
      <trkpt lat="41.80271" lon="9.02281">
        <ele>490.2</ele>
        <time>2024-07-30T09:28:07Z</time>
      </trkpt>
      <trkpt lat="41.80273" lon="9.0228">
        <ele>490.6</ele>
        <time>2024-07-30T09:28:09Z</time>
      </trkpt>
      <trkpt lat="41.80273" lon="9.02275">
        <ele>490.8</ele>
        <time>2024-07-30T09:28:13Z</time>
      </trkpt>
      <trkpt lat="41.80273" lon="9.02274">
        <ele>491</ele>
        <time>2024-07-30T09:28:14Z</time>
      </trkpt>
      <trkpt lat="41.80273" lon="9.02271">
        <ele>491.2</ele>
        <time>2024-07-30T09:28:16Z</time>
      </trkpt>
      <trkpt lat="41.80274" lon="9.02269">
        <ele>491.4</ele>
        <time>2024-07-30T09:28:18Z</time>
      </trkpt>
      <trkpt lat="41.80273" lon="9.02262">
        <ele>492.2</ele>
        <time>2024-07-30T09:28:23Z</time>
      </trkpt>
      <trkpt lat="41.80272" lon="9.02259">
        <ele>492.2</ele>
        <time>2024-07-30T09:28:25Z</time>
      </trkpt>
      <trkpt lat="41.80272" lon="9.02254">
        <ele>492.4</ele>
        <time>2024-07-30T09:28:28Z</time>
      </trkpt>
      <trkpt lat="41.8027" lon="9.02242">
        <ele>492</ele>
        <time>2024-07-30T09:28:40Z</time>
      </trkpt>
      <trkpt lat="41.8027" lon="9.02241">
        <ele>491.8</ele>
        <time>2024-07-30T09:28:42Z</time>
      </trkpt>
      <trkpt lat="41.80269" lon="9.02239">
        <ele>491.4</ele>
        <time>2024-07-30T09:28:44Z</time>
      </trkpt>
      <trkpt lat="41.80269" lon="9.02238">
        <ele>491.2</ele>
        <time>2024-07-30T09:28:45Z</time>
      </trkpt>
      <trkpt lat="41.80266" lon="9.02235">
        <ele>490</ele>
        <time>2024-07-30T09:28:51Z</time>
      </trkpt>
      <trkpt lat="41.80262" lon="9.02233">
        <ele>489.6</ele>
        <time>2024-07-30T09:28:57Z</time>
      </trkpt>
      <trkpt lat="41.80261" lon="9.02231">
        <ele>488.8</ele>
        <time>2024-07-30T09:28:59Z</time>
      </trkpt>
      <trkpt lat="41.8026" lon="9.0223">
        <ele>488.6</ele>
        <time>2024-07-30T09:29:01Z</time>
      </trkpt>
      <trkpt lat="41.80258" lon="9.02228">
        <ele>488.4</ele>
        <time>2024-07-30T09:29:04Z</time>
      </trkpt>
      <trkpt lat="41.80256" lon="9.02227">
        <ele>488</ele>
        <time>2024-07-30T09:29:07Z</time>
      </trkpt>
      <trkpt lat="41.80255" lon="9.02227">
        <ele>487.8</ele>
        <time>2024-07-30T09:29:10Z</time>
      </trkpt>
      <trkpt lat="41.80253" lon="9.02222">
        <ele>487.2</ele>
        <time>2024-07-30T09:29:17Z</time>
      </trkpt>
      <trkpt lat="41.80252" lon="9.02218">
        <ele>488.2</ele>
        <time>2024-07-30T09:29:30Z</time>
      </trkpt>
      <trkpt lat="41.80251" lon="9.02219">
        <ele>488.8</ele>
        <time>2024-07-30T09:29:31Z</time>
      </trkpt>
      <trkpt lat="41.80251" lon="9.02219">
        <ele>490.6</ele>
        <time>2024-07-30T09:29:32Z</time>
      </trkpt>
      <trkpt lat="41.80251" lon="9.02219">
        <ele>492</ele>
        <time>2024-07-30T09:29:33Z</time>
      </trkpt>
      <trkpt lat="41.8025" lon="9.0222">
        <ele>493</ele>
        <time>2024-07-30T09:29:37Z</time>
      </trkpt>
      <trkpt lat="41.80252" lon="9.0222">
        <ele>492.8</ele>
        <time>2024-07-30T09:29:44Z</time>
      </trkpt>
      <trkpt lat="41.80252" lon="9.02221">
        <ele>491.8</ele>
        <time>2024-07-30T09:29:46Z</time>
      </trkpt>
      <trkpt lat="41.80253" lon="9.02221">
        <ele>490.8</ele>
        <time>2024-07-30T09:29:50Z</time>
      </trkpt>
      <trkpt lat="41.80254" lon="9.02223">
        <ele>491.4</ele>
        <time>2024-07-30T09:30:05Z</time>
      </trkpt>
      <trkpt lat="41.80252" lon="9.02222">
        <ele>491.2</ele>
        <time>2024-07-30T09:30:26Z</time>
      </trkpt>
      <trkpt lat="41.80248" lon="9.0222">
        <ele>491.8</ele>
        <time>2024-07-30T09:30:35Z</time>
      </trkpt>
      <trkpt lat="41.80246" lon="9.02219">
        <ele>492.4</ele>
        <time>2024-07-30T09:30:42Z</time>
      </trkpt>
      <trkpt lat="41.80246" lon="9.02216">
        <ele>493</ele>
        <time>2024-07-30T09:30:47Z</time>
      </trkpt>
      <trkpt lat="41.80241" lon="9.02206">
        <ele>493</ele>
        <time>2024-07-30T09:30:56Z</time>
      </trkpt>
      <trkpt lat="41.8023" lon="9.02194">
        <ele>492.6</ele>
        <time>2024-07-30T09:31:10Z</time>
      </trkpt>
      <trkpt lat="41.80224" lon="9.02192">
        <ele>492</ele>
        <time>2024-07-30T09:31:16Z</time>
      </trkpt>
      <trkpt lat="41.80223" lon="9.02192">
        <ele>492</ele>
        <time>2024-07-30T09:31:17Z</time>
      </trkpt>
      <trkpt lat="41.80222" lon="9.02191">
        <ele>491</ele>
        <time>2024-07-30T09:31:20Z</time>
      </trkpt>
      <trkpt lat="41.80221" lon="9.02191">
        <ele>490.8</ele>
        <time>2024-07-30T09:31:21Z</time>
      </trkpt>
      <trkpt lat="41.8022" lon="9.02189">
        <ele>490.2</ele>
        <time>2024-07-30T09:31:27Z</time>
      </trkpt>
      <trkpt lat="41.80219" lon="9.02188">
        <ele>489.8</ele>
        <time>2024-07-30T09:31:32Z</time>
      </trkpt>
      <trkpt lat="41.80218" lon="9.02185">
        <ele>489.8</ele>
        <time>2024-07-30T09:31:43Z</time>
      </trkpt>
      <trkpt lat="41.80222" lon="9.02181">
        <ele>489.8</ele>
        <time>2024-07-30T09:31:57Z</time>
      </trkpt>
      <trkpt lat="41.80223" lon="9.02182">
        <ele>489.8</ele>
        <time>2024-07-30T09:32:11Z</time>
      </trkpt>
      <trkpt lat="41.80222" lon="9.02177">
        <ele>490.4</ele>
        <time>2024-07-30T09:32:28Z</time>
      </trkpt>
      <trkpt lat="41.80222" lon="9.02173">
        <ele>490.8</ele>
        <time>2024-07-30T09:32:31Z</time>
      </trkpt>
      <trkpt lat="41.80226" lon="9.02168">
        <ele>491.6</ele>
        <time>2024-07-30T09:32:41Z</time>
      </trkpt>
      <trkpt lat="41.8023" lon="9.02159">
        <ele>492</ele>
        <time>2024-07-30T09:32:47Z</time>
      </trkpt>
      <trkpt lat="41.80231" lon="9.02156">
        <ele>492</ele>
        <time>2024-07-30T09:32:49Z</time>
      </trkpt>
      <trkpt lat="41.80232" lon="9.02154">
        <ele>492.2</ele>
        <time>2024-07-30T09:32:51Z</time>
      </trkpt>
      <trkpt lat="41.80233" lon="9.02152">
        <ele>492.2</ele>
        <time>2024-07-30T09:32:53Z</time>
      </trkpt>
      <trkpt lat="41.80234" lon="9.0215">
        <ele>492.4</ele>
        <time>2024-07-30T09:32:55Z</time>
      </trkpt>
      <trkpt lat="41.80235" lon="9.02148">
        <ele>492.4</ele>
        <time>2024-07-30T09:32:56Z</time>
      </trkpt>
      <trkpt lat="41.8025" lon="9.02134">
        <ele>492.4</ele>
        <time>2024-07-30T09:33:11Z</time>
      </trkpt>
      <trkpt lat="41.80252" lon="9.02133">
        <ele>492.6</ele>
        <time>2024-07-30T09:33:13Z</time>
      </trkpt>
      <trkpt lat="41.80268" lon="9.02126">
        <ele>492.4</ele>
        <time>2024-07-30T09:33:29Z</time>
      </trkpt>
      <trkpt lat="41.80268" lon="9.02126">
        <ele>493</ele>
        <time>2024-07-30T09:33:33Z</time>
      </trkpt>
      <trkpt lat="41.80275" lon="9.02115">
        <ele>493.8</ele>
        <time>2024-07-30T09:33:41Z</time>
      </trkpt>
      <trkpt lat="41.80276" lon="9.02111">
        <ele>494.2</ele>
        <time>2024-07-30T09:33:43Z</time>
      </trkpt>
      <trkpt lat="41.80276" lon="9.02108">
        <ele>494.4</ele>
        <time>2024-07-30T09:33:44Z</time>
      </trkpt>
      <trkpt lat="41.80277" lon="9.02105">
        <ele>494.8</ele>
        <time>2024-07-30T09:33:46Z</time>
      </trkpt>
      <trkpt lat="41.80277" lon="9.02103">
        <ele>495</ele>
        <time>2024-07-30T09:33:48Z</time>
      </trkpt>
      <trkpt lat="41.80277" lon="9.02101">
        <ele>495.2</ele>
        <time>2024-07-30T09:33:50Z</time>
      </trkpt>
      <trkpt lat="41.80276" lon="9.021">
        <ele>495.2</ele>
        <time>2024-07-30T09:33:51Z</time>
      </trkpt>
      <trkpt lat="41.80276" lon="9.02098">
        <ele>496</ele>
        <time>2024-07-30T09:33:55Z</time>
      </trkpt>
      <trkpt lat="41.80277" lon="9.02097">
        <ele>496.4</ele>
        <time>2024-07-30T09:33:57Z</time>
      </trkpt>
      <trkpt lat="41.80278" lon="9.02093">
        <ele>497.4</ele>
        <time>2024-07-30T09:34:02Z</time>
      </trkpt>
      <trkpt lat="41.80278" lon="9.02092">
        <ele>497.8</ele>
        <time>2024-07-30T09:34:04Z</time>
      </trkpt>
      <trkpt lat="41.8028" lon="9.02088">
        <ele>498.4</ele>
        <time>2024-07-30T09:34:10Z</time>
      </trkpt>
      <trkpt lat="41.80282" lon="9.02087">
        <ele>498.8</ele>
        <time>2024-07-30T09:34:12Z</time>
      </trkpt>
      <trkpt lat="41.80283" lon="9.02085">
        <ele>499.6</ele>
        <time>2024-07-30T09:34:16Z</time>
      </trkpt>
      <trkpt lat="41.80283" lon="9.02085">
        <ele>499.8</ele>
        <time>2024-07-30T09:34:17Z</time>
      </trkpt>
      <trkpt lat="41.80285" lon="9.02083">
        <ele>500.8</ele>
        <time>2024-07-30T09:34:23Z</time>
      </trkpt>
      <trkpt lat="41.80289" lon="9.02079">
        <ele>501</ele>
        <time>2024-07-30T09:34:30Z</time>
      </trkpt>
      <trkpt lat="41.8029" lon="9.02074">
        <ele>501.8</ele>
        <time>2024-07-30T09:34:36Z</time>
      </trkpt>
      <trkpt lat="41.80292" lon="9.02071">
        <ele>502.6</ele>
        <time>2024-07-30T09:34:48Z</time>
      </trkpt>
      <trkpt lat="41.80288" lon="9.0207">
        <ele>502.6</ele>
        <time>2024-07-30T09:35:04Z</time>
      </trkpt>
      <trkpt lat="41.8029" lon="9.02069">
        <ele>502.8</ele>
        <time>2024-07-30T09:35:13Z</time>
      </trkpt>
      <trkpt lat="41.80294" lon="9.02069">
        <ele>502.4</ele>
        <time>2024-07-30T09:35:20Z</time>
      </trkpt>
      <trkpt lat="41.80298" lon="9.02065">
        <ele>502.4</ele>
        <time>2024-07-30T09:35:24Z</time>
      </trkpt>
      <trkpt lat="41.803" lon="9.02062">
        <ele>502.4</ele>
        <time>2024-07-30T09:35:26Z</time>
      </trkpt>
      <trkpt lat="41.80302" lon="9.0206">
        <ele>502.4</ele>
        <time>2024-07-30T09:35:28Z</time>
      </trkpt>
      <trkpt lat="41.80305" lon="9.02056">
        <ele>502.4</ele>
        <time>2024-07-30T09:35:31Z</time>
      </trkpt>
      <trkpt lat="41.80306" lon="9.02054">
        <ele>502.4</ele>
        <time>2024-07-30T09:35:32Z</time>
      </trkpt>
      <trkpt lat="41.80307" lon="9.02054">
        <ele>502.4</ele>
        <time>2024-07-30T09:35:33Z</time>
      </trkpt>
      <trkpt lat="41.80314" lon="9.02045">
        <ele>501.8</ele>
        <time>2024-07-30T09:35:43Z</time>
      </trkpt>
      <trkpt lat="41.80315" lon="9.02044">
        <ele>501.6</ele>
        <time>2024-07-30T09:35:44Z</time>
      </trkpt>
      <trkpt lat="41.80322" lon="9.0204">
        <ele>501.2</ele>
        <time>2024-07-30T09:35:50Z</time>
      </trkpt>
      <trkpt lat="41.80324" lon="9.02039">
        <ele>501.2</ele>
        <time>2024-07-30T09:35:53Z</time>
      </trkpt>
      <trkpt lat="41.80334" lon="9.02027">
        <ele>502</ele>
        <time>2024-07-30T09:36:06Z</time>
      </trkpt>
      <trkpt lat="41.80353" lon="9.0202">
        <ele>501.6</ele>
        <time>2024-07-30T09:36:24Z</time>
      </trkpt>
      <trkpt lat="41.80357" lon="9.02019">
        <ele>501.6</ele>
        <time>2024-07-30T09:36:28Z</time>
      </trkpt>
      <trkpt lat="41.8037" lon="9.02017">
        <ele>501</ele>
        <time>2024-07-30T09:36:38Z</time>
      </trkpt>
      <trkpt lat="41.80382" lon="9.02015">
        <ele>501</ele>
        <time>2024-07-30T09:36:53Z</time>
      </trkpt>
      <trkpt lat="41.80399" lon="9.02016">
        <ele>501.6</ele>
        <time>2024-07-30T09:37:08Z</time>
      </trkpt>
      <trkpt lat="41.80415" lon="9.0202">
        <ele>501</ele>
        <time>2024-07-30T09:37:24Z</time>
      </trkpt>
      <trkpt lat="41.80418" lon="9.02025">
        <ele>500.8</ele>
        <time>2024-07-30T09:37:28Z</time>
      </trkpt>
      <trkpt lat="41.80426" lon="9.02033">
        <ele>500.8</ele>
        <time>2024-07-30T09:37:36Z</time>
      </trkpt>
      <trkpt lat="41.80431" lon="9.02033">
        <ele>500.8</ele>
        <time>2024-07-30T09:37:40Z</time>
      </trkpt>
      <trkpt lat="41.80433" lon="9.02033">
        <ele>500.8</ele>
        <time>2024-07-30T09:37:41Z</time>
      </trkpt>
      <trkpt lat="41.80437" lon="9.02031">
        <ele>500.8</ele>
        <time>2024-07-30T09:37:48Z</time>
      </trkpt>
      <trkpt lat="41.80438" lon="9.02031">
        <ele>500.8</ele>
        <time>2024-07-30T09:37:49Z</time>
      </trkpt>
      <trkpt lat="41.80439" lon="9.0203">
        <ele>500.8</ele>
        <time>2024-07-30T09:37:50Z</time>
      </trkpt>
      <trkpt lat="41.80441" lon="9.0203">
        <ele>500.6</ele>
        <time>2024-07-30T09:37:52Z</time>
      </trkpt>
      <trkpt lat="41.80443" lon="9.02031">
        <ele>500.6</ele>
        <time>2024-07-30T09:37:54Z</time>
      </trkpt>
      <trkpt lat="41.80454" lon="9.02037">
        <ele>501</ele>
        <time>2024-07-30T09:38:02Z</time>
      </trkpt>
      <trkpt lat="41.80464" lon="9.0204">
        <ele>499.6</ele>
        <time>2024-07-30T09:38:11Z</time>
      </trkpt>
      <trkpt lat="41.8047" lon="9.0204">
        <ele>499.4</ele>
        <time>2024-07-30T09:38:16Z</time>
      </trkpt>
      <trkpt lat="41.80484" lon="9.02047">
        <ele>499.4</ele>
        <time>2024-07-30T09:38:31Z</time>
      </trkpt>
      <trkpt lat="41.80496" lon="9.02066">
        <ele>498.8</ele>
        <time>2024-07-30T09:38:48Z</time>
      </trkpt>
      <trkpt lat="41.80509" lon="9.02082">
        <ele>499</ele>
        <time>2024-07-30T09:39:06Z</time>
      </trkpt>
      <trkpt lat="41.80515" lon="9.02082">
        <ele>499</ele>
        <time>2024-07-30T09:39:09Z</time>
      </trkpt>
      <trkpt lat="41.80522" lon="9.02085">
        <ele>498.6</ele>
        <time>2024-07-30T09:39:16Z</time>
      </trkpt>
      <trkpt lat="41.80524" lon="9.02085">
        <ele>498.6</ele>
        <time>2024-07-30T09:39:18Z</time>
      </trkpt>
      <trkpt lat="41.80535" lon="9.02079">
        <ele>498.4</ele>
        <time>2024-07-30T09:39:29Z</time>
      </trkpt>
      <trkpt lat="41.80539" lon="9.02074">
        <ele>498.2</ele>
        <time>2024-07-30T09:39:33Z</time>
      </trkpt>
      <trkpt lat="41.80556" lon="9.02067">
        <ele>498.2</ele>
        <time>2024-07-30T09:39:48Z</time>
      </trkpt>
      <trkpt lat="41.80575" lon="9.02069">
        <ele>497.8</ele>
        <time>2024-07-30T09:40:02Z</time>
      </trkpt>
      <trkpt lat="41.80589" lon="9.02071">
        <ele>497.6</ele>
        <time>2024-07-30T09:40:17Z</time>
      </trkpt>
      <trkpt lat="41.8059" lon="9.02071">
        <ele>497.6</ele>
        <time>2024-07-30T09:40:18Z</time>
      </trkpt>
      <trkpt lat="41.80598" lon="9.02065">
        <ele>497.6</ele>
        <time>2024-07-30T09:40:26Z</time>
      </trkpt>
      <trkpt lat="41.80607" lon="9.02059">
        <ele>497.2</ele>
        <time>2024-07-30T09:40:36Z</time>
      </trkpt>
      <trkpt lat="41.80613" lon="9.0204">
        <ele>497.4</ele>
        <time>2024-07-30T09:40:52Z</time>
      </trkpt>
      <trkpt lat="41.80619" lon="9.02016">
        <ele>497.2</ele>
        <time>2024-07-30T09:41:10Z</time>
      </trkpt>
      <trkpt lat="41.80614" lon="9.01994">
        <ele>497.4</ele>
        <time>2024-07-30T09:41:23Z</time>
      </trkpt>
      <trkpt lat="41.80611" lon="9.01982">
        <ele>497.6</ele>
        <time>2024-07-30T09:41:30Z</time>
      </trkpt>
      <trkpt lat="41.80608" lon="9.01972">
        <ele>497.2</ele>
        <time>2024-07-30T09:41:39Z</time>
      </trkpt>
      <trkpt lat="41.80606" lon="9.01949">
        <ele>496.8</ele>
        <time>2024-07-30T09:41:57Z</time>
      </trkpt>
      <trkpt lat="41.80605" lon="9.01946">
        <ele>497.2</ele>
        <time>2024-07-30T09:41:59Z</time>
      </trkpt>
      <trkpt lat="41.80605" lon="9.01921">
        <ele>497</ele>
        <time>2024-07-30T09:42:17Z</time>
      </trkpt>
      <trkpt lat="41.80606" lon="9.0192">
        <ele>497</ele>
        <time>2024-07-30T09:42:18Z</time>
      </trkpt>
      <trkpt lat="41.80611" lon="9.01901">
        <ele>497</ele>
        <time>2024-07-30T09:42:33Z</time>
      </trkpt>
      <trkpt lat="41.80612" lon="9.01897">
        <ele>497</ele>
        <time>2024-07-30T09:42:36Z</time>
      </trkpt>
      <trkpt lat="41.80614" lon="9.01894">
        <ele>497</ele>
        <time>2024-07-30T09:42:38Z</time>
      </trkpt>
      <trkpt lat="41.80614" lon="9.01892">
        <ele>496.8</ele>
        <time>2024-07-30T09:42:39Z</time>
      </trkpt>
      <trkpt lat="41.80619" lon="9.01887">
        <ele>496.8</ele>
        <time>2024-07-30T09:42:43Z</time>
      </trkpt>
      <trkpt lat="41.80621" lon="9.01884">
        <ele>496.8</ele>
        <time>2024-07-30T09:42:45Z</time>
      </trkpt>
      <trkpt lat="41.80632" lon="9.01879">
        <ele>496.8</ele>
        <time>2024-07-30T09:42:52Z</time>
      </trkpt>
      <trkpt lat="41.80641" lon="9.01872">
        <ele>496.4</ele>
        <time>2024-07-30T09:43:00Z</time>
      </trkpt>
      <trkpt lat="41.80652" lon="9.01873">
        <ele>496.6</ele>
        <time>2024-07-30T09:43:08Z</time>
      </trkpt>
      <trkpt lat="41.80671" lon="9.01876">
        <ele>496.4</ele>
        <time>2024-07-30T09:43:26Z</time>
      </trkpt>
      <trkpt lat="41.80686" lon="9.01873">
        <ele>496.2</ele>
        <time>2024-07-30T09:43:43Z</time>
      </trkpt>
      <trkpt lat="41.80701" lon="9.01866">
        <ele>496.2</ele>
        <time>2024-07-30T09:43:59Z</time>
      </trkpt>
      <trkpt lat="41.80706" lon="9.01862">
        <ele>496</ele>
        <time>2024-07-30T09:44:09Z</time>
      </trkpt>
      <trkpt lat="41.80707" lon="9.01859">
        <ele>495.8</ele>
        <time>2024-07-30T09:44:12Z</time>
      </trkpt>
      <trkpt lat="41.80708" lon="9.01856">
        <ele>495.8</ele>
        <time>2024-07-30T09:44:14Z</time>
      </trkpt>
      <trkpt lat="41.80711" lon="9.01851">
        <ele>495.8</ele>
        <time>2024-07-30T09:44:17Z</time>
      </trkpt>
      <trkpt lat="41.80717" lon="9.01842">
        <ele>496</ele>
        <time>2024-07-30T09:44:26Z</time>
      </trkpt>
      <trkpt lat="41.80731" lon="9.01824">
        <ele>496.2</ele>
        <time>2024-07-30T09:44:42Z</time>
      </trkpt>
      <trkpt lat="41.80732" lon="9.01822">
        <ele>496.2</ele>
        <time>2024-07-30T09:44:43Z</time>
      </trkpt>
      <trkpt lat="41.80734" lon="9.01801">
        <ele>495.6</ele>
        <time>2024-07-30T09:44:57Z</time>
      </trkpt>
      <trkpt lat="41.80735" lon="9.0178">
        <ele>495.6</ele>
        <time>2024-07-30T09:45:13Z</time>
      </trkpt>
      <trkpt lat="41.80735" lon="9.01775">
        <ele>495.4</ele>
        <time>2024-07-30T09:45:18Z</time>
      </trkpt>
      <trkpt lat="41.80734" lon="9.01774">
        <ele>495.4</ele>
        <time>2024-07-30T09:45:20Z</time>
      </trkpt>
      <trkpt lat="41.80733" lon="9.01772">
        <ele>495.4</ele>
        <time>2024-07-30T09:45:22Z</time>
      </trkpt>
      <trkpt lat="41.80733" lon="9.01761">
        <ele>495.2</ele>
        <time>2024-07-30T09:45:29Z</time>
      </trkpt>
      <trkpt lat="41.80734" lon="9.01756">
        <ele>494.8</ele>
        <time>2024-07-30T09:45:33Z</time>
      </trkpt>
      <trkpt lat="41.80734" lon="9.01754">
        <ele>494.8</ele>
        <time>2024-07-30T09:45:34Z</time>
      </trkpt>
      <trkpt lat="41.80735" lon="9.01751">
        <ele>494.6</ele>
        <time>2024-07-30T09:45:36Z</time>
      </trkpt>
      <trkpt lat="41.80737" lon="9.0174">
        <ele>494.8</ele>
        <time>2024-07-30T09:45:44Z</time>
      </trkpt>
      <trkpt lat="41.8074" lon="9.01718">
        <ele>494.8</ele>
        <time>2024-07-30T09:46:00Z</time>
      </trkpt>
      <trkpt lat="41.80738" lon="9.01703">
        <ele>494.4</ele>
        <time>2024-07-30T09:46:11Z</time>
      </trkpt>
      <trkpt lat="41.80737" lon="9.01701">
        <ele>494.4</ele>
        <time>2024-07-30T09:46:13Z</time>
      </trkpt>
      <trkpt lat="41.80727" lon="9.01692">
        <ele>494.4</ele>
        <time>2024-07-30T09:46:23Z</time>
      </trkpt>
      <trkpt lat="41.80726" lon="9.01691">
        <ele>494.2</ele>
        <time>2024-07-30T09:46:26Z</time>
      </trkpt>
      <trkpt lat="41.80724" lon="9.0169">
        <ele>494</ele>
        <time>2024-07-30T09:46:29Z</time>
      </trkpt>
      <trkpt lat="41.80723" lon="9.01688">
        <ele>493.8</ele>
        <time>2024-07-30T09:46:32Z</time>
      </trkpt>
      <trkpt lat="41.80726" lon="9.01686">
        <ele>494</ele>
        <time>2024-07-30T09:46:40Z</time>
      </trkpt>
      <trkpt lat="41.80724" lon="9.0168">
        <ele>493.8</ele>
        <time>2024-07-30T09:46:45Z</time>
      </trkpt>
      <trkpt lat="41.80722" lon="9.01677">
        <ele>493.8</ele>
        <time>2024-07-30T09:46:48Z</time>
      </trkpt>
      <trkpt lat="41.80721" lon="9.01675">
        <ele>493.8</ele>
        <time>2024-07-30T09:46:50Z</time>
      </trkpt>
      <trkpt lat="41.80719" lon="9.01671">
        <ele>493.8</ele>
        <time>2024-07-30T09:46:53Z</time>
      </trkpt>
      <trkpt lat="41.80708" lon="9.01659">
        <ele>493.6</ele>
        <time>2024-07-30T09:47:09Z</time>
      </trkpt>
      <trkpt lat="41.80706" lon="9.01658">
        <ele>494</ele>
        <time>2024-07-30T09:47:12Z</time>
      </trkpt>
      <trkpt lat="41.80702" lon="9.01655">
        <ele>493.6</ele>
        <time>2024-07-30T09:47:17Z</time>
      </trkpt>
      <trkpt lat="41.80698" lon="9.01652">
        <ele>493.8</ele>
        <time>2024-07-30T09:47:21Z</time>
      </trkpt>
      <trkpt lat="41.80694" lon="9.0165">
        <ele>493.8</ele>
        <time>2024-07-30T09:47:24Z</time>
      </trkpt>
      <trkpt lat="41.80693" lon="9.01649">
        <ele>493.8</ele>
        <time>2024-07-30T09:47:26Z</time>
      </trkpt>
      <trkpt lat="41.80692" lon="9.01648">
        <ele>493.8</ele>
        <time>2024-07-30T09:47:27Z</time>
      </trkpt>
      <trkpt lat="41.80689" lon="9.01645">
        <ele>493</ele>
        <time>2024-07-30T09:47:35Z</time>
      </trkpt>
      <trkpt lat="41.80686" lon="9.01641">
        <ele>492.6</ele>
        <time>2024-07-30T09:47:42Z</time>
      </trkpt>
      <trkpt lat="41.80685" lon="9.01646">
        <ele>492.8</ele>
        <time>2024-07-30T09:47:57Z</time>
      </trkpt>
      <trkpt lat="41.80685" lon="9.01645">
        <ele>492.4</ele>
        <time>2024-07-30T09:48:10Z</time>
      </trkpt>
      <trkpt lat="41.80683" lon="9.01642">
        <ele>492.2</ele>
        <time>2024-07-30T09:48:27Z</time>
      </trkpt>
      <trkpt lat="41.80683" lon="9.01641">
        <ele>492</ele>
        <time>2024-07-30T09:48:34Z</time>
      </trkpt>
      <trkpt lat="41.80684" lon="9.0164">
        <ele>492</ele>
        <time>2024-07-30T09:48:37Z</time>
      </trkpt>
      <trkpt lat="41.80686" lon="9.01632">
        <ele>492.4</ele>
        <time>2024-07-30T09:48:53Z</time>
      </trkpt>
      <trkpt lat="41.80686" lon="9.01631">
        <ele>492.2</ele>
        <time>2024-07-30T09:48:56Z</time>
      </trkpt>
      <trkpt lat="41.80679" lon="9.01626">
        <ele>491.8</ele>
        <time>2024-07-30T09:49:07Z</time>
      </trkpt>
      <trkpt lat="41.80678" lon="9.0163">
        <ele>492.8</ele>
        <time>2024-07-30T09:49:19Z</time>
      </trkpt>
      <trkpt lat="41.80671" lon="9.01625">
        <ele>492.8</ele>
        <time>2024-07-30T09:49:32Z</time>
      </trkpt>
      <trkpt lat="41.80671" lon="9.01621">
        <ele>493</ele>
        <time>2024-07-30T09:49:35Z</time>
      </trkpt>
      <trkpt lat="41.8067" lon="9.01619">
        <ele>493</ele>
        <time>2024-07-30T09:49:36Z</time>
      </trkpt>
      <trkpt lat="41.80671" lon="9.01613">
        <ele>493.2</ele>
        <time>2024-07-30T09:49:40Z</time>
      </trkpt>
      <trkpt lat="41.80671" lon="9.01611">
        <ele>493.2</ele>
        <time>2024-07-30T09:49:42Z</time>
      </trkpt>
      <trkpt lat="41.80673" lon="9.0161">
        <ele>493.2</ele>
        <time>2024-07-30T09:49:44Z</time>
      </trkpt>
      <trkpt lat="41.80673" lon="9.01608">
        <ele>493.2</ele>
        <time>2024-07-30T09:49:46Z</time>
      </trkpt>
      <trkpt lat="41.80674" lon="9.01606">
        <ele>493.2</ele>
        <time>2024-07-30T09:49:48Z</time>
      </trkpt>
      <trkpt lat="41.80675" lon="9.016">
        <ele>492.8</ele>
        <time>2024-07-30T09:49:53Z</time>
      </trkpt>
      <trkpt lat="41.80676" lon="9.01599">
        <ele>492.8</ele>
        <time>2024-07-30T09:49:55Z</time>
      </trkpt>
      <trkpt lat="41.80676" lon="9.01599">
        <ele>492.8</ele>
        <time>2024-07-30T09:49:59Z</time>
      </trkpt>
      <trkpt lat="41.8068" lon="9.01595">
        <ele>493</ele>
        <time>2024-07-30T09:50:04Z</time>
      </trkpt>
      <trkpt lat="41.80682" lon="9.01593">
        <ele>493.2</ele>
        <time>2024-07-30T09:50:06Z</time>
      </trkpt>
      <trkpt lat="41.80684" lon="9.01591">
        <ele>493.2</ele>
        <time>2024-07-30T09:50:08Z</time>
      </trkpt>
      <trkpt lat="41.80685" lon="9.01588">
        <ele>493</ele>
        <time>2024-07-30T09:50:11Z</time>
      </trkpt>
      <trkpt lat="41.80686" lon="9.01586">
        <ele>493</ele>
        <time>2024-07-30T09:50:13Z</time>
      </trkpt>
      <trkpt lat="41.80687" lon="9.01581">
        <ele>493.8</ele>
        <time>2024-07-30T09:50:17Z</time>
      </trkpt>
      <trkpt lat="41.80688" lon="9.01577">
        <ele>494</ele>
        <time>2024-07-30T09:50:20Z</time>
      </trkpt>
      <trkpt lat="41.80688" lon="9.01576">
        <ele>494.2</ele>
        <time>2024-07-30T09:50:21Z</time>
      </trkpt>
      <trkpt lat="41.80688" lon="9.01575">
        <ele>494.2</ele>
        <time>2024-07-30T09:50:22Z</time>
      </trkpt>
      <trkpt lat="41.80689" lon="9.01573">
        <ele>494.4</ele>
        <time>2024-07-30T09:50:24Z</time>
      </trkpt>
      <trkpt lat="41.80691" lon="9.01567">
        <ele>494.4</ele>
        <time>2024-07-30T09:50:31Z</time>
      </trkpt>
      <trkpt lat="41.807" lon="9.01555">
        <ele>493.4</ele>
        <time>2024-07-30T09:50:44Z</time>
      </trkpt>
      <trkpt lat="41.80705" lon="9.01552">
        <ele>493</ele>
        <time>2024-07-30T09:50:49Z</time>
      </trkpt>
      <trkpt lat="41.80713" lon="9.01548">
        <ele>492.6</ele>
        <time>2024-07-30T09:50:58Z</time>
      </trkpt>
      <trkpt lat="41.80715" lon="9.01546">
        <ele>492.6</ele>
        <time>2024-07-30T09:51:03Z</time>
      </trkpt>
      <trkpt lat="41.80715" lon="9.01546">
        <ele>492.8</ele>
        <time>2024-07-30T09:51:08Z</time>
      </trkpt>
      <trkpt lat="41.80715" lon="9.01546">
        <ele>492.6</ele>
        <time>2024-07-30T09:51:23Z</time>
      </trkpt>
      <trkpt lat="41.80715" lon="9.01547">
        <ele>492.6</ele>
        <time>2024-07-30T09:51:43Z</time>
      </trkpt>
      <trkpt lat="41.80712" lon="9.01552">
        <ele>493</ele>
        <time>2024-07-30T09:51:54Z</time>
      </trkpt>
      <trkpt lat="41.8071" lon="9.01553">
        <ele>493</ele>
        <time>2024-07-30T09:51:56Z</time>
      </trkpt>
      <trkpt lat="41.80706" lon="9.01552">
        <ele>493</ele>
        <time>2024-07-30T09:52:00Z</time>
      </trkpt>
      <trkpt lat="41.80703" lon="9.01551">
        <ele>493</ele>
        <time>2024-07-30T09:52:03Z</time>
      </trkpt>
      <trkpt lat="41.80693" lon="9.01546">
        <ele>492.8</ele>
        <time>2024-07-30T09:52:16Z</time>
      </trkpt>
      <trkpt lat="41.80682" lon="9.01541">
        <ele>494</ele>
        <time>2024-07-30T09:52:30Z</time>
      </trkpt>
      <trkpt lat="41.80681" lon="9.01541">
        <ele>494</ele>
        <time>2024-07-30T09:52:31Z</time>
      </trkpt>
      <trkpt lat="41.8068" lon="9.01542">
        <ele>493.8</ele>
        <time>2024-07-30T09:52:35Z</time>
      </trkpt>
      <trkpt lat="41.8068" lon="9.01543">
        <ele>494</ele>
        <time>2024-07-30T09:52:42Z</time>
      </trkpt>
      <trkpt lat="41.80678" lon="9.01543">
        <ele>494.2</ele>
        <time>2024-07-30T09:52:45Z</time>
      </trkpt>
      <trkpt lat="41.80673" lon="9.01543">
        <ele>494.8</ele>
        <time>2024-07-30T09:52:51Z</time>
      </trkpt>
      <trkpt lat="41.80664" lon="9.01539">
        <ele>495.4</ele>
        <time>2024-07-30T09:53:01Z</time>
      </trkpt>
      <trkpt lat="41.8066" lon="9.01537">
        <ele>495.6</ele>
        <time>2024-07-30T09:53:05Z</time>
      </trkpt>
      <trkpt lat="41.80651" lon="9.01535">
        <ele>496.6</ele>
        <time>2024-07-30T09:53:14Z</time>
      </trkpt>
      <trkpt lat="41.80651" lon="9.01534">
        <ele>497.2</ele>
        <time>2024-07-30T09:53:18Z</time>
      </trkpt>
      <trkpt lat="41.80651" lon="9.01533">
        <ele>497.4</ele>
        <time>2024-07-30T09:53:19Z</time>
      </trkpt>
      <trkpt lat="41.80659" lon="9.01536">
        <ele>496.4</ele>
        <time>2024-07-30T09:53:29Z</time>
      </trkpt>
      <trkpt lat="41.80663" lon="9.01536">
        <ele>496.2</ele>
        <time>2024-07-30T09:53:32Z</time>
      </trkpt>
      <trkpt lat="41.80672" lon="9.01539">
        <ele>495.4</ele>
        <time>2024-07-30T09:53:42Z</time>
      </trkpt>
      <trkpt lat="41.80676" lon="9.01541">
        <ele>495.2</ele>
        <time>2024-07-30T09:53:45Z</time>
      </trkpt>
      <trkpt lat="41.8068" lon="9.01542">
        <ele>494.4</ele>
        <time>2024-07-30T09:53:50Z</time>
      </trkpt>
      <trkpt lat="41.80681" lon="9.01542">
        <ele>494</ele>
        <time>2024-07-30T09:53:55Z</time>
      </trkpt>
      <trkpt lat="41.80682" lon="9.01543">
        <ele>493.8</ele>
        <time>2024-07-30T09:53:58Z</time>
      </trkpt>
      <trkpt lat="41.80683" lon="9.01544">
        <ele>494.8</ele>
        <time>2024-07-30T09:54:09Z</time>
      </trkpt>
      <trkpt lat="41.80683" lon="9.01544">
        <ele>495</ele>
        <time>2024-07-30T09:54:23Z</time>
      </trkpt>
    </trkseg>
  </trk>
</gpx>